PWSweather.com
Personal Weather Stations
Station Observations
PERRYTONTX
Perryton, TX

Perryton, TX

Lat: 36.3746986, Lon: -100.8124008

Elevation: 2940

Station Type: Rainwise 2000

High Low Average
Temperature 83.4°F28.6°C 0.0°F-17.8°C 63.5°F17.5°C
Dew Point 60.8°F16.0°C 26.0°F-3.3°C 40.1°F4.5°C
Winds 24.7 mph 39.8 kmh 3.9 mph 6.3 kmh 13.0 mph WSW20.9 kmh WSW
Wind Gusts 20.0 mph32.2 kmh 6.0 mph9.7 kmh 13.0 mph20.9 kmh
Humidity 100% 0% 55%
Pressure 32.18 in1089.7 mb 31.94 in1081.6 mb -
Precipitation 0.00 in0.0 mm - -
Hour Temp Dew Point Humidity Winds Wind Gusts Pressure Precip Precip Rate Daily Precip Total
12:00 AM 61.8°F16.6°C 61.8°F16.6°C 100% 6.5 mph S10.5 kmh S 14.0 mph22.5 kmh 32.06 in1085.7 mb 0.00 in0.0 mm 0.00 in/hr0.0 mm/hr 0.00 in0.0 mm
12:02 AM 61.8°F16.6°C 61.8°F16.6°C 100% 9.1 mph S14.6 kmh S 11.0 mph17.7 kmh 32.06 in1085.7 mb 0.00 in0.0 mm 0.00 in/hr0.0 mm/hr 0.00 in0.0 mm
12:04 AM 61.8°F16.6°C 61.8°F16.6°C 100% 5.2 mph SSW8.4 kmh SSW 10.0 mph16.1 kmh 32.06 in1085.7 mb 0.00 in0.0 mm 0.00 in/hr0.0 mm/hr 0.00 in0.0 mm
12:06 AM 61.8°F16.6°C 61.8°F16.6°C 100% 9.1 mph SSE14.6 kmh SSE 12.0 mph19.3 kmh 32.06 in1085.7 mb 0.00 in0.0 mm 0.00 in/hr0.0 mm/hr 0.00 in0.0 mm
12:08 AM 61.8°F16.6°C 61.8°F16.6°C 100% 16.9 mph S27.2 kmh S 14.0 mph22.5 kmh 32.06 in1085.7 mb 0.00 in0.0 mm 0.00 in/hr0.0 mm/hr 0.00 in0.0 mm
12:10 AM 61.8°F16.6°C 61.8°F16.6°C 100% 10.4 mph S16.7 kmh S 10.0 mph16.1 kmh 32.06 in1085.7 mb 0.00 in0.0 mm 0.00 in/hr0.0 mm/hr 0.00 in0.0 mm
12:12 AM 61.8°F16.6°C 61.8°F16.6°C 100% 13.0 mph SSE20.9 kmh SSE 10.0 mph16.1 kmh 32.06 in1085.7 mb 0.00 in0.0 mm 0.00 in/hr0.0 mm/hr 0.00 in0.0 mm
12:14 AM 61.8°F16.6°C 61.8°F16.6°C 100% 6.5 mph SSE10.5 kmh SSE 12.0 mph19.3 kmh 32.06 in1085.7 mb 0.00 in0.0 mm 0.00 in/hr0.0 mm/hr 0.00 in0.0 mm
12:16 AM 61.8°F16.6°C 61.8°F16.6°C 100% 7.8 mph SSE12.6 kmh SSE 10.0 mph16.1 kmh 32.06 in1085.7 mb 0.00 in0.0 mm 0.00 in/hr0.0 mm/hr 0.00 in0.0 mm
12:18 AM 60.8°F16.0°C 60.8°F16.0°C 100% 13.0 mph SSE20.9 kmh SSE 12.0 mph19.3 kmh 32.06 in1085.7 mb 0.00 in0.0 mm 0.00 in/hr0.0 mm/hr 0.00 in0.0 mm
12:20 AM 60.8°F16.0°C 60.8°F16.0°C 100% 5.2 mph SSW8.4 kmh SSW 11.0 mph17.7 kmh 32.06 in1085.7 mb 0.00 in0.0 mm 0.00 in/hr0.0 mm/hr 0.00 in0.0 mm
12:22 AM 60.8°F16.0°C 60.8°F16.0°C 100% 6.5 mph SE10.5 kmh SE 10.0 mph16.1 kmh 32.06 in1085.7 mb 0.00 in0.0 mm 0.00 in/hr0.0 mm/hr 0.00 in0.0 mm
12:24 AM 60.8°F16.0°C 60.8°F16.0°C 100% 14.3 mph SSE23.0 kmh SSE 13.0 mph20.9 kmh 32.06 in1085.7 mb 0.00 in0.0 mm 0.00 in/hr0.0 mm/hr 0.00 in0.0 mm
12:26 AM 60.8°F16.0°C 60.8°F16.0°C 100% 11.7 mph SSE18.8 kmh SSE 11.0 mph17.7 kmh 32.06 in1085.7 mb 0.00 in0.0 mm 0.00 in/hr0.0 mm/hr 0.00 in0.0 mm
12:28 AM 60.8°F16.0°C 60.8°F16.0°C 100% 6.5 mph S10.5 kmh S 11.0 mph17.7 kmh 32.06 in1085.7 mb 0.00 in0.0 mm 0.00 in/hr0.0 mm/hr 0.00 in0.0 mm
12:30 AM 60.8°F16.0°C 60.8°F16.0°C 100% 10.4 mph SE16.7 kmh SE 12.0 mph19.3 kmh 32.06 in1085.7 mb 0.00 in0.0 mm 0.00 in/hr0.0 mm/hr 0.00 in0.0 mm
12:32 AM 60.8°F16.0°C 60.8°F16.0°C 100% 9.1 mph SSE14.6 kmh SSE 10.0 mph16.1 kmh 32.06 in1085.7 mb 0.00 in0.0 mm 0.00 in/hr0.0 mm/hr 0.00 in0.0 mm
12:34 AM 60.8°F16.0°C 60.8°F16.0°C 100% 11.7 mph S18.8 kmh S 12.0 mph19.3 kmh 32.07 in1086.0 mb 0.00 in0.0 mm 0.00 in/hr0.0 mm/hr 0.00 in0.0 mm
12:36 AM 60.8°F16.0°C 60.8°F16.0°C 100% 7.8 mph SSE12.6 kmh SSE 10.0 mph16.1 kmh 32.07 in1086.0 mb 0.00 in0.0 mm 0.00 in/hr0.0 mm/hr 0.00 in0.0 mm
12:38 AM 60.8°F16.0°C 60.8°F16.0°C 100% 7.8 mph S12.6 kmh S 11.0 mph17.7 kmh 32.07 in1086.0 mb 0.00 in0.0 mm 0.00 in/hr0.0 mm/hr 0.00 in0.0 mm
12:40 AM 60.8°F16.0°C 60.8°F16.0°C 100% 7.8 mph S12.6 kmh S 10.0 mph16.1 kmh 32.07 in1086.0 mb 0.00 in0.0 mm 0.00 in/hr0.0 mm/hr 0.00 in0.0 mm
12:42 AM 60.8°F16.0°C 60.8°F16.0°C 100% 11.7 mph S18.8 kmh S 14.0 mph22.5 kmh 32.07 in1086.0 mb 0.00 in0.0 mm 0.00 in/hr0.0 mm/hr 0.00 in0.0 mm
12:44 AM 60.8°F16.0°C 60.8°F16.0°C 100% 10.4 mph S16.7 kmh S 16.0 mph25.7 kmh 32.06 in1085.7 mb 0.00 in0.0 mm 0.00 in/hr0.0 mm/hr 0.00 in0.0 mm
12:46 AM 60.8°F16.0°C 60.8°F16.0°C 100% 13.0 mph S20.9 kmh S 15.0 mph24.1 kmh 32.06 in1085.7 mb 0.00 in0.0 mm 0.00 in/hr0.0 mm/hr 0.00 in0.0 mm
12:48 AM 60.8°F16.0°C 60.8°F16.0°C 100% 20.8 mph SSE33.5 kmh SSE 16.0 mph25.7 kmh 32.06 in1085.7 mb 0.00 in0.0 mm 0.00 in/hr0.0 mm/hr 0.00 in0.0 mm
12:50 AM 60.8°F16.0°C 60.8°F16.0°C 100% 13.0 mph SSW20.9 kmh SSW 18.0 mph29.0 kmh 32.06 in1085.7 mb 0.00 in0.0 mm 0.00 in/hr0.0 mm/hr 0.00 in0.0 mm
12:52 AM 60.8°F16.0°C 60.8°F16.0°C 100% 23.4 mph S37.7 kmh S 18.0 mph29.0 kmh 32.06 in1085.7 mb 0.00 in0.0 mm 0.00 in/hr0.0 mm/hr 0.00 in0.0 mm
12:54 AM 60.8°F16.0°C 60.8°F16.0°C 100% 13.0 mph SSE20.9 kmh SSE 17.0 mph27.4 kmh 32.06 in1085.7 mb 0.00 in0.0 mm 0.00 in/hr0.0 mm/hr 0.00 in0.0 mm
12:56 AM 60.8°F16.0°C 60.8°F16.0°C 100% 15.6 mph S25.1 kmh S 18.0 mph29.0 kmh 32.06 in1085.7 mb 0.00 in0.0 mm 0.00 in/hr0.0 mm/hr 0.00 in0.0 mm
12:58 AM 60.8°F16.0°C 60.8°F16.0°C 100% 16.9 mph S27.2 kmh S 17.0 mph27.4 kmh 32.06 in1085.7 mb 0.00 in0.0 mm 0.00 in/hr0.0 mm/hr 0.00 in0.0 mm
01:00 AM 60.8°F16.0°C 60.8°F16.0°C 100% 16.9 mph SSE27.2 kmh SSE 15.0 mph24.1 kmh 32.06 in1085.7 mb 0.00 in0.0 mm 0.00 in/hr0.0 mm/hr 0.00 in0.0 mm
01:02 AM 60.8°F16.0°C 60.8°F16.0°C 100% 13.0 mph SSW20.9 kmh SSW 17.0 mph27.4 kmh 32.06 in1085.7 mb 0.00 in0.0 mm 0.00 in/hr0.0 mm/hr 0.00 in0.0 mm
01:04 AM 60.8°F16.0°C 60.8°F16.0°C 100% 11.7 mph SW18.8 kmh SW 15.0 mph24.1 kmh 32.06 in1085.7 mb 0.00 in0.0 mm 0.00 in/hr0.0 mm/hr 0.00 in0.0 mm
01:06 AM 60.8°F16.0°C 60.8°F16.0°C 100% 15.6 mph SSE25.1 kmh SSE 17.0 mph27.4 kmh 32.06 in1085.7 mb 0.00 in0.0 mm 0.00 in/hr0.0 mm/hr 0.00 in0.0 mm
01:08 AM 60.8°F16.0°C 60.8°F16.0°C 100% 15.6 mph S25.1 kmh S 15.0 mph24.1 kmh 32.06 in1085.7 mb 0.00 in0.0 mm 0.00 in/hr0.0 mm/hr 0.00 in0.0 mm
01:10 AM 60.8°F16.0°C 60.8°F16.0°C 100% 11.7 mph S18.8 kmh S 14.0 mph22.5 kmh 32.06 in1085.7 mb 0.00 in0.0 mm 0.00 in/hr0.0 mm/hr 0.00 in0.0 mm
01:12 AM 60.8°F16.0°C 60.8°F16.0°C 100% 14.3 mph S23.0 kmh S 16.0 mph25.7 kmh 32.06 in1085.7 mb 0.00 in0.0 mm 0.00 in/hr0.0 mm/hr 0.00 in0.0 mm
01:14 AM 60.8°F16.0°C 60.8°F16.0°C 100% 11.7 mph S18.8 kmh S 17.0 mph27.4 kmh 32.06 in1085.7 mb 0.00 in0.0 mm 0.00 in/hr0.0 mm/hr 0.00 in0.0 mm
01:16 AM 60.8°F16.0°C 60.8°F16.0°C 100% 16.9 mph SSE27.2 kmh SSE 13.0 mph20.9 kmh 32.06 in1085.7 mb 0.00 in0.0 mm 0.00 in/hr0.0 mm/hr 0.00 in0.0 mm
01:18 AM 60.8°F16.0°C 60.8°F16.0°C 100% 15.6 mph SSE25.1 kmh SSE 15.0 mph24.1 kmh 32.06 in1085.7 mb 0.00 in0.0 mm 0.00 in/hr0.0 mm/hr 0.00 in0.0 mm
01:20 AM 60.8°F16.0°C 60.8°F16.0°C 100% 16.9 mph S27.2 kmh S 19.0 mph30.6 kmh 32.06 in1085.7 mb 0.00 in0.0 mm 0.00 in/hr0.0 mm/hr 0.00 in0.0 mm
01:22 AM 60.8°F16.0°C 60.8°F16.0°C 100% 15.6 mph S25.1 kmh S 17.0 mph27.4 kmh 32.06 in1085.7 mb 0.00 in0.0 mm 0.00 in/hr0.0 mm/hr 0.00 in0.0 mm
01:24 AM 60.8°F16.0°C 60.8°F16.0°C 100% 14.3 mph SSE23.0 kmh SSE 16.0 mph25.7 kmh 32.06 in1085.7 mb 0.00 in0.0 mm 0.00 in/hr0.0 mm/hr 0.00 in0.0 mm
01:26 AM 60.8°F16.0°C 60.8°F16.0°C 100% 14.3 mph SSE23.0 kmh SSE 17.0 mph27.4 kmh 32.06 in1085.7 mb 0.00 in0.0 mm 0.00 in/hr0.0 mm/hr 0.00 in0.0 mm
01:28 AM 60.8°F16.0°C 60.8°F16.0°C 100% 14.3 mph SSE23.0 kmh SSE 18.0 mph29.0 kmh 32.06 in1085.7 mb 0.00 in0.0 mm 0.00 in/hr0.0 mm/hr 0.00 in0.0 mm
01:30 AM 59.7°F15.4°C 59.7°F15.4°C 100% 14.3 mph S23.0 kmh S 15.0 mph24.1 kmh 32.06 in1085.7 mb 0.00 in0.0 mm 0.00 in/hr0.0 mm/hr 0.00 in0.0 mm
01:32 AM 60.8°F16.0°C 60.8°F16.0°C 100% 18.2 mph SSE29.3 kmh SSE 18.0 mph29.0 kmh 32.06 in1085.7 mb 0.00 in0.0 mm 0.00 in/hr0.0 mm/hr 0.00 in0.0 mm
01:34 AM 59.7°F15.4°C 59.7°F15.4°C 100% 13.0 mph S20.9 kmh S 16.0 mph25.7 kmh 32.06 in1085.7 mb 0.00 in0.0 mm 0.00 in/hr0.0 mm/hr 0.00 in0.0 mm
01:36 AM 59.7°F15.4°C 59.7°F15.4°C 100% 16.9 mph S27.2 kmh S 16.0 mph25.7 kmh 32.06 in1085.7 mb 0.00 in0.0 mm 0.00 in/hr0.0 mm/hr 0.00 in0.0 mm
01:38 AM 59.7°F15.4°C 59.7°F15.4°C 100% 9.1 mph S14.6 kmh S 17.0 mph27.4 kmh 32.06 in1085.7 mb 0.00 in0.0 mm 0.00 in/hr0.0 mm/hr 0.00 in0.0 mm
01:40 AM 59.7°F15.4°C 59.7°F15.4°C 100% 11.7 mph S18.8 kmh S 15.0 mph24.1 kmh 32.06 in1085.7 mb 0.00 in0.0 mm 0.00 in/hr0.0 mm/hr 0.00 in0.0 mm
01:42 AM 59.7°F15.4°C 59.7°F15.4°C 100% 16.9 mph SE27.2 kmh SE 15.0 mph24.1 kmh 32.06 in1085.7 mb 0.00 in0.0 mm 0.00 in/hr0.0 mm/hr 0.00 in0.0 mm
01:44 AM 59.7°F15.4°C 59.7°F15.4°C 100% 13.0 mph SSE20.9 kmh SSE 13.0 mph20.9 kmh 32.06 in1085.7 mb 0.00 in0.0 mm 0.00 in/hr0.0 mm/hr 0.00 in0.0 mm
01:46 AM 59.7°F15.4°C 59.7°F15.4°C 100% 14.3 mph S23.0 kmh S 17.0 mph27.4 kmh 32.06 in1085.7 mb 0.00 in0.0 mm 0.00 in/hr0.0 mm/hr 0.00 in0.0 mm
01:48 AM 59.7°F15.4°C 59.7°F15.4°C 100% 19.5 mph S31.4 kmh S 16.0 mph25.7 kmh 32.06 in1085.7 mb 0.00 in0.0 mm 0.00 in/hr0.0 mm/hr 0.00 in0.0 mm
01:50 AM 59.7°F15.4°C 59.7°F15.4°C 100% 13.0 mph S20.9 kmh S 14.0 mph22.5 kmh 32.06 in1085.7 mb 0.00 in0.0 mm 0.00 in/hr0.0 mm/hr 0.00 in0.0 mm
01:52 AM 59.7°F15.4°C 59.7°F15.4°C 100% 14.3 mph SSE23.0 kmh SSE 14.0 mph22.5 kmh 32.06 in1085.7 mb 0.00 in0.0 mm 0.00 in/hr0.0 mm/hr 0.00 in0.0 mm
01:54 AM 59.7°F15.4°C 59.7°F15.4°C 100% 9.1 mph SSW14.6 kmh SSW 14.0 mph22.5 kmh 32.06 in1085.7 mb 0.00 in0.0 mm 0.00 in/hr0.0 mm/hr 0.00 in0.0 mm
01:56 AM 59.7°F15.4°C 59.7°F15.4°C 100% 9.1 mph SSW14.6 kmh SSW 14.0 mph22.5 kmh 32.06 in1085.7 mb 0.00 in0.0 mm 0.00 in/hr0.0 mm/hr 0.00 in0.0 mm
01:58 AM 59.7°F15.4°C 59.7°F15.4°C 100% 9.1 mph SSW14.6 kmh SSW 10.0 mph16.1 kmh 32.06 in1085.7 mb 0.00 in0.0 mm 0.00 in/hr0.0 mm/hr 0.00 in0.0 mm
02:00 AM 58.7°F14.8°C 58.7°F14.8°C 100% 9.1 mph SSW14.6 kmh SSW 10.0 mph16.1 kmh 32.06 in1085.7 mb 0.00 in0.0 mm 0.00 in/hr0.0 mm/hr 0.00 in0.0 mm
02:02 AM 58.7°F14.8°C 58.7°F14.8°C 100% 9.1 mph SSE14.6 kmh SSE 9.0 mph14.5 kmh 32.06 in1085.7 mb 0.00 in0.0 mm 0.00 in/hr0.0 mm/hr 0.00 in0.0 mm
02:04 AM 58.7°F14.8°C 58.7°F14.8°C 100% 7.8 mph S12.6 kmh S 10.0 mph16.1 kmh 32.06 in1085.7 mb 0.00 in0.0 mm 0.00 in/hr0.0 mm/hr 0.00 in0.0 mm
02:06 AM 58.7°F14.8°C 58.7°F14.8°C 100% 6.5 mph SSW10.5 kmh SSW 8.0 mph12.9 kmh 32.06 in1085.7 mb 0.00 in0.0 mm 0.00 in/hr0.0 mm/hr 0.00 in0.0 mm
02:08 AM 58.7°F14.8°C 58.7°F14.8°C 100% 13.0 mph S20.9 kmh S 10.0 mph16.1 kmh 32.06 in1085.7 mb 0.00 in0.0 mm 0.00 in/hr0.0 mm/hr 0.00 in0.0 mm
02:10 AM 58.7°F14.8°C 58.7°F14.8°C 100% 11.7 mph S18.8 kmh S 13.0 mph20.9 kmh 32.06 in1085.7 mb 0.00 in0.0 mm 0.00 in/hr0.0 mm/hr 0.00 in0.0 mm
02:12 AM 58.7°F14.8°C 58.7°F14.8°C 100% 10.4 mph S16.7 kmh S 13.0 mph20.9 kmh 32.06 in1085.7 mb 0.00 in0.0 mm 0.00 in/hr0.0 mm/hr 0.00 in0.0 mm
02:14 AM 58.7°F14.8°C 58.7°F14.8°C 100% 5.2 mph SW8.4 kmh SW 11.0 mph17.7 kmh 32.07 in1086.0 mb 0.00 in0.0 mm 0.00 in/hr0.0 mm/hr 0.00 in0.0 mm
02:16 AM 58.7°F14.8°C 58.7°F14.8°C 100% 11.7 mph SSW18.8 kmh SSW 11.0 mph17.7 kmh 32.07 in1086.0 mb 0.00 in0.0 mm 0.00 in/hr0.0 mm/hr 0.00 in0.0 mm
02:18 AM 58.7°F14.8°C 58.7°F14.8°C 100% 10.4 mph SW16.7 kmh SW 10.0 mph16.1 kmh 32.07 in1086.0 mb 0.00 in0.0 mm 0.00 in/hr0.0 mm/hr 0.00 in0.0 mm
02:20 AM 58.7°F14.8°C 58.7°F14.8°C 100% 10.4 mph SSW16.7 kmh SSW 11.0 mph17.7 kmh 32.07 in1086.0 mb 0.00 in0.0 mm 0.00 in/hr0.0 mm/hr 0.00 in0.0 mm
02:22 AM 58.7°F14.8°C 58.7°F14.8°C 100% 11.7 mph SSW18.8 kmh SSW 11.0 mph17.7 kmh 32.07 in1086.0 mb 0.00 in0.0 mm 0.00 in/hr0.0 mm/hr 0.00 in0.0 mm
02:24 AM 58.7°F14.8°C 58.7°F14.8°C 100% 11.7 mph S18.8 kmh S 13.0 mph20.9 kmh 32.08 in1086.4 mb 0.00 in0.0 mm 0.00 in/hr0.0 mm/hr 0.00 in0.0 mm
02:26 AM 58.7°F14.8°C 58.7°F14.8°C 100% 10.4 mph SSW16.7 kmh SSW 11.0 mph17.7 kmh 32.08 in1086.4 mb 0.00 in0.0 mm 0.00 in/hr0.0 mm/hr 0.00 in0.0 mm
02:28 AM 58.7°F14.8°C 58.7°F14.8°C 100% 13.0 mph SSW20.9 kmh SSW 12.0 mph19.3 kmh 32.08 in1086.4 mb 0.00 in0.0 mm 0.00 in/hr0.0 mm/hr 0.00 in0.0 mm
02:30 AM 58.7°F14.8°C 58.7°F14.8°C 100% 9.1 mph SSW14.6 kmh SSW 13.0 mph20.9 kmh 32.08 in1086.4 mb 0.00 in0.0 mm 0.00 in/hr0.0 mm/hr 0.00 in0.0 mm
02:32 AM 58.7°F14.8°C 58.7°F14.8°C 100% 11.7 mph SSW18.8 kmh SSW 17.0 mph27.4 kmh 32.08 in1086.4 mb 0.00 in0.0 mm 0.00 in/hr0.0 mm/hr 0.00 in0.0 mm
02:34 AM 58.7°F14.8°C 58.7°F14.8°C 100% 10.4 mph SW16.7 kmh SW 15.0 mph24.1 kmh 32.07 in1086.0 mb 0.00 in0.0 mm 0.00 in/hr0.0 mm/hr 0.00 in0.0 mm
02:36 AM 58.7°F14.8°C 58.7°F14.8°C 100% 11.7 mph SSW18.8 kmh SSW 17.0 mph27.4 kmh 32.07 in1086.0 mb 0.00 in0.0 mm 0.00 in/hr0.0 mm/hr 0.00 in0.0 mm
02:38 AM 58.7°F14.8°C 58.7°F14.8°C 100% 9.1 mph SW14.6 kmh SW 16.0 mph25.7 kmh 32.07 in1086.0 mb 0.00 in0.0 mm 0.00 in/hr0.0 mm/hr 0.00 in0.0 mm
02:40 AM 58.7°F14.8°C 58.7°F14.8°C 100% 10.4 mph SSW16.7 kmh SSW 15.0 mph24.1 kmh 32.07 in1086.0 mb 0.00 in0.0 mm 0.00 in/hr0.0 mm/hr 0.00 in0.0 mm
02:42 AM 59.7°F15.4°C 59.7°F15.4°C 100% 13.0 mph SSW20.9 kmh SSW 18.0 mph29.0 kmh 32.07 in1086.0 mb 0.00 in0.0 mm 0.00 in/hr0.0 mm/hr 0.00 in0.0 mm
02:44 AM 59.7°F15.4°C 59.7°F15.4°C 100% 16.9 mph SSW27.2 kmh SSW 18.0 mph29.0 kmh 32.06 in1085.7 mb 0.00 in0.0 mm 0.00 in/hr0.0 mm/hr 0.00 in0.0 mm
02:46 AM 59.7°F15.4°C 59.7°F15.4°C 100% 15.6 mph SSW25.1 kmh SSW 14.0 mph22.5 kmh 32.06 in1085.7 mb 0.00 in0.0 mm 0.00 in/hr0.0 mm/hr 0.00 in0.0 mm
02:48 AM 59.7°F15.4°C 59.7°F15.4°C 100% 7.8 mph SSW12.6 kmh SSW 16.0 mph25.7 kmh 32.06 in1085.7 mb 0.00 in0.0 mm 0.00 in/hr0.0 mm/hr 0.00 in0.0 mm
02:50 AM 59.7°F15.4°C 59.7°F15.4°C 100% 19.5 mph SSW31.4 kmh SSW 15.0 mph24.1 kmh 32.06 in1085.7 mb 0.00 in0.0 mm 0.00 in/hr0.0 mm/hr 0.00 in0.0 mm
02:52 AM 59.7°F15.4°C 59.7°F15.4°C 100% 10.4 mph SSW16.7 kmh SSW 15.0 mph24.1 kmh 32.06 in1085.7 mb 0.00 in0.0 mm 0.00 in/hr0.0 mm/hr 0.00 in0.0 mm
02:54 AM 59.7°F15.4°C 59.7°F15.4°C 100% 20.8 mph SSW33.5 kmh SSW 16.0 mph25.7 kmh 32.06 in1085.7 mb 0.00 in0.0 mm 0.00 in/hr0.0 mm/hr 0.00 in0.0 mm
02:56 AM 59.7°F15.4°C 59.7°F15.4°C 100% 11.7 mph SW18.8 kmh SW 15.0 mph24.1 kmh 32.06 in1085.7 mb 0.00 in0.0 mm 0.00 in/hr0.0 mm/hr 0.00 in0.0 mm
02:58 AM 59.7°F15.4°C 59.7°F15.4°C 100% 11.7 mph SSW18.8 kmh SSW 17.0 mph27.4 kmh 32.06 in1085.7 mb 0.00 in0.0 mm 0.00 in/hr0.0 mm/hr 0.00 in0.0 mm
03:00 AM 59.7°F15.4°C 59.7°F15.4°C 100% 15.6 mph SW25.1 kmh SW 16.0 mph25.7 kmh 32.06 in1085.7 mb 0.00 in0.0 mm 0.00 in/hr0.0 mm/hr 0.00 in0.0 mm
03:02 AM 59.7°F15.4°C 59.7°F15.4°C 100% 18.2 mph SSW29.3 kmh SSW 18.0 mph29.0 kmh 32.06 in1085.7 mb 0.00 in0.0 mm 0.00 in/hr0.0 mm/hr 0.00 in0.0 mm
03:04 AM 59.7°F15.4°C 59.7°F15.4°C 100% 20.8 mph SSW33.5 kmh SSW 19.0 mph30.6 kmh 32.06 in1085.7 mb 0.00 in0.0 mm 0.00 in/hr0.0 mm/hr 0.00 in0.0 mm
03:06 AM 59.7°F15.4°C 59.7°F15.4°C 100% 16.9 mph SSW27.2 kmh SSW 19.0 mph30.6 kmh 32.06 in1085.7 mb 0.00 in0.0 mm 0.00 in/hr0.0 mm/hr 0.00 in0.0 mm
03:08 AM 59.7°F15.4°C 59.7°F15.4°C 100% 16.9 mph SW27.2 kmh SW 17.0 mph27.4 kmh 32.06 in1085.7 mb 0.00 in0.0 mm 0.00 in/hr0.0 mm/hr 0.00 in0.0 mm
03:10 AM 58.7°F14.8°C 58.7°F14.8°C 100% 10.4 mph SSW16.7 kmh SSW 18.0 mph29.0 kmh 32.06 in1085.7 mb 0.00 in0.0 mm 0.00 in/hr0.0 mm/hr 0.00 in0.0 mm
03:12 AM 58.7°F14.8°C 58.7°F14.8°C 100% 16.9 mph SW27.2 kmh SW 15.0 mph24.1 kmh 32.06 in1085.7 mb 0.00 in0.0 mm 0.00 in/hr0.0 mm/hr 0.00 in0.0 mm
03:14 AM 58.7°F14.8°C 58.7°F14.8°C 100% 15.6 mph SW25.1 kmh SW 18.0 mph29.0 kmh 32.06 in1085.7 mb 0.00 in0.0 mm 0.00 in/hr0.0 mm/hr 0.00 in0.0 mm
03:16 AM 58.7°F14.8°C 58.7°F14.8°C 100% 15.6 mph SSW25.1 kmh SSW 16.0 mph25.7 kmh 32.06 in1085.7 mb 0.00 in0.0 mm 0.00 in/hr0.0 mm/hr 0.00 in0.0 mm
03:18 AM 58.7°F14.8°C 58.7°F14.8°C 100% 10.4 mph SW16.7 kmh SW 17.0 mph27.4 kmh 32.06 in1085.7 mb 0.00 in0.0 mm 0.00 in/hr0.0 mm/hr 0.00 in0.0 mm
03:20 AM 58.7°F14.8°C 58.7°F14.8°C 100% 16.9 mph SW27.2 kmh SW 16.0 mph25.7 kmh 32.06 in1085.7 mb 0.00 in0.0 mm 0.00 in/hr0.0 mm/hr 0.00 in0.0 mm
03:22 AM 58.7°F14.8°C 58.7°F14.8°C 100% 13.0 mph SW20.9 kmh SW 17.0 mph27.4 kmh 32.06 in1085.7 mb 0.00 in0.0 mm 0.00 in/hr0.0 mm/hr 0.00 in0.0 mm
03:24 AM 58.7°F14.8°C 58.7°F14.8°C 100% 18.2 mph SSW29.3 kmh SSW 19.0 mph30.6 kmh 32.06 in1085.7 mb 0.00 in0.0 mm 0.00 in/hr0.0 mm/hr 0.00 in0.0 mm
03:26 AM 58.7°F14.8°C 58.7°F14.8°C 100% 13.0 mph SSW20.9 kmh SSW 17.0 mph27.4 kmh 32.06 in1085.7 mb 0.00 in0.0 mm 0.00 in/hr0.0 mm/hr 0.00 in0.0 mm
03:28 AM 58.7°F14.8°C 58.7°F14.8°C 100% 14.3 mph SW23.0 kmh SW 18.0 mph29.0 kmh 32.06 in1085.7 mb 0.00 in0.0 mm 0.00 in/hr0.0 mm/hr 0.00 in0.0 mm
03:30 AM 58.7°F14.8°C 58.7°F14.8°C 100% 14.3 mph SSW23.0 kmh SSW 19.0 mph30.6 kmh 32.06 in1085.7 mb 0.00 in0.0 mm 0.00 in/hr0.0 mm/hr 0.00 in0.0 mm
03:32 AM 58.7°F14.8°C 58.7°F14.8°C 100% 15.6 mph SSW25.1 kmh SSW 20.0 mph32.2 kmh 32.06 in1085.7 mb 0.00 in0.0 mm 0.00 in/hr0.0 mm/hr 0.00 in0.0 mm
03:34 AM 58.7°F14.8°C 58.7°F14.8°C 100% 18.2 mph SW29.3 kmh SW 19.0 mph30.6 kmh 32.06 in1085.7 mb 0.00 in0.0 mm 0.00 in/hr0.0 mm/hr 0.00 in0.0 mm
03:36 AM 58.7°F14.8°C 58.7°F14.8°C 100% 18.2 mph SW29.3 kmh SW 18.0 mph29.0 kmh 32.06 in1085.7 mb 0.00 in0.0 mm 0.00 in/hr0.0 mm/hr 0.00 in0.0 mm
03:38 AM 58.7°F14.8°C 58.7°F14.8°C 100% 20.8 mph SSW33.5 kmh SSW 18.0 mph29.0 kmh 32.06 in1085.7 mb 0.00 in0.0 mm 0.00 in/hr0.0 mm/hr 0.00 in0.0 mm
03:40 AM 58.7°F14.8°C 58.7°F14.8°C 100% 15.6 mph SSW25.1 kmh SSW 18.0 mph29.0 kmh 32.06 in1085.7 mb 0.00 in0.0 mm 0.00 in/hr0.0 mm/hr 0.00 in0.0 mm
03:42 AM 58.7°F14.8°C 58.7°F14.8°C 100% 16.9 mph SSW27.2 kmh SSW 17.0 mph27.4 kmh 32.06 in1085.7 mb 0.00 in0.0 mm 0.00 in/hr0.0 mm/hr 0.00 in0.0 mm
03:44 AM 58.7°F14.8°C 58.7°F14.8°C 100% 14.3 mph SSW23.0 kmh SSW 18.0 mph29.0 kmh 32.07 in1086.0 mb 0.00 in0.0 mm 0.00 in/hr0.0 mm/hr 0.00 in0.0 mm
03:46 AM 57.7°F14.3°C 57.7°F14.3°C 100% 19.5 mph SSW31.4 kmh SSW 15.0 mph24.1 kmh 32.07 in1086.0 mb 0.00 in0.0 mm 0.00 in/hr0.0 mm/hr 0.00 in0.0 mm
03:48 AM 57.7°F14.3°C 57.7°F14.3°C 100% 16.9 mph SSW27.2 kmh SSW 17.0 mph27.4 kmh 32.07 in1086.0 mb 0.00 in0.0 mm 0.00 in/hr0.0 mm/hr 0.00 in0.0 mm
03:50 AM 57.7°F14.3°C 57.7°F14.3°C 100% 18.2 mph SSW29.3 kmh SSW 17.0 mph27.4 kmh 32.07 in1086.0 mb 0.00 in0.0 mm 0.00 in/hr0.0 mm/hr 0.00 in0.0 mm
03:52 AM 57.7°F14.3°C 57.7°F14.3°C 100% 14.3 mph SW23.0 kmh SW 17.0 mph27.4 kmh 32.07 in1086.0 mb 0.00 in0.0 mm 0.00 in/hr0.0 mm/hr 0.00 in0.0 mm
03:54 AM 57.7°F14.3°C 57.7°F14.3°C 100% 15.6 mph SSW25.1 kmh SSW 17.0 mph27.4 kmh 32.06 in1085.7 mb 0.00 in0.0 mm 0.00 in/hr0.0 mm/hr 0.00 in0.0 mm
03:56 AM 57.7°F14.3°C 57.7°F14.3°C 100% 13.0 mph SW20.9 kmh SW 15.0 mph24.1 kmh 32.06 in1085.7 mb 0.00 in0.0 mm 0.00 in/hr0.0 mm/hr 0.00 in0.0 mm
03:58 AM 57.7°F14.3°C 57.7°F14.3°C 100% 11.7 mph SW18.8 kmh SW 15.0 mph24.1 kmh 32.06 in1085.7 mb 0.00 in0.0 mm 0.00 in/hr0.0 mm/hr 0.00 in0.0 mm
04:00 AM 57.7°F14.3°C 57.7°F14.3°C 100% 14.3 mph SW23.0 kmh SW 17.0 mph27.4 kmh 32.06 in1085.7 mb 0.00 in0.0 mm 0.00 in/hr0.0 mm/hr 0.00 in0.0 mm
04:02 AM 57.7°F14.3°C 57.7°F14.3°C 100% 15.6 mph SSW25.1 kmh SSW 15.0 mph24.1 kmh 32.06 in1085.7 mb 0.00 in0.0 mm 0.00 in/hr0.0 mm/hr 0.00 in0.0 mm
04:04 AM 56.7°F13.7°C 56.7°F13.7°C 100% 11.7 mph SW18.8 kmh SW 15.0 mph24.1 kmh 32.07 in1086.0 mb 0.00 in0.0 mm 0.00 in/hr0.0 mm/hr 0.00 in0.0 mm
04:06 AM 56.7°F13.7°C 56.7°F13.7°C 100% 14.3 mph SW23.0 kmh SW 16.0 mph25.7 kmh 32.07 in1086.0 mb 0.00 in0.0 mm 0.00 in/hr0.0 mm/hr 0.00 in0.0 mm
04:08 AM 56.7°F13.7°C 56.7°F13.7°C 100% 13.0 mph SW20.9 kmh SW 16.0 mph25.7 kmh 32.07 in1086.0 mb 0.00 in0.0 mm 0.00 in/hr0.0 mm/hr 0.00 in0.0 mm
04:10 AM 56.7°F13.7°C 56.7°F13.7°C 100% 13.0 mph SW20.9 kmh SW 16.0 mph25.7 kmh 32.07 in1086.0 mb 0.00 in0.0 mm 0.00 in/hr0.0 mm/hr 0.00 in0.0 mm
04:12 AM 56.7°F13.7°C 56.7°F13.7°C 100% 13.0 mph SSW20.9 kmh SSW 15.0 mph24.1 kmh 32.07 in1086.0 mb 0.00 in0.0 mm 0.00 in/hr0.0 mm/hr 0.00 in0.0 mm
04:14 AM 56.7°F13.7°C 56.7°F13.7°C 100% 15.6 mph SW25.1 kmh SW 16.0 mph25.7 kmh 32.06 in1085.7 mb 0.00 in0.0 mm 0.00 in/hr0.0 mm/hr 0.00 in0.0 mm
04:16 AM 56.7°F13.7°C 56.7°F13.7°C 100% 13.0 mph SW20.9 kmh SW 15.0 mph24.1 kmh 32.06 in1085.7 mb 0.00 in0.0 mm 0.00 in/hr0.0 mm/hr 0.00 in0.0 mm
04:18 AM 56.7°F13.7°C 56.7°F13.7°C 100% 13.0 mph SW20.9 kmh SW 13.0 mph20.9 kmh 32.06 in1085.7 mb 0.00 in0.0 mm 0.00 in/hr0.0 mm/hr 0.00 in0.0 mm
04:20 AM 56.7°F13.7°C 56.7°F13.7°C 100% 10.4 mph SW16.7 kmh SW 14.0 mph22.5 kmh 32.06 in1085.7 mb 0.00 in0.0 mm 0.00 in/hr0.0 mm/hr 0.00 in0.0 mm
04:22 AM 56.7°F13.7°C 56.7°F13.7°C 100% 10.4 mph SW16.7 kmh SW 13.0 mph20.9 kmh 32.06 in1085.7 mb 0.00 in0.0 mm 0.00 in/hr0.0 mm/hr 0.00 in0.0 mm
04:24 AM 56.7°F13.7°C 56.7°F13.7°C 100% 11.7 mph SW18.8 kmh SW 12.0 mph19.3 kmh 32.06 in1085.7 mb 0.00 in0.0 mm 0.00 in/hr0.0 mm/hr 0.00 in0.0 mm
04:26 AM 55.6°F13.1°C 55.6°F13.1°C 100% 10.4 mph SW16.7 kmh SW 11.0 mph17.7 kmh 32.06 in1085.7 mb 0.00 in0.0 mm 0.00 in/hr0.0 mm/hr 0.00 in0.0 mm
04:28 AM 55.6°F13.1°C 55.6°F13.1°C 100% 11.7 mph SW18.8 kmh SW 10.0 mph16.1 kmh 32.06 in1085.7 mb 0.00 in0.0 mm 0.00 in/hr0.0 mm/hr 0.00 in0.0 mm
04:30 AM 55.6°F13.1°C 55.6°F13.1°C 100% 14.3 mph SSW23.0 kmh SSW 13.0 mph20.9 kmh 32.06 in1085.7 mb 0.00 in0.0 mm 0.00 in/hr0.0 mm/hr 0.00 in0.0 mm
04:32 AM 55.6°F13.1°C 55.6°F13.1°C 100% 10.4 mph SW16.7 kmh SW 12.0 mph19.3 kmh 32.06 in1085.7 mb 0.00 in0.0 mm 0.00 in/hr0.0 mm/hr 0.00 in0.0 mm
04:34 AM 55.6°F13.1°C 55.6°F13.1°C 100% 10.4 mph SW16.7 kmh SW 10.0 mph16.1 kmh 32.07 in1086.0 mb 0.00 in0.0 mm 0.00 in/hr0.0 mm/hr 0.00 in0.0 mm
04:36 AM 55.6°F13.1°C 55.6°F13.1°C 100% 10.4 mph SW16.7 kmh SW 10.0 mph16.1 kmh 32.07 in1086.0 mb 0.00 in0.0 mm 0.00 in/hr0.0 mm/hr 0.00 in0.0 mm
04:38 AM 54.6°F12.6°C 54.6°F12.6°C 100% 10.4 mph SW16.7 kmh SW 10.0 mph16.1 kmh 32.07 in1086.0 mb 0.00 in0.0 mm 0.00 in/hr0.0 mm/hr 0.00 in0.0 mm
04:40 AM 54.6°F12.6°C 54.6°F12.6°C 100% 10.4 mph SW16.7 kmh SW 11.0 mph17.7 kmh 32.07 in1086.0 mb 0.00 in0.0 mm 0.00 in/hr0.0 mm/hr 0.00 in0.0 mm
04:42 AM 54.6°F12.6°C 54.6°F12.6°C 100% 13.0 mph SW20.9 kmh SW 11.0 mph17.7 kmh 32.07 in1086.0 mb 0.00 in0.0 mm 0.00 in/hr0.0 mm/hr 0.00 in0.0 mm
04:44 AM 54.6°F12.6°C 54.6°F12.6°C 100% 10.4 mph SW16.7 kmh SW 10.0 mph16.1 kmh 32.07 in1086.0 mb 0.00 in0.0 mm 0.00 in/hr0.0 mm/hr 0.00 in0.0 mm
04:46 AM 54.6°F12.6°C 54.6°F12.6°C 100% 13.0 mph SW20.9 kmh SW 10.0 mph16.1 kmh 32.07 in1086.0 mb 0.00 in0.0 mm 0.00 in/hr0.0 mm/hr 0.00 in0.0 mm
04:48 AM 54.6°F12.6°C 54.6°F12.6°C 100% 9.1 mph SW14.6 kmh SW 11.0 mph17.7 kmh 32.07 in1086.0 mb 0.00 in0.0 mm 0.00 in/hr0.0 mm/hr 0.00 in0.0 mm
04:50 AM 54.6°F12.6°C 54.6°F12.6°C 100% 11.7 mph SW18.8 kmh SW 11.0 mph17.7 kmh 32.07 in1086.0 mb 0.00 in0.0 mm 0.00 in/hr0.0 mm/hr 0.00 in0.0 mm
04:52 AM 53.6°F12.0°C 53.6°F12.0°C 100% 9.1 mph WSW14.6 kmh WSW 11.0 mph17.7 kmh 32.07 in1086.0 mb 0.00 in0.0 mm 0.00 in/hr0.0 mm/hr 0.00 in0.0 mm
04:54 AM 53.6°F12.0°C 53.6°F12.0°C 100% 9.1 mph SW14.6 kmh SW 10.0 mph16.1 kmh 32.07 in1086.0 mb 0.00 in0.0 mm 0.00 in/hr0.0 mm/hr 0.00 in0.0 mm
04:56 AM 53.6°F12.0°C 53.6°F12.0°C 100% 13.0 mph SW20.9 kmh SW 10.0 mph16.1 kmh 32.07 in1086.0 mb 0.00 in0.0 mm 0.00 in/hr0.0 mm/hr 0.00 in0.0 mm
04:58 AM 53.6°F12.0°C 53.6°F12.0°C 100% 10.4 mph SW16.7 kmh SW 11.0 mph17.7 kmh 32.07 in1086.0 mb 0.00 in0.0 mm 0.00 in/hr0.0 mm/hr 0.00 in0.0 mm
04:59 AM 53.6°F12.0°C 53.6°F12.0°C 100% 10.4 mph SW16.7 kmh SW 11.0 mph17.7 kmh 32.07 in1086.0 mb 0.00 in0.0 mm 0.00 in/hr0.0 mm/hr 0.00 in0.0 mm
05:02 AM 53.6°F12.0°C 53.6°F12.0°C 100% 9.1 mph SW14.6 kmh SW 10.0 mph16.1 kmh 32.07 in1086.0 mb 0.00 in0.0 mm 0.00 in/hr0.0 mm/hr 0.00 in0.0 mm
05:04 AM 53.6°F12.0°C 53.6°F12.0°C 100% 11.7 mph SW18.8 kmh SW 12.0 mph19.3 kmh 32.07 in1086.0 mb 0.00 in0.0 mm 0.00 in/hr0.0 mm/hr 0.00 in0.0 mm
05:06 AM 52.5°F11.4°C 52.5°F11.4°C 100% 9.1 mph SW14.6 kmh SW 10.0 mph16.1 kmh 32.07 in1086.0 mb 0.00 in0.0 mm 0.00 in/hr0.0 mm/hr 0.00 in0.0 mm
05:08 AM 52.5°F11.4°C 52.5°F11.4°C 100% 10.4 mph SW16.7 kmh SW 13.0 mph20.9 kmh 32.07 in1086.0 mb 0.00 in0.0 mm 0.00 in/hr0.0 mm/hr 0.00 in0.0 mm
05:10 AM 52.5°F11.4°C 52.5°F11.4°C 100% 10.4 mph SW16.7 kmh SW 13.0 mph20.9 kmh 32.07 in1086.0 mb 0.00 in0.0 mm 0.00 in/hr0.0 mm/hr 0.00 in0.0 mm
05:12 AM 52.5°F11.4°C 52.5°F11.4°C 100% 11.7 mph SSW18.8 kmh SSW 12.0 mph19.3 kmh 32.07 in1086.0 mb 0.00 in0.0 mm 0.00 in/hr0.0 mm/hr 0.00 in0.0 mm
05:14 AM 53.6°F12.0°C 53.6°F12.0°C 100% 18.2 mph SW29.3 kmh SW 14.0 mph22.5 kmh 32.07 in1086.0 mb 0.00 in0.0 mm 0.00 in/hr0.0 mm/hr 0.00 in0.0 mm
05:16 AM 53.6°F12.0°C 53.6°F12.0°C 100% 11.7 mph WSW18.8 kmh WSW 16.0 mph25.7 kmh 32.07 in1086.0 mb 0.00 in0.0 mm 0.00 in/hr0.0 mm/hr 0.00 in0.0 mm
05:18 AM 53.6°F12.0°C 53.6°F12.0°C 100% 13.0 mph SW20.9 kmh SW 14.0 mph22.5 kmh 32.07 in1086.0 mb 0.00 in0.0 mm 0.00 in/hr0.0 mm/hr 0.00 in0.0 mm
05:20 AM 53.6°F12.0°C 53.6°F12.0°C 100% 11.7 mph SW18.8 kmh SW 13.0 mph20.9 kmh 32.07 in1086.0 mb 0.00 in0.0 mm 0.00 in/hr0.0 mm/hr 0.00 in0.0 mm
05:22 AM 53.6°F12.0°C 53.6°F12.0°C 100% 9.1 mph SW14.6 kmh SW 11.0 mph17.7 kmh 32.07 in1086.0 mb 0.00 in0.0 mm 0.00 in/hr0.0 mm/hr 0.00 in0.0 mm
05:24 AM 53.6°F12.0°C 53.6°F12.0°C 100% 9.1 mph SW14.6 kmh SW 10.0 mph16.1 kmh 32.08 in1086.4 mb 0.00 in0.0 mm 0.00 in/hr0.0 mm/hr 0.00 in0.0 mm
05:26 AM 52.5°F11.4°C 52.5°F11.4°C 100% 11.7 mph SW18.8 kmh SW 11.0 mph17.7 kmh 32.08 in1086.4 mb 0.00 in0.0 mm 0.00 in/hr0.0 mm/hr 0.00 in0.0 mm
05:28 AM 52.5°F11.4°C 52.5°F11.4°C 100% 11.7 mph SW18.8 kmh SW 12.0 mph19.3 kmh 32.08 in1086.4 mb 0.00 in0.0 mm 0.00 in/hr0.0 mm/hr 0.00 in0.0 mm
05:30 AM 52.5°F11.4°C 52.5°F11.4°C 100% 13.0 mph WSW20.9 kmh WSW 13.0 mph20.9 kmh 32.08 in1086.4 mb 0.00 in0.0 mm 0.00 in/hr0.0 mm/hr 0.00 in0.0 mm
05:32 AM 52.5°F11.4°C 52.5°F11.4°C 100% 11.7 mph SW18.8 kmh SW 12.0 mph19.3 kmh 32.08 in1086.4 mb 0.00 in0.0 mm 0.00 in/hr0.0 mm/hr 0.00 in0.0 mm
05:34 AM 52.5°F11.4°C 52.5°F11.4°C 100% 9.1 mph SW14.6 kmh SW 10.0 mph16.1 kmh 32.08 in1086.4 mb 0.00 in0.0 mm 0.00 in/hr0.0 mm/hr 0.00 in0.0 mm
05:36 AM 52.5°F11.4°C 52.5°F11.4°C 100% 11.7 mph SW18.8 kmh SW 10.0 mph16.1 kmh 32.08 in1086.4 mb 0.00 in0.0 mm 0.00 in/hr0.0 mm/hr 0.00 in0.0 mm
05:38 AM 52.5°F11.4°C 52.5°F11.4°C 100% 10.4 mph SW16.7 kmh SW 10.0 mph16.1 kmh 32.08 in1086.4 mb 0.00 in0.0 mm 0.00 in/hr0.0 mm/hr 0.00 in0.0 mm
05:40 AM 51.5°F10.8°C 51.5°F10.8°C 100% 9.1 mph SW14.6 kmh SW 9.0 mph14.5 kmh 32.08 in1086.4 mb 0.00 in0.0 mm 0.00 in/hr0.0 mm/hr 0.00 in0.0 mm
05:42 AM 51.5°F10.8°C 51.5°F10.8°C 100% 10.4 mph SW16.7 kmh SW 9.0 mph14.5 kmh 32.08 in1086.4 mb 0.00 in0.0 mm 0.00 in/hr0.0 mm/hr 0.00 in0.0 mm
05:44 AM 51.5°F10.8°C 51.5°F10.8°C 100% 7.8 mph WSW12.6 kmh WSW 9.0 mph14.5 kmh 32.09 in1086.7 mb 0.00 in0.0 mm 0.00 in/hr0.0 mm/hr 0.00 in0.0 mm
05:46 AM 51.5°F10.8°C 51.5°F10.8°C 100% 9.1 mph SW14.6 kmh SW 9.0 mph14.5 kmh 32.09 in1086.7 mb 0.00 in0.0 mm 0.00 in/hr0.0 mm/hr 0.00 in0.0 mm
05:48 AM 50.5°F10.3°C 50.5°F10.3°C 100% 7.8 mph SW12.6 kmh SW 9.0 mph14.5 kmh 32.09 in1086.7 mb 0.00 in0.0 mm 0.00 in/hr0.0 mm/hr 0.00 in0.0 mm
05:50 AM 50.5°F10.3°C 50.5°F10.3°C 100% 7.8 mph SW12.6 kmh SW 8.0 mph12.9 kmh 32.09 in1086.7 mb 0.00 in0.0 mm 0.00 in/hr0.0 mm/hr 0.00 in0.0 mm
05:52 AM 50.5°F10.3°C 50.5°F10.3°C 100% 7.8 mph SW12.6 kmh SW 8.0 mph12.9 kmh 32.09 in1086.7 mb 0.00 in0.0 mm 0.00 in/hr0.0 mm/hr 0.00 in0.0 mm
05:54 AM 50.5°F10.3°C 50.5°F10.3°C 100% 9.1 mph SW14.6 kmh SW 10.0 mph16.1 kmh 32.10 in1087.0 mb 0.00 in0.0 mm 0.00 in/hr0.0 mm/hr 0.00 in0.0 mm
05:56 AM 50.5°F10.3°C 50.5°F10.3°C 100% 5.2 mph SW8.4 kmh SW 10.0 mph16.1 kmh 32.10 in1087.0 mb 0.00 in0.0 mm 0.00 in/hr0.0 mm/hr 0.00 in0.0 mm
05:58 AM 49.4°F9.7°C 49.4°F9.7°C 100% 10.4 mph SW16.7 kmh SW 9.0 mph14.5 kmh 32.10 in1087.0 mb 0.00 in0.0 mm 0.00 in/hr0.0 mm/hr 0.00 in0.0 mm
06:00 AM 49.4°F9.7°C 49.4°F9.7°C 100% 10.4 mph SW16.7 kmh SW 10.0 mph16.1 kmh 32.10 in1087.0 mb 0.00 in0.0 mm 0.00 in/hr0.0 mm/hr 0.00 in0.0 mm
06:02 AM 49.4°F9.7°C 49.4°F9.7°C 100% 10.4 mph SW16.7 kmh SW 10.0 mph16.1 kmh 32.10 in1087.0 mb 0.00 in0.0 mm 0.00 in/hr0.0 mm/hr 0.00 in0.0 mm
06:04 AM 49.4°F9.7°C 49.4°F9.7°C 100% 10.4 mph WSW16.7 kmh WSW 9.0 mph14.5 kmh 32.10 in1087.0 mb 0.00 in0.0 mm 0.00 in/hr0.0 mm/hr 0.00 in0.0 mm
06:06 AM 48.4°F9.1°C 48.4°F9.1°C 100% 9.1 mph W14.6 kmh W 9.0 mph14.5 kmh 32.10 in1087.0 mb 0.00 in0.0 mm 0.00 in/hr0.0 mm/hr 0.00 in0.0 mm
06:08 AM 48.4°F9.1°C 48.4°F9.1°C 100% 10.4 mph W16.7 kmh W 10.0 mph16.1 kmh 32.10 in1087.0 mb 0.00 in0.0 mm 0.00 in/hr0.0 mm/hr 0.00 in0.0 mm
06:10 AM 48.4°F9.1°C 48.4°F9.1°C 100% 11.7 mph WSW18.8 kmh WSW 10.0 mph16.1 kmh 32.10 in1087.0 mb 0.00 in0.0 mm 0.00 in/hr0.0 mm/hr 0.00 in0.0 mm
06:12 AM 47.4°F8.6°C 47.4°F8.6°C 100% 10.4 mph SW16.7 kmh SW 10.0 mph16.1 kmh 32.10 in1087.0 mb 0.00 in0.0 mm 0.00 in/hr0.0 mm/hr 0.00 in0.0 mm
06:14 AM 47.4°F8.6°C 47.4°F8.6°C 100% 11.7 mph WSW18.8 kmh WSW 10.0 mph16.1 kmh 32.11 in1087.4 mb 0.00 in0.0 mm 0.00 in/hr0.0 mm/hr 0.00 in0.0 mm
06:16 AM 47.4°F8.6°C 47.4°F8.6°C 100% 10.4 mph SW16.7 kmh SW 10.0 mph16.1 kmh 32.11 in1087.4 mb 0.00 in0.0 mm 0.00 in/hr0.0 mm/hr 0.00 in0.0 mm
06:18 AM 47.4°F8.6°C 47.4°F8.6°C 100% 11.7 mph WSW18.8 kmh WSW 13.0 mph20.9 kmh 32.11 in1087.4 mb 0.00 in0.0 mm 0.00 in/hr0.0 mm/hr 0.00 in0.0 mm
06:20 AM 47.4°F8.6°C 47.4°F8.6°C 100% 13.0 mph WSW20.9 kmh WSW 13.0 mph20.9 kmh 32.11 in1087.4 mb 0.00 in0.0 mm 0.00 in/hr0.0 mm/hr 0.00 in0.0 mm
06:22 AM 47.4°F8.6°C 47.4°F8.6°C 100% 13.0 mph SW20.9 kmh SW 13.0 mph20.9 kmh 32.11 in1087.4 mb 0.00 in0.0 mm 0.00 in/hr0.0 mm/hr 0.00 in0.0 mm
06:24 AM 47.4°F8.6°C 47.4°F8.6°C 100% 14.3 mph WSW23.0 kmh WSW 15.0 mph24.1 kmh 32.12 in1087.7 mb 0.00 in0.0 mm 0.00 in/hr0.0 mm/hr 0.00 in0.0 mm
06:26 AM 46.4°F8.0°C 46.4°F8.0°C 100% 14.3 mph WSW23.0 kmh WSW 13.0 mph20.9 kmh 32.12 in1087.7 mb 0.00 in0.0 mm 0.00 in/hr0.0 mm/hr 0.00 in0.0 mm
06:28 AM 46.4°F8.0°C 46.4°F8.0°C 100% 15.6 mph WSW25.1 kmh WSW 14.0 mph22.5 kmh 32.12 in1087.7 mb 0.00 in0.0 mm 0.00 in/hr0.0 mm/hr 0.00 in0.0 mm
06:30 AM 46.4°F8.0°C 46.1°F7.8°C 99% 11.7 mph WSW18.8 kmh WSW 13.0 mph20.9 kmh 32.12 in1087.7 mb 0.00 in0.0 mm 0.00 in/hr0.0 mm/hr 0.00 in0.0 mm
06:32 AM 46.4°F8.0°C 46.1°F7.8°C 99% 14.3 mph WSW23.0 kmh WSW 14.0 mph22.5 kmh 32.12 in1087.7 mb 0.00 in0.0 mm 0.00 in/hr0.0 mm/hr 0.00 in0.0 mm
06:34 AM 46.4°F8.0°C 45.6°F7.6°C 97% 14.3 mph WSW23.0 kmh WSW 13.0 mph20.9 kmh 32.12 in1087.7 mb 0.00 in0.0 mm 0.00 in/hr0.0 mm/hr 0.00 in0.0 mm
06:36 AM 46.4°F8.0°C 45.0°F7.2°C 95% 15.6 mph WSW25.1 kmh WSW 13.0 mph20.9 kmh 32.12 in1087.7 mb 0.00 in0.0 mm 0.00 in/hr0.0 mm/hr 0.00 in0.0 mm
06:38 AM 46.4°F8.0°C 44.4°F6.9°C 93% 15.6 mph W25.1 kmh W 14.0 mph22.5 kmh 32.12 in1087.7 mb 0.00 in0.0 mm 0.00 in/hr0.0 mm/hr 0.00 in0.0 mm
06:40 AM 46.4°F8.0°C 43.6°F6.4°C 90% 16.9 mph WSW27.2 kmh WSW 15.0 mph24.1 kmh 32.12 in1087.7 mb 0.00 in0.0 mm 0.00 in/hr0.0 mm/hr 0.00 in0.0 mm
06:42 AM 46.4°F8.0°C 43.3°F6.3°C 89% 15.6 mph WSW25.1 kmh WSW 14.0 mph22.5 kmh 32.12 in1087.7 mb 0.00 in0.0 mm 0.00 in/hr0.0 mm/hr 0.00 in0.0 mm
06:44 AM 45.3°F7.4°C 41.7°F5.4°C 87% 15.6 mph W25.1 kmh W 13.0 mph20.9 kmh 32.13 in1088.0 mb 0.00 in0.0 mm 0.00 in/hr0.0 mm/hr 0.00 in0.0 mm
06:46 AM 45.3°F7.4°C 41.4°F5.2°C 86% 13.0 mph WSW20.9 kmh WSW 15.0 mph24.1 kmh 32.13 in1088.0 mb 0.00 in0.0 mm 0.00 in/hr0.0 mm/hr 0.00 in0.0 mm
06:48 AM 45.3°F7.4°C 41.1°F5.1°C 85% 15.6 mph WSW25.1 kmh WSW 12.0 mph19.3 kmh 32.13 in1088.0 mb 0.00 in0.0 mm 0.00 in/hr0.0 mm/hr 0.00 in0.0 mm
06:50 AM 45.3°F7.4°C 41.1°F5.1°C 85% 15.6 mph WSW25.1 kmh WSW 14.0 mph22.5 kmh 32.13 in1088.0 mb 0.00 in0.0 mm 0.00 in/hr0.0 mm/hr 0.00 in0.0 mm
06:52 AM 45.3°F7.4°C 40.8°F4.9°C 84% 16.9 mph WSW27.2 kmh WSW 14.0 mph22.5 kmh 32.13 in1088.0 mb 0.00 in0.0 mm 0.00 in/hr0.0 mm/hr 0.00 in0.0 mm
06:54 AM 45.3°F7.4°C 40.5°F4.7°C 83% 14.3 mph WSW23.0 kmh WSW 14.0 mph22.5 kmh 32.14 in1088.4 mb 0.00 in0.0 mm 0.00 in/hr0.0 mm/hr 0.00 in0.0 mm
06:56 AM 45.3°F7.4°C 39.8°F4.3°C 81% 16.9 mph W27.2 kmh W 15.0 mph24.1 kmh 32.14 in1088.4 mb 0.00 in0.0 mm 0.00 in/hr0.0 mm/hr 0.00 in0.0 mm
06:58 AM 45.3°F7.4°C 39.8°F4.3°C 81% 15.6 mph W25.1 kmh W 15.0 mph24.1 kmh 32.14 in1088.4 mb 0.00 in0.0 mm 0.00 in/hr0.0 mm/hr 0.00 in0.0 mm
06:59 AM 45.3°F7.4°C 39.5°F4.2°C 80% 15.6 mph W25.1 kmh W 15.0 mph24.1 kmh 32.14 in1088.4 mb 0.00 in0.0 mm 0.00 in/hr0.0 mm/hr 0.00 in0.0 mm
07:02 AM 44.3°F6.8°C 38.8°F3.8°C 81% 16.9 mph WSW27.2 kmh WSW 15.0 mph24.1 kmh 32.14 in1088.4 mb 0.00 in0.0 mm 0.00 in/hr0.0 mm/hr 0.00 in0.0 mm
07:04 AM 44.3°F6.8°C 38.8°F3.8°C 81% 14.3 mph W23.0 kmh W 14.0 mph22.5 kmh 32.14 in1088.4 mb 0.00 in0.0 mm 0.00 in/hr0.0 mm/hr 0.00 in0.0 mm
07:06 AM 44.3°F6.8°C 37.6°F3.1°C 77% 20.8 mph W33.5 kmh W 16.0 mph25.7 kmh 32.14 in1088.4 mb 0.00 in0.0 mm 0.00 in/hr0.0 mm/hr 0.00 in0.0 mm
07:08 AM 44.3°F6.8°C 37.6°F3.1°C 77% 15.6 mph W25.1 kmh W 15.0 mph24.1 kmh 32.14 in1088.4 mb 0.00 in0.0 mm 0.00 in/hr0.0 mm/hr 0.00 in0.0 mm
07:10 AM 44.3°F6.8°C 37.6°F3.1°C 77% 16.9 mph W27.2 kmh W 13.0 mph20.9 kmh 32.14 in1088.4 mb 0.00 in0.0 mm 0.00 in/hr0.0 mm/hr 0.00 in0.0 mm
07:12 AM 44.3°F6.8°C 37.6°F3.1°C 77% 13.0 mph W20.9 kmh W 14.0 mph22.5 kmh 32.14 in1088.4 mb 0.00 in0.0 mm 0.00 in/hr0.0 mm/hr 0.00 in0.0 mm
07:14 AM 44.3°F6.8°C 37.2°F2.9°C 76% 16.9 mph W27.2 kmh W 14.0 mph22.5 kmh 32.14 in1088.4 mb 0.00 in0.0 mm 0.00 in/hr0.0 mm/hr 0.00 in0.0 mm
07:16 AM 44.3°F6.8°C 37.2°F2.9°C 76% 15.6 mph W25.1 kmh W 14.0 mph22.5 kmh 32.14 in1088.4 mb 0.00 in0.0 mm 0.00 in/hr0.0 mm/hr 0.00 in0.0 mm
07:18 AM 44.3°F6.8°C 37.2°F2.9°C 76% 10.4 mph W16.7 kmh W 14.0 mph22.5 kmh 32.14 in1088.4 mb 0.00 in0.0 mm 0.00 in/hr0.0 mm/hr 0.00 in0.0 mm
07:20 AM 43.3°F6.3°C 35.2°F1.8°C 73% 14.3 mph W23.0 kmh W 14.0 mph22.5 kmh 32.14 in1088.4 mb 0.00 in0.0 mm 0.00 in/hr0.0 mm/hr 0.00 in0.0 mm
07:22 AM 43.3°F6.3°C 35.2°F1.8°C 73% 13.0 mph W20.9 kmh W 13.0 mph20.9 kmh 32.14 in1088.4 mb 0.00 in0.0 mm 0.00 in/hr0.0 mm/hr 0.00 in0.0 mm
07:24 AM 43.3°F6.3°C 35.2°F1.8°C 73% 11.7 mph W18.8 kmh W 12.0 mph19.3 kmh 32.15 in1088.7 mb 0.00 in0.0 mm 0.00 in/hr0.0 mm/hr 0.00 in0.0 mm
07:26 AM 43.3°F6.3°C 35.2°F1.8°C 73% 13.0 mph W20.9 kmh W 12.0 mph19.3 kmh 32.15 in1088.7 mb 0.00 in0.0 mm 0.00 in/hr0.0 mm/hr 0.00 in0.0 mm
07:28 AM 43.3°F6.3°C 35.2°F1.8°C 73% 13.0 mph W20.9 kmh W 13.0 mph20.9 kmh 32.15 in1088.7 mb 0.00 in0.0 mm 0.00 in/hr0.0 mm/hr 0.00 in0.0 mm
07:30 AM 42.2°F5.7°C 34.6°F1.4°C 74% 13.0 mph W20.9 kmh W 10.0 mph16.1 kmh 32.15 in1088.7 mb 0.00 in0.0 mm 0.00 in/hr0.0 mm/hr 0.00 in0.0 mm
07:32 AM 42.2°F5.7°C 34.9°F1.6°C 75% 13.0 mph W20.9 kmh W 11.0 mph17.7 kmh 32.15 in1088.7 mb 0.00 in0.0 mm 0.00 in/hr0.0 mm/hr 0.00 in0.0 mm
07:34 AM 42.2°F5.7°C 34.9°F1.6°C 75% 13.0 mph WSW20.9 kmh WSW 10.0 mph16.1 kmh 32.15 in1088.7 mb 0.00 in0.0 mm 0.00 in/hr0.0 mm/hr 0.00 in0.0 mm
07:36 AM 42.2°F5.7°C 35.2°F1.8°C 76% 11.7 mph W18.8 kmh W 10.0 mph16.1 kmh 32.15 in1088.7 mb 0.00 in0.0 mm 0.00 in/hr0.0 mm/hr 0.00 in0.0 mm
07:38 AM 41.2°F5.1°C 33.9°F1.1°C 75% 13.0 mph W20.9 kmh W 11.0 mph17.7 kmh 32.15 in1088.7 mb 0.00 in0.0 mm 0.00 in/hr0.0 mm/hr 0.00 in0.0 mm
07:40 AM 41.2°F5.1°C 34.2°F1.2°C 76% 13.0 mph W20.9 kmh W 10.0 mph16.1 kmh 32.15 in1088.7 mb 0.00 in0.0 mm 0.00 in/hr0.0 mm/hr 0.00 in0.0 mm
07:42 AM 41.2°F5.1°C 34.2°F1.2°C 76% 13.0 mph W20.9 kmh W 11.0 mph17.7 kmh 32.15 in1088.7 mb 0.00 in0.0 mm 0.00 in/hr0.0 mm/hr 0.00 in0.0 mm
07:44 AM 41.2°F5.1°C 34.2°F1.2°C 76% 11.7 mph W18.8 kmh W 11.0 mph17.7 kmh 32.16 in1089.1 mb 0.00 in0.0 mm 0.00 in/hr0.0 mm/hr 0.00 in0.0 mm
07:46 AM 41.2°F5.1°C 34.2°F1.2°C 76% 11.7 mph W18.8 kmh W 11.0 mph17.7 kmh 32.16 in1089.1 mb 0.00 in0.0 mm 0.00 in/hr0.0 mm/hr 0.00 in0.0 mm
07:48 AM 41.2°F5.1°C 34.2°F1.2°C 76% 11.7 mph W18.8 kmh W 11.0 mph17.7 kmh 32.16 in1089.1 mb 0.00 in0.0 mm 0.00 in/hr0.0 mm/hr 0.00 in0.0 mm
07:50 AM 41.2°F5.1°C 34.2°F1.2°C 76% 13.0 mph W20.9 kmh W 11.0 mph17.7 kmh 32.16 in1089.1 mb 0.00 in0.0 mm 0.00 in/hr0.0 mm/hr 0.00 in0.0 mm
07:52 AM 41.2°F5.1°C 34.2°F1.2°C 76% 10.4 mph W16.7 kmh W 11.0 mph17.7 kmh 32.16 in1089.1 mb 0.00 in0.0 mm 0.00 in/hr0.0 mm/hr 0.00 in0.0 mm
07:54 AM 40.2°F4.6°C 33.2°F0.7°C 76% 10.4 mph W16.7 kmh W 10.0 mph16.1 kmh 32.17 in1089.4 mb 0.00 in0.0 mm 0.00 in/hr0.0 mm/hr 0.00 in0.0 mm
07:56 AM 40.2°F4.6°C 33.2°F0.7°C 76% 11.7 mph W18.8 kmh W 10.0 mph16.1 kmh 32.17 in1089.4 mb 0.00 in0.0 mm 0.00 in/hr0.0 mm/hr 0.00 in0.0 mm
07:58 AM 40.2°F4.6°C 32.9°F0.5°C 75% 11.7 mph W18.8 kmh W 10.0 mph16.1 kmh 32.17 in1089.4 mb 0.00 in0.0 mm 0.00 in/hr0.0 mm/hr 0.00 in0.0 mm
08:00 AM 40.2°F4.6°C 32.6°F0.3°C 74% 11.7 mph W18.8 kmh W 10.0 mph16.1 kmh 32.17 in1089.4 mb 0.00 in0.0 mm 0.00 in/hr0.0 mm/hr 0.00 in0.0 mm
08:02 AM 41.2°F5.1°C 33.2°F0.7°C 73% 10.4 mph W16.7 kmh W 9.0 mph14.5 kmh 32.17 in1089.4 mb 0.00 in0.0 mm 0.00 in/hr0.0 mm/hr 0.00 in0.0 mm
08:04 AM 41.2°F5.1°C 33.2°F0.7°C 73% 7.8 mph W12.6 kmh W 10.0 mph16.1 kmh 32.18 in1089.7 mb 0.00 in0.0 mm 0.00 in/hr0.0 mm/hr 0.00 in0.0 mm
08:06 AM 41.2°F5.1°C 33.2°F0.7°C 73% 7.8 mph W12.6 kmh W 8.0 mph12.9 kmh 32.18 in1089.7 mb 0.00 in0.0 mm 0.00 in/hr0.0 mm/hr 0.00 in0.0 mm
08:08 AM 41.2°F5.1°C 32.9°F0.5°C 72% 9.1 mph W14.6 kmh W 8.0 mph12.9 kmh 32.18 in1089.7 mb 0.00 in0.0 mm 0.00 in/hr0.0 mm/hr 0.00 in0.0 mm
08:10 AM 41.2°F5.1°C 32.5°F0.3°C 71% 10.4 mph W16.7 kmh W 9.0 mph14.5 kmh 32.18 in1089.7 mb 0.00 in0.0 mm 0.00 in/hr0.0 mm/hr 0.00 in0.0 mm
08:12 AM 41.2°F5.1°C 31.8°F-0.1°C 69% 10.4 mph W16.7 kmh W 10.0 mph16.1 kmh 32.18 in1089.7 mb 0.00 in0.0 mm 0.00 in/hr0.0 mm/hr 0.00 in0.0 mm
08:14 AM 42.2°F5.7°C 32.1°F0.1°C 67% 9.1 mph W14.6 kmh W 11.0 mph17.7 kmh 32.17 in1089.4 mb 0.00 in0.0 mm 0.00 in/hr0.0 mm/hr 0.00 in0.0 mm
08:16 AM 42.2°F5.7°C 32.1°F0.1°C 67% 10.4 mph W16.7 kmh W 11.0 mph17.7 kmh 32.17 in1089.4 mb 0.00 in0.0 mm 0.00 in/hr0.0 mm/hr 0.00 in0.0 mm
08:18 AM 42.2°F5.7°C 31.7°F-0.2°C 66% 13.0 mph W20.9 kmh W 10.0 mph16.1 kmh 32.17 in1089.4 mb 0.00 in0.0 mm 0.00 in/hr0.0 mm/hr 0.00 in0.0 mm
08:20 AM 42.2°F5.7°C 31.7°F-0.2°C 66% 11.7 mph W18.8 kmh W 11.0 mph17.7 kmh 32.17 in1089.4 mb 0.00 in0.0 mm 0.00 in/hr0.0 mm/hr 0.00 in0.0 mm
08:22 AM 42.2°F5.7°C 31.3°F-0.4°C 65% 10.4 mph W16.7 kmh W 11.0 mph17.7 kmh 32.17 in1089.4 mb 0.00 in0.0 mm 0.00 in/hr0.0 mm/hr 0.00 in0.0 mm
08:24 AM 43.3°F6.3°C 32.3°F0.2°C 65% 9.1 mph W14.6 kmh W 10.0 mph16.1 kmh 32.17 in1089.4 mb 0.00 in0.0 mm 0.00 in/hr0.0 mm/hr 0.00 in0.0 mm
08:26 AM 43.3°F6.3°C 31.9°F-0.1°C 64% 13.0 mph W20.9 kmh W 13.0 mph20.9 kmh 32.17 in1089.4 mb 0.00 in0.0 mm 0.00 in/hr0.0 mm/hr 0.00 in0.0 mm
08:28 AM 43.3°F6.3°C 31.9°F-0.1°C 64% 13.0 mph W20.9 kmh W 11.0 mph17.7 kmh 32.17 in1089.4 mb 0.00 in0.0 mm 0.00 in/hr0.0 mm/hr 0.00 in0.0 mm
08:30 AM 43.3°F6.3°C 32.3°F0.2°C 65% 13.0 mph W20.9 kmh W 11.0 mph17.7 kmh 32.17 in1089.4 mb 0.00 in0.0 mm 0.00 in/hr0.0 mm/hr 0.00 in0.0 mm
08:32 AM 43.3°F6.3°C 32.3°F0.2°C 65% 13.0 mph W20.9 kmh W 12.0 mph19.3 kmh 32.17 in1089.4 mb 0.00 in0.0 mm 0.00 in/hr0.0 mm/hr 0.00 in0.0 mm
08:34 AM 43.3°F6.3°C 32.7°F0.4°C 66% 11.7 mph W18.8 kmh W 11.0 mph17.7 kmh 32.16 in1089.1 mb 0.00 in0.0 mm 0.00 in/hr0.0 mm/hr 0.00 in0.0 mm
08:36 AM 43.3°F6.3°C 31.5°F-0.3°C 63% 14.3 mph W23.0 kmh W 14.0 mph22.5 kmh 32.16 in1089.1 mb 0.00 in0.0 mm 0.00 in/hr0.0 mm/hr 0.00 in0.0 mm
08:38 AM 44.3°F6.8°C 32.9°F0.5°C 64% 11.7 mph W18.8 kmh W 13.0 mph20.9 kmh 32.16 in1089.1 mb 0.00 in0.0 mm 0.00 in/hr0.0 mm/hr 0.00 in0.0 mm
08:40 AM 44.3°F6.8°C 32.1°F0.1°C 62% 13.0 mph W20.9 kmh W 13.0 mph20.9 kmh 32.16 in1089.1 mb 0.00 in0.0 mm 0.00 in/hr0.0 mm/hr 0.00 in0.0 mm
08:42 AM 44.3°F6.8°C 32.1°F0.1°C 62% 11.7 mph W18.8 kmh W 12.0 mph19.3 kmh 32.16 in1089.1 mb 0.00 in0.0 mm 0.00 in/hr0.0 mm/hr 0.00 in0.0 mm
08:44 AM 44.3°F6.8°C 31.7°F-0.2°C 61% 14.3 mph W23.0 kmh W 13.0 mph20.9 kmh 32.16 in1089.1 mb 0.00 in0.0 mm 0.00 in/hr0.0 mm/hr 0.00 in0.0 mm
08:46 AM 45.3°F7.4°C 32.7°F0.4°C 61% 15.6 mph W25.1 kmh W 14.0 mph22.5 kmh 32.16 in1089.1 mb 0.00 in0.0 mm 0.00 in/hr0.0 mm/hr 0.00 in0.0 mm
08:48 AM 45.3°F7.4°C 32.7°F0.4°C 61% 15.6 mph W25.1 kmh W 14.0 mph22.5 kmh 32.16 in1089.1 mb 0.00 in0.0 mm 0.00 in/hr0.0 mm/hr 0.00 in0.0 mm
08:50 AM 45.3°F7.4°C 32.7°F0.4°C 61% 15.6 mph W25.1 kmh W 15.0 mph24.1 kmh 32.16 in1089.1 mb 0.00 in0.0 mm 0.00 in/hr0.0 mm/hr 0.00 in0.0 mm
08:52 AM 45.3°F7.4°C 33.1°F0.6°C 62% 14.3 mph W23.0 kmh W 15.0 mph24.1 kmh 32.16 in1089.1 mb 0.00 in0.0 mm 0.00 in/hr0.0 mm/hr 0.00 in0.0 mm
08:54 AM 45.3°F7.4°C 32.3°F0.2°C 60% 13.0 mph W20.9 kmh W 13.0 mph20.9 kmh 32.15 in1088.7 mb 0.00 in0.0 mm 0.00 in/hr0.0 mm/hr 0.00 in0.0 mm
08:56 AM 45.3°F7.4°C 32.7°F0.4°C 61% 9.1 mph W14.6 kmh W 10.0 mph16.1 kmh 32.15 in1088.7 mb 0.00 in0.0 mm 0.00 in/hr0.0 mm/hr 0.00 in0.0 mm
08:58 AM 46.4°F8.0°C 33.7°F0.9°C 61% 10.4 mph W16.7 kmh W 10.0 mph16.1 kmh 32.15 in1088.7 mb 0.00 in0.0 mm 0.00 in/hr0.0 mm/hr 0.00 in0.0 mm
09:00 AM 46.4°F8.0°C 33.7°F0.9°C 61% 10.4 mph W16.7 kmh W 10.0 mph16.1 kmh 32.15 in1088.7 mb 0.00 in0.0 mm 0.00 in/hr0.0 mm/hr 0.00 in0.0 mm
09:02 AM 46.4°F8.0°C 33.2°F0.7°C 60% 10.4 mph W16.7 kmh W 9.0 mph14.5 kmh 32.15 in1088.7 mb 0.00 in0.0 mm 0.00 in/hr0.0 mm/hr 0.00 in0.0 mm
09:04 AM 46.4°F8.0°C 32.8°F0.4°C 59% 10.4 mph W16.7 kmh W 11.0 mph17.7 kmh 32.15 in1088.7 mb 0.00 in0.0 mm 0.00 in/hr0.0 mm/hr 0.00 in0.0 mm
09:06 AM 47.4°F8.6°C 34.2°F1.2°C 60% 13.0 mph W20.9 kmh W 10.0 mph16.1 kmh 32.15 in1088.7 mb 0.00 in0.0 mm 0.00 in/hr0.0 mm/hr 0.00 in0.0 mm
09:08 AM 47.4°F8.6°C 34.6°F1.4°C 61% 10.4 mph W16.7 kmh W 12.0 mph19.3 kmh 32.15 in1088.7 mb 0.00 in0.0 mm 0.00 in/hr0.0 mm/hr 0.00 in0.0 mm
09:10 AM 47.4°F8.6°C 34.2°F1.2°C 60% 10.4 mph W16.7 kmh W 10.0 mph16.1 kmh 32.15 in1088.7 mb 0.00 in0.0 mm 0.00 in/hr0.0 mm/hr 0.00 in0.0 mm
09:12 AM 47.4°F8.6°C 33.8°F1.0°C 59% 9.1 mph W14.6 kmh W 10.0 mph16.1 kmh 32.15 in1088.7 mb 0.00 in0.0 mm 0.00 in/hr0.0 mm/hr 0.00 in0.0 mm
09:14 AM 48.4°F9.1°C 35.2°F1.8°C 60% 9.1 mph W14.6 kmh W 10.0 mph16.1 kmh 32.14 in1088.4 mb 0.00 in0.0 mm 0.00 in/hr0.0 mm/hr 0.00 in0.0 mm
09:16 AM 48.4°F9.1°C 35.2°F1.8°C 60% 6.5 mph W10.5 kmh W 10.0 mph16.1 kmh 32.14 in1088.4 mb 0.00 in0.0 mm 0.00 in/hr0.0 mm/hr 0.00 in0.0 mm
09:18 AM 48.4°F9.1°C 35.2°F1.8°C 60% 10.4 mph W16.7 kmh W 9.0 mph14.5 kmh 32.14 in1088.4 mb 0.00 in0.0 mm 0.00 in/hr0.0 mm/hr 0.00 in0.0 mm
09:20 AM 48.4°F9.1°C 33.5°F0.8°C 56% 11.7 mph WNW18.8 kmh WNW 10.0 mph16.1 kmh 32.14 in1088.4 mb 0.00 in0.0 mm 0.00 in/hr0.0 mm/hr 0.00 in0.0 mm
09:22 AM 49.4°F9.7°C 35.3°F1.8°C 58% 10.4 mph W16.7 kmh W 10.0 mph16.1 kmh 32.14 in1088.4 mb 0.00 in0.0 mm 0.00 in/hr0.0 mm/hr 0.00 in0.0 mm
09:24 AM 49.4°F9.7°C 35.7°F2.1°C 59% 9.1 mph W14.6 kmh W 10.0 mph16.1 kmh 32.13 in1088.0 mb 0.00 in0.0 mm 0.00 in/hr0.0 mm/hr 0.00 in0.0 mm
09:26 AM 49.4°F9.7°C 36.2°F2.3°C 60% 11.7 mph W18.8 kmh W 10.0 mph16.1 kmh 32.13 in1088.0 mb 0.00 in0.0 mm 0.00 in/hr0.0 mm/hr 0.00 in0.0 mm
09:28 AM 49.4°F9.7°C 36.2°F2.3°C 60% 10.4 mph W16.7 kmh W 10.0 mph16.1 kmh 32.13 in1088.0 mb 0.00 in0.0 mm 0.00 in/hr0.0 mm/hr 0.00 in0.0 mm
09:30 AM 50.5°F10.3°C 37.1°F2.8°C 60% 13.0 mph W20.9 kmh W 10.0 mph16.1 kmh 32.13 in1088.0 mb 0.00 in0.0 mm 0.00 in/hr0.0 mm/hr 0.00 in0.0 mm
09:32 AM 50.5°F10.3°C 36.3°F2.4°C 58% 13.0 mph W20.9 kmh W 11.0 mph17.7 kmh 32.13 in1088.0 mb 0.00 in0.0 mm 0.00 in/hr0.0 mm/hr 0.00 in0.0 mm
09:34 AM 50.5°F10.3°C 37.1°F2.8°C 60% 10.4 mph W16.7 kmh W 10.0 mph16.1 kmh 32.12 in1087.7 mb 0.00 in0.0 mm 0.00 in/hr0.0 mm/hr 0.00 in0.0 mm
09:36 AM 50.5°F10.3°C 36.3°F2.4°C 58% 11.7 mph W18.8 kmh W 11.0 mph17.7 kmh 32.12 in1087.7 mb 0.00 in0.0 mm 0.00 in/hr0.0 mm/hr 0.00 in0.0 mm
09:38 AM 51.5°F10.8°C 37.2°F2.9°C 58% 9.1 mph W14.6 kmh W 13.0 mph20.9 kmh 32.12 in1087.7 mb 0.00 in0.0 mm 0.00 in/hr0.0 mm/hr 0.00 in0.0 mm
09:40 AM 51.5°F10.8°C 37.7°F3.2°C 59% 11.7 mph W18.8 kmh W 10.0 mph16.1 kmh 32.12 in1087.7 mb 0.00 in0.0 mm 0.00 in/hr0.0 mm/hr 0.00 in0.0 mm
09:42 AM 51.5°F10.8°C 37.2°F2.9°C 58% 13.0 mph W20.9 kmh W 11.0 mph17.7 kmh 32.12 in1087.7 mb 0.00 in0.0 mm 0.00 in/hr0.0 mm/hr 0.00 in0.0 mm
09:44 AM 52.5°F11.4°C 37.8°F3.2°C 57% 13.0 mph W20.9 kmh W 11.0 mph17.7 kmh 32.12 in1087.7 mb 0.00 in0.0 mm 0.00 in/hr0.0 mm/hr 0.00 in0.0 mm
09:46 AM 52.5°F11.4°C 37.8°F3.2°C 57% 9.1 mph W14.6 kmh W 11.0 mph17.7 kmh 32.12 in1087.7 mb 0.00 in0.0 mm 0.00 in/hr0.0 mm/hr 0.00 in0.0 mm
09:48 AM 53.6°F12.0°C 38.3°F3.5°C 56% 13.0 mph W20.9 kmh W 11.0 mph17.7 kmh 32.12 in1087.7 mb 0.00 in0.0 mm 0.00 in/hr0.0 mm/hr 0.00 in0.0 mm
09:50 AM 53.6°F12.0°C 37.3°F2.9°C 54% 14.3 mph W23.0 kmh W 13.0 mph20.9 kmh 32.12 in1087.7 mb 0.00 in0.0 mm 0.00 in/hr0.0 mm/hr 0.00 in0.0 mm
09:52 AM 54.6°F12.6°C 38.8°F3.8°C 55% 10.4 mph W16.7 kmh W 12.0 mph19.3 kmh 32.12 in1087.7 mb 0.00 in0.0 mm 0.00 in/hr0.0 mm/hr 0.00 in0.0 mm
09:54 AM 54.6°F12.6°C 39.2°F4.0°C 56% 10.4 mph WSW16.7 kmh WSW 12.0 mph19.3 kmh 32.11 in1087.4 mb 0.00 in0.0 mm 0.00 in/hr0.0 mm/hr 0.00 in0.0 mm
09:56 AM 54.6°F12.6°C 38.3°F3.5°C 54% 14.3 mph W23.0 kmh W 12.0 mph19.3 kmh 32.11 in1087.4 mb 0.00 in0.0 mm 0.00 in/hr0.0 mm/hr 0.00 in0.0 mm
09:58 AM 55.6°F13.1°C 39.3°F4.1°C 54% 14.3 mph W23.0 kmh W 13.0 mph20.9 kmh 32.11 in1087.4 mb 0.00 in0.0 mm 0.00 in/hr0.0 mm/hr 0.00 in0.0 mm
10:00 AM 55.6°F13.1°C 39.3°F4.1°C 54% 13.0 mph W20.9 kmh W 12.0 mph19.3 kmh 32.11 in1087.4 mb 0.00 in0.0 mm 0.00 in/hr0.0 mm/hr 0.00 in0.0 mm
10:02 AM 56.7°F13.7°C 40.7°F4.8°C 55% 14.3 mph W23.0 kmh W 12.0 mph19.3 kmh 32.11 in1087.4 mb 0.00 in0.0 mm 0.00 in/hr0.0 mm/hr 0.00 in0.0 mm
10:04 AM 56.7°F13.7°C 40.2°F4.6°C 54% 11.7 mph W18.8 kmh W 11.0 mph17.7 kmh 32.10 in1087.0 mb 0.00 in0.0 mm 0.00 in/hr0.0 mm/hr 0.00 in0.0 mm
10:06 AM 57.7°F14.3°C 40.7°F4.8°C 53% 13.0 mph W20.9 kmh W 12.0 mph19.3 kmh 32.10 in1087.0 mb 0.00 in0.0 mm 0.00 in/hr0.0 mm/hr 0.00 in0.0 mm
10:08 AM 57.7°F14.3°C 37.1°F2.8°C 46% 15.6 mph W25.1 kmh W 14.0 mph22.5 kmh 32.10 in1087.0 mb 0.00 in0.0 mm 0.00 in/hr0.0 mm/hr 0.00 in0.0 mm
10:10 AM 58.7°F14.8°C 38.0°F3.3°C 46% 13.0 mph W20.9 kmh W 14.0 mph22.5 kmh 32.10 in1087.0 mb 0.00 in0.0 mm 0.00 in/hr0.0 mm/hr 0.00 in0.0 mm
10:12 AM 59.7°F15.4°C 37.2°F2.9°C 43% 15.6 mph W25.1 kmh W 16.0 mph25.7 kmh 32.10 in1087.0 mb 0.00 in0.0 mm 0.00 in/hr0.0 mm/hr 0.00 in0.0 mm
10:14 AM 59.7°F15.4°C 36.0°F2.2°C 41% 18.2 mph W29.3 kmh W 15.0 mph24.1 kmh 32.10 in1087.0 mb 0.00 in0.0 mm 0.00 in/hr0.0 mm/hr 0.00 in0.0 mm
10:16 AM 60.8°F16.0°C 36.3°F2.4°C 40% 19.5 mph W31.4 kmh W 15.0 mph24.1 kmh 32.10 in1087.0 mb 0.00 in0.0 mm 0.00 in/hr0.0 mm/hr 0.00 in0.0 mm
10:18 AM 60.8°F16.0°C 37.0°F2.8°C 41% 13.0 mph W20.9 kmh W 17.0 mph27.4 kmh 32.10 in1087.0 mb 0.00 in0.0 mm 0.00 in/hr0.0 mm/hr 0.00 in0.0 mm
10:20 AM 61.8°F16.6°C 38.5°F3.6°C 42% 14.3 mph WNW23.0 kmh WNW 15.0 mph24.1 kmh 32.10 in1087.0 mb 0.00 in0.0 mm 0.00 in/hr0.0 mm/hr 0.00 in0.0 mm
10:22 AM 61.8°F16.6°C 36.6°F2.6°C 39% 16.9 mph W27.2 kmh W 16.0 mph25.7 kmh 32.10 in1087.0 mb 0.00 in0.0 mm 0.00 in/hr0.0 mm/hr 0.00 in0.0 mm
10:24 AM 61.8°F16.6°C 33.9°F1.1°C 35% 18.2 mph W29.3 kmh W 18.0 mph29.0 kmh 32.08 in1086.4 mb 0.00 in0.0 mm 0.00 in/hr0.0 mm/hr 0.00 in0.0 mm
10:26 AM 62.8°F17.1°C 33.3°F0.7°C 33% 15.6 mph W25.1 kmh W 18.0 mph29.0 kmh 32.08 in1086.4 mb 0.00 in0.0 mm 0.00 in/hr0.0 mm/hr 0.00 in0.0 mm
10:28 AM 62.8°F17.1°C 34.8°F1.6°C 35% 16.9 mph W27.2 kmh W 18.0 mph29.0 kmh 32.08 in1086.4 mb 0.00 in0.0 mm 0.00 in/hr0.0 mm/hr 0.00 in0.0 mm
10:30 AM 62.8°F17.1°C 33.3°F0.7°C 33% 19.5 mph WNW31.4 kmh WNW 17.0 mph27.4 kmh 32.08 in1086.4 mb 0.00 in0.0 mm 0.00 in/hr0.0 mm/hr 0.00 in0.0 mm
10:32 AM 63.9°F17.7°C 32.7°F0.4°C 31% 20.8 mph WNW33.5 kmh WNW 17.0 mph27.4 kmh 32.08 in1086.4 mb 0.00 in0.0 mm 0.00 in/hr0.0 mm/hr 0.00 in0.0 mm
10:34 AM 63.9°F17.7°C 32.7°F0.4°C 31% 16.9 mph WNW27.2 kmh WNW 17.0 mph27.4 kmh 32.08 in1086.4 mb 0.00 in0.0 mm 0.00 in/hr0.0 mm/hr 0.00 in0.0 mm
10:36 AM 63.9°F17.7°C 31.0°F-0.6°C 29% 16.9 mph W27.2 kmh W 18.0 mph29.0 kmh 32.08 in1086.4 mb 0.00 in0.0 mm 0.00 in/hr0.0 mm/hr 0.00 in0.0 mm
10:38 AM 64.9°F18.3°C 29.2°F-1.6°C 26% 24.7 mph WNW39.8 kmh WNW 19.0 mph30.6 kmh 32.08 in1086.4 mb 0.00 in0.0 mm 0.00 in/hr0.0 mm/hr 0.00 in0.0 mm
10:40 AM 64.9°F18.3°C 30.1°F-1.1°C 27% 19.5 mph WNW31.4 kmh WNW 19.0 mph30.6 kmh 32.08 in1086.4 mb 0.00 in0.0 mm 0.00 in/hr0.0 mm/hr 0.00 in0.0 mm
10:42 AM 64.9°F18.3°C 27.3°F-2.6°C 24% 19.5 mph WNW31.4 kmh WNW 19.0 mph30.6 kmh 32.08 in1086.4 mb 0.00 in0.0 mm 0.00 in/hr0.0 mm/hr 0.00 in0.0 mm
10:44 AM 64.9°F18.3°C 30.1°F-1.1°C 27% 14.3 mph W23.0 kmh W 17.0 mph27.4 kmh 32.07 in1086.0 mb 0.00 in0.0 mm 0.00 in/hr0.0 mm/hr 0.00 in0.0 mm
10:46 AM 64.9°F18.3°C 29.2°F-1.6°C 26% 19.5 mph W31.4 kmh W 18.0 mph29.0 kmh 32.07 in1086.0 mb 0.00 in0.0 mm 0.00 in/hr0.0 mm/hr 0.00 in0.0 mm
10:48 AM 65.9°F18.8°C 30.1°F-1.1°C 26% 22.1 mph W35.6 kmh W 20.0 mph32.2 kmh 32.07 in1086.0 mb 0.00 in0.0 mm 0.00 in/hr0.0 mm/hr 0.00 in0.0 mm
10:50 AM 65.9°F18.8°C 31.9°F-0.1°C 28% 13.0 mph W20.9 kmh W 17.0 mph27.4 kmh 32.07 in1086.0 mb 0.00 in0.0 mm 0.00 in/hr0.0 mm/hr 0.00 in0.0 mm
10:52 AM 65.9°F18.8°C 29.1°F-1.6°C 25% 20.8 mph WNW33.5 kmh WNW 19.0 mph30.6 kmh 32.07 in1086.0 mb 0.00 in0.0 mm 0.00 in/hr0.0 mm/hr 0.00 in0.0 mm
10:54 AM 65.9°F18.8°C 30.1°F-1.1°C 26% 13.0 mph W20.9 kmh W 19.0 mph30.6 kmh 32.07 in1086.0 mb 0.00 in0.0 mm 0.00 in/hr0.0 mm/hr 0.00 in0.0 mm
10:56 AM 65.9°F18.8°C 29.1°F-1.6°C 25% 19.5 mph W31.4 kmh W 19.0 mph30.6 kmh 32.07 in1086.0 mb 0.00 in0.0 mm 0.00 in/hr0.0 mm/hr 0.00 in0.0 mm
10:58 AM 65.9°F18.8°C 26.0°F-3.3°C 22% 23.4 mph W37.7 kmh W 20.0 mph32.2 kmh 32.07 in1086.0 mb 0.00 in0.0 mm 0.00 in/hr0.0 mm/hr 0.00 in0.0 mm
10:59 AM 65.9°F18.8°C 28.1°F-2.2°C 24% 19.5 mph W31.4 kmh W 19.0 mph30.6 kmh 32.07 in1086.0 mb 0.00 in0.0 mm 0.00 in/hr0.0 mm/hr 0.00 in0.0 mm
11:02 AM 67.0°F19.4°C 30.0°F-1.1°C 25% 18.2 mph W29.3 kmh W 17.0 mph27.4 kmh 32.07 in1086.0 mb 0.00 in0.0 mm 0.00 in/hr0.0 mm/hr 0.00 in0.0 mm
11:04 AM 67.0°F19.4°C 29.0°F-1.7°C 24% 18.2 mph W29.3 kmh W 16.0 mph25.7 kmh 32.06 in1085.7 mb 0.00 in0.0 mm 0.00 in/hr0.0 mm/hr 0.00 in0.0 mm
11:06 AM 67.0°F19.4°C 29.0°F-1.7°C 24% 19.5 mph W31.4 kmh W 19.0 mph30.6 kmh 32.06 in1085.7 mb 0.00 in0.0 mm 0.00 in/hr0.0 mm/hr 0.00 in0.0 mm
11:08 AM 67.0°F19.4°C 30.0°F-1.1°C 25% 19.5 mph W31.4 kmh W 17.0 mph27.4 kmh 32.06 in1085.7 mb 0.00 in0.0 mm 0.00 in/hr0.0 mm/hr 0.00 in0.0 mm
11:10 AM 67.0°F19.4°C 29.0°F-1.7°C 24% 16.9 mph WNW27.2 kmh WNW 18.0 mph29.0 kmh 32.06 in1085.7 mb 0.00 in0.0 mm 0.00 in/hr0.0 mm/hr 0.00 in0.0 mm
11:12 AM 67.0°F19.4°C 29.0°F-1.7°C 24% 20.8 mph WNW33.5 kmh WNW 18.0 mph29.0 kmh 32.06 in1085.7 mb 0.00 in0.0 mm 0.00 in/hr0.0 mm/hr 0.00 in0.0 mm
11:14 AM 67.0°F19.4°C 30.0°F-1.1°C 25% 15.6 mph WNW25.1 kmh WNW 19.0 mph30.6 kmh 32.06 in1085.7 mb 0.00 in0.0 mm 0.00 in/hr0.0 mm/hr 0.00 in0.0 mm
11:16 AM 67.0°F19.4°C 28.0°F-2.2°C 23% 20.8 mph W33.5 kmh W 19.0 mph30.6 kmh 32.06 in1085.7 mb 0.00 in0.0 mm 0.00 in/hr0.0 mm/hr 0.00 in0.0 mm
11:18 AM 68.0°F20.0°C 28.8°F-1.8°C 23% 15.6 mph W25.1 kmh W 19.0 mph30.6 kmh 32.06 in1085.7 mb 0.00 in0.0 mm 0.00 in/hr0.0 mm/hr 0.00 in0.0 mm
11:20 AM 67.0°F19.4°C 26.9°F-2.8°C 22% 15.6 mph W25.1 kmh W 19.0 mph30.6 kmh 32.06 in1085.7 mb 0.00 in0.0 mm 0.00 in/hr0.0 mm/hr 0.00 in0.0 mm
11:22 AM 68.0°F20.0°C 27.8°F-2.3°C 22% 22.1 mph WNW35.6 kmh WNW 18.0 mph29.0 kmh 32.06 in1085.7 mb 0.00 in0.0 mm 0.00 in/hr0.0 mm/hr 0.00 in0.0 mm
11:24 AM 68.0°F20.0°C 27.8°F-2.3°C 22% 18.2 mph WNW29.3 kmh WNW 16.0 mph25.7 kmh 32.06 in1085.7 mb 0.00 in0.0 mm 0.00 in/hr0.0 mm/hr 0.00 in0.0 mm
11:26 AM 68.0°F20.0°C 29.9°F-1.2°C 24% 19.5 mph WNW31.4 kmh WNW 18.0 mph29.0 kmh 32.06 in1085.7 mb 0.00 in0.0 mm 0.00 in/hr0.0 mm/hr 0.00 in0.0 mm
11:28 AM 69.0°F20.6°C 30.8°F-0.7°C 24% 14.3 mph W23.0 kmh W 18.0 mph29.0 kmh 32.06 in1085.7 mb 0.00 in0.0 mm 0.00 in/hr0.0 mm/hr 0.00 in0.0 mm
11:30 AM 69.0°F20.6°C 28.6°F-1.9°C 22% 18.2 mph NW29.3 kmh NW 18.0 mph29.0 kmh 32.06 in1085.7 mb 0.00 in0.0 mm 0.00 in/hr0.0 mm/hr 0.00 in0.0 mm
11:32 AM 69.0°F20.6°C 28.6°F-1.9°C 22% 20.8 mph WNW33.5 kmh WNW 17.0 mph27.4 kmh 32.06 in1085.7 mb 0.00 in0.0 mm 0.00 in/hr0.0 mm/hr 0.00 in0.0 mm
11:34 AM 69.0°F20.6°C 28.6°F-1.9°C 22% 19.5 mph W31.4 kmh W 18.0 mph29.0 kmh 32.05 in1085.3 mb 0.00 in0.0 mm 0.00 in/hr0.0 mm/hr 0.00 in0.0 mm
11:36 AM 69.0°F20.6°C 29.7°F-1.3°C 23% 22.1 mph W35.6 kmh W 18.0 mph29.0 kmh 32.05 in1085.3 mb 0.00 in0.0 mm 0.00 in/hr0.0 mm/hr 0.00 in0.0 mm
11:38 AM 69.0°F20.6°C 27.5°F-2.5°C 21% 18.2 mph W29.3 kmh W 18.0 mph29.0 kmh 32.05 in1085.3 mb 0.00 in0.0 mm 0.00 in/hr0.0 mm/hr 0.00 in0.0 mm
11:40 AM 69.0°F20.6°C 28.6°F-1.9°C 22% 16.9 mph W27.2 kmh W 18.0 mph29.0 kmh 32.05 in1085.3 mb 0.00 in0.0 mm 0.00 in/hr0.0 mm/hr 0.00 in0.0 mm
11:42 AM 69.0°F20.6°C 28.6°F-1.9°C 22% 10.4 mph NW16.7 kmh NW 17.0 mph27.4 kmh 32.05 in1085.3 mb 0.00 in0.0 mm 0.00 in/hr0.0 mm/hr 0.00 in0.0 mm
11:44 AM 0.0°F-17.8°C 29.5°F-1.4°C 0% 13.0 mph W20.9 kmh W 10.0 mph16.1 kmh 32.05 in1085.3 mb 0.00 in0.0 mm 0.00 in/hr0.0 mm/hr 0.00 in0.0 mm
11:46 AM 70.0°F21.1°C 29.5°F-1.4°C 22% 13.0 mph W20.9 kmh W 16.0 mph25.7 kmh 32.05 in1085.3 mb 0.00 in0.0 mm 0.00 in/hr0.0 mm/hr 0.00 in0.0 mm
11:48 AM 70.0°F21.1°C 29.5°F-1.4°C 22% 19.5 mph WNW31.4 kmh WNW 18.0 mph29.0 kmh 32.05 in1085.3 mb 0.00 in0.0 mm 0.00 in/hr0.0 mm/hr 0.00 in0.0 mm
11:50 AM 70.0°F21.1°C 29.5°F-1.4°C 22% 13.0 mph NW20.9 kmh NW 16.0 mph25.7 kmh 32.05 in1085.3 mb 0.00 in0.0 mm 0.00 in/hr0.0 mm/hr 0.00 in0.0 mm
11:52 AM 70.0°F21.1°C 29.5°F-1.4°C 22% 18.2 mph W29.3 kmh W 17.0 mph27.4 kmh 32.05 in1085.3 mb 0.00 in0.0 mm 0.00 in/hr0.0 mm/hr 0.00 in0.0 mm
11:54 AM 70.0°F21.1°C 28.3°F-2.1°C 21% 16.9 mph W27.2 kmh W 16.0 mph25.7 kmh 32.05 in1085.3 mb 0.00 in0.0 mm 0.00 in/hr0.0 mm/hr 0.00 in0.0 mm
11:56 AM 71.1°F21.7°C 29.2°F-1.6°C 21% 15.6 mph WNW25.1 kmh WNW 17.0 mph27.4 kmh 32.05 in1085.3 mb 0.00 in0.0 mm 0.00 in/hr0.0 mm/hr 0.00 in0.0 mm
11:58 AM 71.1°F21.7°C 29.2°F-1.6°C 21% 13.0 mph W20.9 kmh W 15.0 mph24.1 kmh 32.05 in1085.3 mb 0.00 in0.0 mm 0.00 in/hr0.0 mm/hr 0.00 in0.0 mm
12:00 PM 71.1°F21.7°C 29.2°F-1.6°C 21% 15.6 mph W25.1 kmh W 15.0 mph24.1 kmh 32.05 in1085.3 mb 0.00 in0.0 mm 0.00 in/hr0.0 mm/hr 0.00 in0.0 mm
12:02 PM 71.1°F21.7°C 29.2°F-1.6°C 21% 14.3 mph W23.0 kmh W 14.0 mph22.5 kmh 32.05 in1085.3 mb 0.00 in0.0 mm 0.00 in/hr0.0 mm/hr 0.00 in0.0 mm
12:04 PM 71.1°F21.7°C 30.3°F-0.9°C 22% 14.3 mph WNW23.0 kmh WNW 12.0 mph19.3 kmh 32.06 in1085.7 mb 0.00 in0.0 mm 0.00 in/hr0.0 mm/hr 0.00 in0.0 mm
12:06 PM 71.1°F21.7°C 30.3°F-0.9°C 22% 15.6 mph WNW25.1 kmh WNW 14.0 mph22.5 kmh 32.06 in1085.7 mb 0.00 in0.0 mm 0.00 in/hr0.0 mm/hr 0.00 in0.0 mm
12:08 PM 71.1°F21.7°C 30.3°F-0.9°C 22% 10.4 mph NW16.7 kmh NW 15.0 mph24.1 kmh 32.06 in1085.7 mb 0.00 in0.0 mm 0.00 in/hr0.0 mm/hr 0.00 in0.0 mm
12:10 PM 71.1°F21.7°C 30.3°F-0.9°C 22% 15.6 mph WNW25.1 kmh WNW 15.0 mph24.1 kmh 32.06 in1085.7 mb 0.00 in0.0 mm 0.00 in/hr0.0 mm/hr 0.00 in0.0 mm
12:12 PM 71.1°F21.7°C 29.2°F-1.6°C 21% 13.0 mph WNW20.9 kmh WNW 13.0 mph20.9 kmh 32.06 in1085.7 mb 0.00 in0.0 mm 0.00 in/hr0.0 mm/hr 0.00 in0.0 mm
12:14 PM 71.1°F21.7°C 29.2°F-1.6°C 21% 14.3 mph W23.0 kmh W 14.0 mph22.5 kmh 32.05 in1085.3 mb 0.00 in0.0 mm 0.00 in/hr0.0 mm/hr 0.00 in0.0 mm
12:16 PM 71.1°F21.7°C 30.3°F-0.9°C 22% 11.7 mph W18.8 kmh W 13.0 mph20.9 kmh 32.05 in1085.3 mb 0.00 in0.0 mm 0.00 in/hr0.0 mm/hr 0.00 in0.0 mm
12:18 PM 72.1°F22.3°C 31.2°F-0.4°C 22% 11.7 mph WNW18.8 kmh WNW 17.0 mph27.4 kmh 32.05 in1085.3 mb 0.00 in0.0 mm 0.00 in/hr0.0 mm/hr 0.00 in0.0 mm
12:20 PM 72.1°F22.3°C 31.2°F-0.4°C 22% 7.8 mph W12.6 kmh W 14.0 mph22.5 kmh 32.05 in1085.3 mb 0.00 in0.0 mm 0.00 in/hr0.0 mm/hr 0.00 in0.0 mm
12:22 PM 72.1°F22.3°C 31.2°F-0.4°C 22% 11.7 mph W18.8 kmh W 12.0 mph19.3 kmh 32.05 in1085.3 mb 0.00 in0.0 mm 0.00 in/hr0.0 mm/hr 0.00 in0.0 mm
12:24 PM 72.1°F22.3°C 31.2°F-0.4°C 22% 10.4 mph WNW16.7 kmh WNW 12.0 mph19.3 kmh 32.04 in1085.0 mb 0.00 in0.0 mm 0.00 in/hr0.0 mm/hr 0.00 in0.0 mm
12:26 PM 73.1°F22.8°C 33.2°F0.7°C 23% 11.7 mph WNW18.8 kmh WNW 12.0 mph19.3 kmh 32.04 in1085.0 mb 0.00 in0.0 mm 0.00 in/hr0.0 mm/hr 0.00 in0.0 mm
12:28 PM 72.1°F22.3°C 31.2°F-0.4°C 22% 10.4 mph W16.7 kmh W 12.0 mph19.3 kmh 32.04 in1085.0 mb 0.00 in0.0 mm 0.00 in/hr0.0 mm/hr 0.00 in0.0 mm
12:30 PM 72.1°F22.3°C 30.1°F-1.1°C 21% 11.7 mph W18.8 kmh W 12.0 mph19.3 kmh 32.04 in1085.0 mb 0.00 in0.0 mm 0.00 in/hr0.0 mm/hr 0.00 in0.0 mm
12:32 PM 73.1°F22.8°C 32.1°F0.1°C 22% 13.0 mph W20.9 kmh W 10.0 mph16.1 kmh 32.04 in1085.0 mb 0.00 in0.0 mm 0.00 in/hr0.0 mm/hr 0.00 in0.0 mm
12:34 PM 73.1°F22.8°C 30.9°F-0.6°C 21% 11.7 mph WNW18.8 kmh WNW 12.0 mph19.3 kmh 32.04 in1085.0 mb 0.00 in0.0 mm 0.00 in/hr0.0 mm/hr 0.00 in0.0 mm
12:36 PM 73.1°F22.8°C 30.9°F-0.6°C 21% 11.7 mph WSW18.8 kmh WSW 10.0 mph16.1 kmh 32.04 in1085.0 mb 0.00 in0.0 mm 0.00 in/hr0.0 mm/hr 0.00 in0.0 mm
12:38 PM 73.1°F22.8°C 30.9°F-0.6°C 21% 13.0 mph WSW20.9 kmh WSW 12.0 mph19.3 kmh 32.04 in1085.0 mb 0.00 in0.0 mm 0.00 in/hr0.0 mm/hr 0.00 in0.0 mm
12:40 PM 73.1°F22.8°C 32.1°F0.1°C 22% 14.3 mph W23.0 kmh W 12.0 mph19.3 kmh 32.04 in1085.0 mb 0.00 in0.0 mm 0.00 in/hr0.0 mm/hr 0.00 in0.0 mm
12:42 PM 73.1°F22.8°C 32.1°F0.1°C 22% 14.3 mph WSW23.0 kmh WSW 11.0 mph17.7 kmh 32.04 in1085.0 mb 0.00 in0.0 mm 0.00 in/hr0.0 mm/hr 0.00 in0.0 mm
12:44 PM 73.1°F22.8°C 33.2°F0.7°C 23% 7.8 mph W12.6 kmh W 12.0 mph19.3 kmh 32.04 in1085.0 mb 0.00 in0.0 mm 0.00 in/hr0.0 mm/hr 0.00 in0.0 mm
12:46 PM 74.2°F23.4°C 32.9°F0.5°C 22% 11.7 mph WSW18.8 kmh WSW 10.0 mph16.1 kmh 32.04 in1085.0 mb 0.00 in0.0 mm 0.00 in/hr0.0 mm/hr 0.00 in0.0 mm
12:48 PM 74.2°F23.4°C 30.6°F-0.8°C 20% 10.4 mph W16.7 kmh W 11.0 mph17.7 kmh 32.04 in1085.0 mb 0.00 in0.0 mm 0.00 in/hr0.0 mm/hr 0.00 in0.0 mm
12:50 PM 74.2°F23.4°C 35.1°F1.7°C 24% 11.7 mph WSW18.8 kmh WSW 11.0 mph17.7 kmh 32.04 in1085.0 mb 0.00 in0.0 mm 0.00 in/hr0.0 mm/hr 0.00 in0.0 mm
12:52 PM 74.2°F23.4°C 30.6°F-0.8°C 20% 14.3 mph WSW23.0 kmh WSW 13.0 mph20.9 kmh 32.04 in1085.0 mb 0.00 in0.0 mm 0.00 in/hr0.0 mm/hr 0.00 in0.0 mm
12:54 PM 74.2°F23.4°C 32.9°F0.5°C 22% 11.7 mph WSW18.8 kmh WSW 14.0 mph22.5 kmh 32.04 in1085.0 mb 0.00 in0.0 mm 0.00 in/hr0.0 mm/hr 0.00 in0.0 mm
12:56 PM 74.2°F23.4°C 30.6°F-0.8°C 20% 14.3 mph WSW23.0 kmh WSW 13.0 mph20.9 kmh 32.04 in1085.0 mb 0.00 in0.0 mm 0.00 in/hr0.0 mm/hr 0.00 in0.0 mm
12:58 PM 73.1°F22.8°C 29.7°F-1.3°C 20% 7.8 mph WSW12.6 kmh WSW 9.0 mph14.5 kmh 32.04 in1085.0 mb 0.00 in0.0 mm 0.00 in/hr0.0 mm/hr 0.00 in0.0 mm
01:00 PM 74.2°F23.4°C 32.9°F0.5°C 22% 14.3 mph WSW23.0 kmh WSW 14.0 mph22.5 kmh 32.04 in1085.0 mb 0.00 in0.0 mm 0.00 in/hr0.0 mm/hr 0.00 in0.0 mm
01:02 PM 74.2°F23.4°C 31.8°F-0.1°C 21% 11.7 mph WSW18.8 kmh WSW 13.0 mph20.9 kmh 32.04 in1085.0 mb 0.00 in0.0 mm 0.00 in/hr0.0 mm/hr 0.00 in0.0 mm
01:04 PM 74.2°F23.4°C 30.6°F-0.8°C 20% 7.8 mph SW12.6 kmh SW 11.0 mph17.7 kmh 32.04 in1085.0 mb 0.00 in0.0 mm 0.00 in/hr0.0 mm/hr 0.00 in0.0 mm
01:06 PM 74.2°F23.4°C 30.6°F-0.8°C 20% 5.2 mph WNW8.4 kmh WNW 9.0 mph14.5 kmh 32.04 in1085.0 mb 0.00 in0.0 mm 0.00 in/hr0.0 mm/hr 0.00 in0.0 mm
01:08 PM 75.2°F24.0°C 33.8°F1.0°C 22% 7.8 mph SW12.6 kmh SW 10.0 mph16.1 kmh 32.04 in1085.0 mb 0.00 in0.0 mm 0.00 in/hr0.0 mm/hr 0.00 in0.0 mm
01:10 PM 75.2°F24.0°C 30.1°F-1.1°C 19% 11.7 mph W18.8 kmh W 13.0 mph20.9 kmh 32.04 in1085.0 mb 0.00 in0.0 mm 0.00 in/hr0.0 mm/hr 0.00 in0.0 mm
01:12 PM 75.2°F24.0°C 32.6°F0.3°C 21% 7.8 mph WSW12.6 kmh WSW 10.0 mph16.1 kmh 32.04 in1085.0 mb 0.00 in0.0 mm 0.00 in/hr0.0 mm/hr 0.00 in0.0 mm
01:14 PM 75.2°F24.0°C 32.6°F0.3°C 21% 10.4 mph WSW16.7 kmh WSW 8.0 mph12.9 kmh 32.04 in1085.0 mb 0.00 in0.0 mm 0.00 in/hr0.0 mm/hr 0.00 in0.0 mm
01:16 PM 75.2°F24.0°C 36.0°F2.2°C 24% 16.9 mph WSW27.2 kmh WSW 13.0 mph20.9 kmh 32.04 in1085.0 mb 0.00 in0.0 mm 0.00 in/hr0.0 mm/hr 0.00 in0.0 mm
01:18 PM 75.2°F24.0°C 31.4°F-0.3°C 20% 16.9 mph WSW27.2 kmh WSW 14.0 mph22.5 kmh 32.04 in1085.0 mb 0.00 in0.0 mm 0.00 in/hr0.0 mm/hr 0.00 in0.0 mm
01:20 PM 75.2°F24.0°C 31.4°F-0.3°C 20% 11.7 mph WSW18.8 kmh WSW 12.0 mph19.3 kmh 32.04 in1085.0 mb 0.00 in0.0 mm 0.00 in/hr0.0 mm/hr 0.00 in0.0 mm
01:22 PM 75.2°F24.0°C 31.4°F-0.3°C 20% 9.1 mph SW14.6 kmh SW 10.0 mph16.1 kmh 32.04 in1085.0 mb 0.00 in0.0 mm 0.00 in/hr0.0 mm/hr 0.00 in0.0 mm
01:24 PM 75.2°F24.0°C 28.8°F-1.8°C 18% 11.7 mph WSW18.8 kmh WSW 10.0 mph16.1 kmh 32.03 in1084.7 mb 0.00 in0.0 mm 0.00 in/hr0.0 mm/hr 0.00 in0.0 mm
01:26 PM 75.2°F24.0°C 33.8°F1.0°C 22% 11.7 mph WSW18.8 kmh WSW 11.0 mph17.7 kmh 32.03 in1084.7 mb 0.00 in0.0 mm 0.00 in/hr0.0 mm/hr 0.00 in0.0 mm
01:28 PM 75.2°F24.0°C 31.4°F-0.3°C 20% 3.9 mph W6.3 kmh W 10.0 mph16.1 kmh 32.03 in1084.7 mb 0.00 in0.0 mm 0.00 in/hr0.0 mm/hr 0.00 in0.0 mm
01:30 PM 76.2°F24.6°C 33.5°F0.8°C 21% 10.4 mph WSW16.7 kmh WSW 10.0 mph16.1 kmh 32.03 in1084.7 mb 0.00 in0.0 mm 0.00 in/hr0.0 mm/hr 0.00 in0.0 mm
01:32 PM 75.2°F24.0°C 30.1°F-1.1°C 19% 13.0 mph WSW20.9 kmh WSW 13.0 mph20.9 kmh 32.03 in1084.7 mb 0.00 in0.0 mm 0.00 in/hr0.0 mm/hr 0.00 in0.0 mm
01:34 PM 75.2°F24.0°C 31.4°F-0.3°C 20% 5.2 mph W8.4 kmh W 10.0 mph16.1 kmh 32.02 in1084.3 mb 0.00 in0.0 mm 0.00 in/hr0.0 mm/hr 0.00 in0.0 mm
01:36 PM 76.2°F24.6°C 33.5°F0.8°C 21% 9.1 mph W14.6 kmh W 9.0 mph14.5 kmh 32.02 in1084.3 mb 0.00 in0.0 mm 0.00 in/hr0.0 mm/hr 0.00 in0.0 mm
01:38 PM 76.2°F24.6°C 32.3°F0.2°C 20% 7.8 mph WSW12.6 kmh WSW 11.0 mph17.7 kmh 32.02 in1084.3 mb 0.00 in0.0 mm 0.00 in/hr0.0 mm/hr 0.00 in0.0 mm
01:40 PM 76.2°F24.6°C 32.3°F0.2°C 20% 14.3 mph SSW23.0 kmh SSW 11.0 mph17.7 kmh 32.02 in1084.3 mb 0.00 in0.0 mm 0.00 in/hr0.0 mm/hr 0.00 in0.0 mm
01:42 PM 76.2°F24.6°C 33.5°F0.8°C 21% 9.1 mph SW14.6 kmh SW 10.0 mph16.1 kmh 32.02 in1084.3 mb 0.00 in0.0 mm 0.00 in/hr0.0 mm/hr 0.00 in0.0 mm
01:44 PM 76.2°F24.6°C 32.3°F0.2°C 20% 7.8 mph WSW12.6 kmh WSW 10.0 mph16.1 kmh 32.02 in1084.3 mb 0.00 in0.0 mm 0.00 in/hr0.0 mm/hr 0.00 in0.0 mm
01:46 PM 77.3°F25.2°C 33.1°F0.6°C 20% 7.8 mph SW12.6 kmh SW 8.0 mph12.9 kmh 32.02 in1084.3 mb 0.00 in0.0 mm 0.00 in/hr0.0 mm/hr 0.00 in0.0 mm
01:48 PM 77.3°F25.2°C 30.5°F-0.8°C 18% 10.4 mph SW16.7 kmh SW 10.0 mph16.1 kmh 32.02 in1084.3 mb 0.00 in0.0 mm 0.00 in/hr0.0 mm/hr 0.00 in0.0 mm
01:50 PM 76.2°F24.6°C 31.0°F-0.6°C 19% 13.0 mph W20.9 kmh W 13.0 mph20.9 kmh 32.02 in1084.3 mb 0.00 in0.0 mm 0.00 in/hr0.0 mm/hr 0.00 in0.0 mm
01:52 PM 76.2°F24.6°C 32.3°F0.2°C 20% 9.1 mph WSW14.6 kmh WSW 10.0 mph16.1 kmh 32.02 in1084.3 mb 0.00 in0.0 mm 0.00 in/hr0.0 mm/hr 0.00 in0.0 mm
01:54 PM 77.3°F25.2°C 33.1°F0.6°C 20% 11.7 mph SW18.8 kmh SW 10.0 mph16.1 kmh 32.02 in1084.3 mb 0.00 in0.0 mm 0.00 in/hr0.0 mm/hr 0.00 in0.0 mm
01:56 PM 77.3°F25.2°C 33.1°F0.6°C 20% 11.7 mph WSW18.8 kmh WSW 11.0 mph17.7 kmh 32.02 in1084.3 mb 0.00 in0.0 mm 0.00 in/hr0.0 mm/hr 0.00 in0.0 mm
01:58 PM 77.3°F25.2°C 33.1°F0.6°C 20% 9.1 mph WSW14.6 kmh WSW 10.0 mph16.1 kmh 32.02 in1084.3 mb 0.00 in0.0 mm 0.00 in/hr0.0 mm/hr 0.00 in0.0 mm
01:59 PM 77.3°F25.2°C 31.8°F-0.1°C 19% 11.7 mph W18.8 kmh W 10.0 mph16.1 kmh 32.02 in1084.3 mb 0.00 in0.0 mm 0.00 in/hr0.0 mm/hr 0.00 in0.0 mm
02:02 PM 77.3°F25.2°C 33.1°F0.6°C 20% 10.4 mph SW16.7 kmh SW 12.0 mph19.3 kmh 32.02 in1084.3 mb 0.00 in0.0 mm 0.00 in/hr0.0 mm/hr 0.00 in0.0 mm
02:04 PM 77.3°F25.2°C 33.1°F0.6°C 20% 13.0 mph WSW20.9 kmh WSW 13.0 mph20.9 kmh 32.00 in1083.6 mb 0.00 in0.0 mm 0.00 in/hr0.0 mm/hr 0.00 in0.0 mm
02:06 PM 77.3°F25.2°C 30.5°F-0.8°C 18% 10.4 mph WSW16.7 kmh WSW 11.0 mph17.7 kmh 32.00 in1083.6 mb 0.00 in0.0 mm 0.00 in/hr0.0 mm/hr 0.00 in0.0 mm
02:08 PM 77.3°F25.2°C 27.6°F-2.4°C 16% 13.0 mph SW20.9 kmh SW 14.0 mph22.5 kmh 32.00 in1083.6 mb 0.00 in0.0 mm 0.00 in/hr0.0 mm/hr 0.00 in0.0 mm
02:10 PM 77.3°F25.2°C 27.6°F-2.4°C 16% 14.3 mph SW23.0 kmh SW 15.0 mph24.1 kmh 32.00 in1083.6 mb 0.00 in0.0 mm 0.00 in/hr0.0 mm/hr 0.00 in0.0 mm
02:12 PM 77.3°F25.2°C 27.6°F-2.4°C 16% 14.3 mph WSW23.0 kmh WSW 12.0 mph19.3 kmh 32.00 in1083.6 mb 0.00 in0.0 mm 0.00 in/hr0.0 mm/hr 0.00 in0.0 mm
02:14 PM 77.3°F25.2°C 30.5°F-0.8°C 18% 14.3 mph W23.0 kmh W 15.0 mph24.1 kmh 32.00 in1083.6 mb 0.00 in0.0 mm 0.00 in/hr0.0 mm/hr 0.00 in0.0 mm
02:16 PM 78.3°F25.7°C 28.4°F-2.0°C 16% 14.3 mph WSW23.0 kmh WSW 14.0 mph22.5 kmh 32.00 in1083.6 mb 0.00 in0.0 mm 0.00 in/hr0.0 mm/hr 0.00 in0.0 mm
02:18 PM 78.3°F25.7°C 31.3°F-0.4°C 18% 9.1 mph WSW14.6 kmh WSW 14.0 mph22.5 kmh 32.00 in1083.6 mb 0.00 in0.0 mm 0.00 in/hr0.0 mm/hr 0.00 in0.0 mm
02:20 PM 78.3°F25.7°C 31.3°F-0.4°C 18% 18.2 mph WSW29.3 kmh WSW 16.0 mph25.7 kmh 32.00 in1083.6 mb 0.00 in0.0 mm 0.00 in/hr0.0 mm/hr 0.00 in0.0 mm
02:22 PM 77.3°F25.2°C 30.5°F-0.8°C 18% 15.6 mph WSW25.1 kmh WSW 17.0 mph27.4 kmh 32.00 in1083.6 mb 0.00 in0.0 mm 0.00 in/hr0.0 mm/hr 0.00 in0.0 mm
02:24 PM 77.3°F25.2°C 30.5°F-0.8°C 18% 15.6 mph W25.1 kmh W 14.0 mph22.5 kmh 32.00 in1083.6 mb 0.00 in0.0 mm 0.00 in/hr0.0 mm/hr 0.00 in0.0 mm
02:26 PM 78.3°F25.7°C 31.3°F-0.4°C 18% 13.0 mph W20.9 kmh W 13.0 mph20.9 kmh 32.00 in1083.6 mb 0.00 in0.0 mm 0.00 in/hr0.0 mm/hr 0.00 in0.0 mm
02:28 PM 78.3°F25.7°C 31.3°F-0.4°C 18% 18.2 mph W29.3 kmh W 16.0 mph25.7 kmh 32.00 in1083.6 mb 0.00 in0.0 mm 0.00 in/hr0.0 mm/hr 0.00 in0.0 mm
02:30 PM 78.3°F25.7°C 29.9°F-1.2°C 17% 9.1 mph W14.6 kmh W 15.0 mph24.1 kmh 32.00 in1083.6 mb 0.00 in0.0 mm 0.00 in/hr0.0 mm/hr 0.00 in0.0 mm
02:32 PM 78.3°F25.7°C 31.3°F-0.4°C 18% 15.6 mph WSW25.1 kmh WSW 12.0 mph19.3 kmh 32.00 in1083.6 mb 0.00 in0.0 mm 0.00 in/hr0.0 mm/hr 0.00 in0.0 mm
02:34 PM 79.3°F26.3°C 30.8°F-0.7°C 17% 20.8 mph WSW33.5 kmh WSW 16.0 mph25.7 kmh 32.00 in1083.6 mb 0.00 in0.0 mm 0.00 in/hr0.0 mm/hr 0.00 in0.0 mm
02:36 PM 78.3°F25.7°C 29.9°F-1.2°C 17% 10.4 mph W16.7 kmh W 14.0 mph22.5 kmh 32.00 in1083.6 mb 0.00 in0.0 mm 0.00 in/hr0.0 mm/hr 0.00 in0.0 mm
02:38 PM 78.3°F25.7°C 31.3°F-0.4°C 18% 9.1 mph WSW14.6 kmh WSW 13.0 mph20.9 kmh 32.00 in1083.6 mb 0.00 in0.0 mm 0.00 in/hr0.0 mm/hr 0.00 in0.0 mm
02:40 PM 79.3°F26.3°C 33.5°F0.8°C 19% 10.4 mph WSW16.7 kmh WSW 11.0 mph17.7 kmh 32.00 in1083.6 mb 0.00 in0.0 mm 0.00 in/hr0.0 mm/hr 0.00 in0.0 mm
02:42 PM 79.3°F26.3°C 30.8°F-0.7°C 17% 13.0 mph SW20.9 kmh SW 13.0 mph20.9 kmh 32.00 in1083.6 mb 0.00 in0.0 mm 0.00 in/hr0.0 mm/hr 0.00 in0.0 mm
02:44 PM 79.3°F26.3°C 29.3°F-1.5°C 16% 11.7 mph SW18.8 kmh SW 10.0 mph16.1 kmh 31.99 in1083.3 mb 0.00 in0.0 mm 0.00 in/hr0.0 mm/hr 0.00 in0.0 mm
02:46 PM 79.3°F26.3°C 30.8°F-0.7°C 17% 7.8 mph SW12.6 kmh SW 10.0 mph16.1 kmh 31.99 in1083.3 mb 0.00 in0.0 mm 0.00 in/hr0.0 mm/hr 0.00 in0.0 mm
02:48 PM 79.3°F26.3°C 32.2°F0.1°C 18% 10.4 mph W16.7 kmh W 15.0 mph24.1 kmh 31.99 in1083.3 mb 0.00 in0.0 mm 0.00 in/hr0.0 mm/hr 0.00 in0.0 mm
02:50 PM 79.3°F26.3°C 32.2°F0.1°C 18% 15.6 mph W25.1 kmh W 16.0 mph25.7 kmh 31.99 in1083.3 mb 0.00 in0.0 mm 0.00 in/hr0.0 mm/hr 0.00 in0.0 mm
02:52 PM 79.3°F26.3°C 27.7°F-2.4°C 15% 13.0 mph WSW20.9 kmh WSW 17.0 mph27.4 kmh 31.99 in1083.3 mb 0.00 in0.0 mm 0.00 in/hr0.0 mm/hr 0.00 in0.0 mm
02:54 PM 79.3°F26.3°C 30.8°F-0.7°C 17% 18.2 mph W29.3 kmh W 16.0 mph25.7 kmh 31.99 in1083.3 mb 0.00 in0.0 mm 0.00 in/hr0.0 mm/hr 0.00 in0.0 mm
02:56 PM 79.3°F26.3°C 29.3°F-1.5°C 16% 16.9 mph W27.2 kmh W 15.0 mph24.1 kmh 31.99 in1083.3 mb 0.00 in0.0 mm 0.00 in/hr0.0 mm/hr 0.00 in0.0 mm
02:58 PM 79.3°F26.3°C 30.8°F-0.7°C 17% 13.0 mph WSW20.9 kmh WSW 17.0 mph27.4 kmh 31.99 in1083.3 mb 0.00 in0.0 mm 0.00 in/hr0.0 mm/hr 0.00 in0.0 mm
03:00 PM 79.3°F26.3°C 30.8°F-0.7°C 17% 10.4 mph W16.7 kmh W 14.0 mph22.5 kmh 31.99 in1083.3 mb 0.00 in0.0 mm 0.00 in/hr0.0 mm/hr 0.00 in0.0 mm
03:02 PM 79.3°F26.3°C 29.3°F-1.5°C 16% 7.8 mph W12.6 kmh W 11.0 mph17.7 kmh 31.99 in1083.3 mb 0.00 in0.0 mm 0.00 in/hr0.0 mm/hr 0.00 in0.0 mm
03:04 PM 79.3°F26.3°C 29.3°F-1.5°C 16% 15.6 mph WSW25.1 kmh WSW 15.0 mph24.1 kmh 31.98 in1083.0 mb 0.00 in0.0 mm 0.00 in/hr0.0 mm/hr 0.00 in0.0 mm
03:06 PM 79.3°F26.3°C 29.3°F-1.5°C 16% 13.0 mph W20.9 kmh W 13.0 mph20.9 kmh 31.98 in1083.0 mb 0.00 in0.0 mm 0.00 in/hr0.0 mm/hr 0.00 in0.0 mm
03:08 PM 80.3°F26.8°C 30.1°F-1.1°C 16% 11.7 mph WSW18.8 kmh WSW 10.0 mph16.1 kmh 31.98 in1083.0 mb 0.00 in0.0 mm 0.00 in/hr0.0 mm/hr 0.00 in0.0 mm
03:10 PM 80.3°F26.8°C 30.1°F-1.1°C 16% 14.3 mph WSW23.0 kmh WSW 16.0 mph25.7 kmh 31.98 in1083.0 mb 0.00 in0.0 mm 0.00 in/hr0.0 mm/hr 0.00 in0.0 mm
03:12 PM 80.3°F26.8°C 30.1°F-1.1°C 16% 10.4 mph SW16.7 kmh SW 16.0 mph25.7 kmh 31.98 in1083.0 mb 0.00 in0.0 mm 0.00 in/hr0.0 mm/hr 0.00 in0.0 mm
03:14 PM 80.3°F26.8°C 30.1°F-1.1°C 16% 6.5 mph SW10.5 kmh SW 11.0 mph17.7 kmh 31.98 in1083.0 mb 0.00 in0.0 mm 0.00 in/hr0.0 mm/hr 0.00 in0.0 mm
03:16 PM 80.3°F26.8°C 30.1°F-1.1°C 16% 14.3 mph WSW23.0 kmh WSW 15.0 mph24.1 kmh 31.98 in1083.0 mb 0.00 in0.0 mm 0.00 in/hr0.0 mm/hr 0.00 in0.0 mm
03:18 PM 80.3°F26.8°C 30.1°F-1.1°C 16% 9.1 mph WSW14.6 kmh WSW 13.0 mph20.9 kmh 31.98 in1083.0 mb 0.00 in0.0 mm 0.00 in/hr0.0 mm/hr 0.00 in0.0 mm
03:20 PM 80.3°F26.8°C 30.1°F-1.1°C 16% 9.1 mph SW14.6 kmh SW 15.0 mph24.1 kmh 31.98 in1083.0 mb 0.00 in0.0 mm 0.00 in/hr0.0 mm/hr 0.00 in0.0 mm
03:22 PM 80.3°F26.8°C 26.8°F-2.9°C 14% 13.0 mph WSW20.9 kmh WSW 13.0 mph20.9 kmh 31.98 in1083.0 mb 0.00 in0.0 mm 0.00 in/hr0.0 mm/hr 0.00 in0.0 mm
03:24 PM 80.3°F26.8°C 33.0°F0.6°C 18% 9.1 mph WSW14.6 kmh WSW 10.0 mph16.1 kmh 31.97 in1082.6 mb 0.00 in0.0 mm 0.00 in/hr0.0 mm/hr 0.00 in0.0 mm
03:26 PM 80.3°F26.8°C 30.1°F-1.1°C 16% 6.5 mph SW10.5 kmh SW 9.0 mph14.5 kmh 31.97 in1082.6 mb 0.00 in0.0 mm 0.00 in/hr0.0 mm/hr 0.00 in0.0 mm
03:28 PM 80.3°F26.8°C 33.0°F0.6°C 18% 13.0 mph W20.9 kmh W 11.0 mph17.7 kmh 31.97 in1082.6 mb 0.00 in0.0 mm 0.00 in/hr0.0 mm/hr 0.00 in0.0 mm
03:30 PM 80.3°F26.8°C 30.1°F-1.1°C 16% 9.1 mph WSW14.6 kmh WSW 10.0 mph16.1 kmh 31.97 in1082.6 mb 0.00 in0.0 mm 0.00 in/hr0.0 mm/hr 0.00 in0.0 mm
03:32 PM 80.3°F26.8°C 31.6°F-0.2°C 17% 11.7 mph WSW18.8 kmh WSW 9.0 mph14.5 kmh 31.97 in1082.6 mb 0.00 in0.0 mm 0.00 in/hr0.0 mm/hr 0.00 in0.0 mm
03:34 PM 81.4°F27.4°C 35.2°F1.8°C 19% 13.0 mph W20.9 kmh W 13.0 mph20.9 kmh 31.96 in1082.3 mb 0.00 in0.0 mm 0.00 in/hr0.0 mm/hr 0.00 in0.0 mm
03:36 PM 81.4°F27.4°C 30.9°F-0.6°C 16% 14.3 mph W23.0 kmh W 15.0 mph24.1 kmh 31.96 in1082.3 mb 0.00 in0.0 mm 0.00 in/hr0.0 mm/hr 0.00 in0.0 mm
03:38 PM 80.3°F26.8°C 31.6°F-0.2°C 17% 13.0 mph WSW20.9 kmh WSW 11.0 mph17.7 kmh 31.96 in1082.3 mb 0.00 in0.0 mm 0.00 in/hr0.0 mm/hr 0.00 in0.0 mm
03:40 PM 80.3°F26.8°C 33.0°F0.6°C 18% 11.7 mph W18.8 kmh W 10.0 mph16.1 kmh 31.96 in1082.3 mb 0.00 in0.0 mm 0.00 in/hr0.0 mm/hr 0.00 in0.0 mm
03:42 PM 80.3°F26.8°C 30.1°F-1.1°C 16% 10.4 mph W16.7 kmh W 13.0 mph20.9 kmh 31.96 in1082.3 mb 0.00 in0.0 mm 0.00 in/hr0.0 mm/hr 0.00 in0.0 mm
03:44 PM 80.3°F26.8°C 28.5°F-1.9°C 15% 9.1 mph WSW14.6 kmh WSW 12.0 mph19.3 kmh 31.96 in1082.3 mb 0.00 in0.0 mm 0.00 in/hr0.0 mm/hr 0.00 in0.0 mm
03:46 PM 80.3°F26.8°C 30.1°F-1.1°C 16% 10.4 mph W16.7 kmh W 10.0 mph16.1 kmh 31.96 in1082.3 mb 0.00 in0.0 mm 0.00 in/hr0.0 mm/hr 0.00 in0.0 mm
03:48 PM 81.4°F27.4°C 30.9°F-0.6°C 16% 7.8 mph SW12.6 kmh SW 10.0 mph16.1 kmh 31.96 in1082.3 mb 0.00 in0.0 mm 0.00 in/hr0.0 mm/hr 0.00 in0.0 mm
03:50 PM 81.4°F27.4°C 30.9°F-0.6°C 16% 10.4 mph WSW16.7 kmh WSW 9.0 mph14.5 kmh 31.96 in1082.3 mb 0.00 in0.0 mm 0.00 in/hr0.0 mm/hr 0.00 in0.0 mm
03:52 PM 81.4°F27.4°C 30.9°F-0.6°C 16% 13.0 mph W20.9 kmh W 12.0 mph19.3 kmh 31.96 in1082.3 mb 0.00 in0.0 mm 0.00 in/hr0.0 mm/hr 0.00 in0.0 mm
03:54 PM 81.4°F27.4°C 29.3°F-1.5°C 15% 9.1 mph WSW14.6 kmh WSW 9.0 mph14.5 kmh 31.96 in1082.3 mb 0.00 in0.0 mm 0.00 in/hr0.0 mm/hr 0.00 in0.0 mm
03:56 PM 81.4°F27.4°C 27.7°F-2.4°C 14% 16.9 mph WNW27.2 kmh WNW 13.0 mph20.9 kmh 31.96 in1082.3 mb 0.00 in0.0 mm 0.00 in/hr0.0 mm/hr 0.00 in0.0 mm
03:58 PM 81.4°F27.4°C 29.3°F-1.5°C 15% 5.2 mph WNW8.4 kmh WNW 11.0 mph17.7 kmh 31.96 in1082.3 mb 0.00 in0.0 mm 0.00 in/hr0.0 mm/hr 0.00 in0.0 mm
04:00 PM 81.4°F27.4°C 27.7°F-2.4°C 14% 13.0 mph WNW20.9 kmh WNW 14.0 mph22.5 kmh 31.96 in1082.3 mb 0.00 in0.0 mm 0.00 in/hr0.0 mm/hr 0.00 in0.0 mm
04:02 PM 81.4°F27.4°C 29.3°F-1.5°C 15% 5.2 mph W8.4 kmh W 8.0 mph12.9 kmh 31.96 in1082.3 mb 0.00 in0.0 mm 0.00 in/hr0.0 mm/hr 0.00 in0.0 mm
04:04 PM 81.4°F27.4°C 30.9°F-0.6°C 16% 5.2 mph WSW8.4 kmh WSW 8.0 mph12.9 kmh 31.95 in1082.0 mb 0.00 in0.0 mm 0.00 in/hr0.0 mm/hr 0.00 in0.0 mm
04:06 PM 82.4°F28.0°C 30.2°F-1.0°C 15% 10.4 mph WSW16.7 kmh WSW 9.0 mph14.5 kmh 31.95 in1082.0 mb 0.00 in0.0 mm 0.00 in/hr0.0 mm/hr 0.00 in0.0 mm
04:08 PM 82.4°F28.0°C 34.7°F1.5°C 18% 13.0 mph WSW20.9 kmh WSW 10.0 mph16.1 kmh 31.95 in1082.0 mb 0.00 in0.0 mm 0.00 in/hr0.0 mm/hr 0.00 in0.0 mm
04:10 PM 81.4°F27.4°C 33.9°F1.1°C 18% 13.0 mph WSW20.9 kmh WSW 14.0 mph22.5 kmh 31.95 in1082.0 mb 0.00 in0.0 mm 0.00 in/hr0.0 mm/hr 0.00 in0.0 mm
04:12 PM 82.4°F28.0°C 33.3°F0.7°C 17% 9.1 mph SSW14.6 kmh SSW 10.0 mph16.1 kmh 31.95 in1082.0 mb 0.00 in0.0 mm 0.00 in/hr0.0 mm/hr 0.00 in0.0 mm
04:14 PM 82.4°F28.0°C 33.3°F0.7°C 17% 14.3 mph WSW23.0 kmh WSW 11.0 mph17.7 kmh 31.94 in1081.6 mb 0.00 in0.0 mm 0.00 in/hr0.0 mm/hr 0.00 in0.0 mm
04:16 PM 81.4°F27.4°C 29.3°F-1.5°C 15% 6.5 mph SSW10.5 kmh SSW 13.0 mph20.9 kmh 31.94 in1081.6 mb 0.00 in0.0 mm 0.00 in/hr0.0 mm/hr 0.00 in0.0 mm
04:18 PM 81.4°F27.4°C 27.7°F-2.4°C 14% 10.4 mph SW16.7 kmh SW 9.0 mph14.5 kmh 31.94 in1081.6 mb 0.00 in0.0 mm 0.00 in/hr0.0 mm/hr 0.00 in0.0 mm
04:20 PM 81.4°F27.4°C 30.9°F-0.6°C 16% 13.0 mph WSW20.9 kmh WSW 14.0 mph22.5 kmh 31.94 in1081.6 mb 0.00 in0.0 mm 0.00 in/hr0.0 mm/hr 0.00 in0.0 mm
04:22 PM 81.4°F27.4°C 30.9°F-0.6°C 16% 15.6 mph W25.1 kmh W 12.0 mph19.3 kmh 31.94 in1081.6 mb 0.00 in0.0 mm 0.00 in/hr0.0 mm/hr 0.00 in0.0 mm
04:24 PM 81.4°F27.4°C 33.9°F1.1°C 18% 14.3 mph WSW23.0 kmh WSW 13.0 mph20.9 kmh 31.94 in1081.6 mb 0.00 in0.0 mm 0.00 in/hr0.0 mm/hr 0.00 in0.0 mm
04:26 PM 81.4°F27.4°C 32.4°F0.2°C 17% 5.2 mph SW8.4 kmh SW 13.0 mph20.9 kmh 31.94 in1081.6 mb 0.00 in0.0 mm 0.00 in/hr0.0 mm/hr 0.00 in0.0 mm
04:28 PM 82.4°F28.0°C 34.7°F1.5°C 18% 11.7 mph W18.8 kmh W 9.0 mph14.5 kmh 31.94 in1081.6 mb 0.00 in0.0 mm 0.00 in/hr0.0 mm/hr 0.00 in0.0 mm
04:30 PM 81.4°F27.4°C 29.3°F-1.5°C 15% 14.3 mph W23.0 kmh W 16.0 mph25.7 kmh 31.94 in1081.6 mb 0.00 in0.0 mm 0.00 in/hr0.0 mm/hr 0.00 in0.0 mm
04:32 PM 81.4°F27.4°C 29.3°F-1.5°C 15% 15.6 mph WSW25.1 kmh WSW 12.0 mph19.3 kmh 31.94 in1081.6 mb 0.00 in0.0 mm 0.00 in/hr0.0 mm/hr 0.00 in0.0 mm
04:34 PM 81.4°F27.4°C 29.3°F-1.5°C 15% 6.5 mph W10.5 kmh W 10.0 mph16.1 kmh 31.95 in1082.0 mb 0.00 in0.0 mm 0.00 in/hr0.0 mm/hr 0.00 in0.0 mm
04:36 PM 82.4°F28.0°C 30.2°F-1.0°C 15% 5.2 mph WSW8.4 kmh WSW 6.0 mph9.7 kmh 31.95 in1082.0 mb 0.00 in0.0 mm 0.00 in/hr0.0 mm/hr 0.00 in0.0 mm
04:38 PM 82.4°F28.0°C 34.7°F1.5°C 18% 13.0 mph WSW20.9 kmh WSW 10.0 mph16.1 kmh 31.95 in1082.0 mb 0.00 in0.0 mm 0.00 in/hr0.0 mm/hr 0.00 in0.0 mm
04:40 PM 82.4°F28.0°C 30.2°F-1.0°C 15% 10.4 mph W16.7 kmh W 17.0 mph27.4 kmh 31.95 in1082.0 mb 0.00 in0.0 mm 0.00 in/hr0.0 mm/hr 0.00 in0.0 mm
04:42 PM 82.4°F28.0°C 30.2°F-1.0°C 15% 13.0 mph W20.9 kmh W 16.0 mph25.7 kmh 31.95 in1082.0 mb 0.00 in0.0 mm 0.00 in/hr0.0 mm/hr 0.00 in0.0 mm
04:44 PM 82.4°F28.0°C 31.8°F-0.1°C 16% 10.4 mph WNW16.7 kmh WNW 15.0 mph24.1 kmh 31.94 in1081.6 mb 0.00 in0.0 mm 0.00 in/hr0.0 mm/hr 0.00 in0.0 mm
04:46 PM 82.4°F28.0°C 31.8°F-0.1°C 16% 10.4 mph W16.7 kmh W 10.0 mph16.1 kmh 31.94 in1081.6 mb 0.00 in0.0 mm 0.00 in/hr0.0 mm/hr 0.00 in0.0 mm
04:48 PM 83.4°F28.6°C 31.0°F-0.6°C 15% 9.1 mph W14.6 kmh W 10.0 mph16.1 kmh 31.94 in1081.6 mb 0.00 in0.0 mm 0.00 in/hr0.0 mm/hr 0.00 in0.0 mm
04:50 PM 83.4°F28.6°C 29.3°F-1.5°C 14% 7.8 mph NW12.6 kmh NW 12.0 mph19.3 kmh 31.94 in1081.6 mb 0.00 in0.0 mm 0.00 in/hr0.0 mm/hr 0.00 in0.0 mm
04:52 PM 83.4°F28.6°C 31.0°F-0.6°C 15% 5.2 mph W8.4 kmh W 7.0 mph11.3 kmh 31.94 in1081.6 mb 0.00 in0.0 mm 0.00 in/hr0.0 mm/hr 0.00 in0.0 mm
04:54 PM 83.4°F28.6°C 29.3°F-1.5°C 14% 7.8 mph W12.6 kmh W 7.0 mph11.3 kmh 31.94 in1081.6 mb 0.00 in0.0 mm 0.00 in/hr0.0 mm/hr 0.00 in0.0 mm
04:56 PM 83.4°F28.6°C 32.6°F0.3°C 16% 10.4 mph WSW16.7 kmh WSW 10.0 mph16.1 kmh 31.94 in1081.6 mb 0.00 in0.0 mm 0.00 in/hr0.0 mm/hr 0.00 in0.0 mm
04:58 PM 83.4°F28.6°C 31.0°F-0.6°C 15% 9.1 mph SW14.6 kmh SW 11.0 mph17.7 kmh 31.94 in1081.6 mb 0.00 in0.0 mm 0.00 in/hr0.0 mm/hr 0.00 in0.0 mm
04:59 PM 82.4°F28.0°C 31.8°F-0.1°C 16% 6.5 mph SW10.5 kmh SW 9.0 mph14.5 kmh 31.94 in1081.6 mb 0.00 in0.0 mm 0.00 in/hr0.0 mm/hr 0.00 in0.0 mm
05:02 PM 83.4°F28.6°C 34.1°F1.2°C 17% 6.5 mph SW10.5 kmh SW 7.0 mph11.3 kmh 31.94 in1081.6 mb 0.00 in0.0 mm 0.00 in/hr0.0 mm/hr 0.00 in0.0 mm
05:04 PM 83.4°F28.6°C 35.5°F1.9°C 18% 6.5 mph SW10.5 kmh SW 9.0 mph14.5 kmh 31.94 in1081.6 mb 0.00 in0.0 mm 0.00 in/hr0.0 mm/hr 0.00 in0.0 mm
05:06 PM 82.4°F28.0°C 33.3°F0.7°C 17% 15.6 mph WSW25.1 kmh WSW 12.0 mph19.3 kmh 31.94 in1081.6 mb 0.00 in0.0 mm 0.00 in/hr0.0 mm/hr 0.00 in0.0 mm
05:08 PM 82.4°F28.0°C 31.8°F-0.1°C 16% 10.4 mph W16.7 kmh W 12.0 mph19.3 kmh 31.94 in1081.6 mb 0.00 in0.0 mm 0.00 in/hr0.0 mm/hr 0.00 in0.0 mm
05:10 PM 82.4°F28.0°C 31.8°F-0.1°C 16% 10.4 mph W16.7 kmh W 9.0 mph14.5 kmh 31.94 in1081.6 mb 0.00 in0.0 mm 0.00 in/hr0.0 mm/hr 0.00 in0.0 mm
05:12 PM 82.4°F28.0°C 34.7°F1.5°C 18% 13.0 mph W20.9 kmh W 13.0 mph20.9 kmh 31.94 in1081.6 mb 0.00 in0.0 mm 0.00 in/hr0.0 mm/hr 0.00 in0.0 mm
05:14 PM 81.4°F27.4°C 30.9°F-0.6°C 16% 14.3 mph W23.0 kmh W 14.0 mph22.5 kmh 31.94 in1081.6 mb 0.00 in0.0 mm 0.00 in/hr0.0 mm/hr 0.00 in0.0 mm
05:16 PM 81.4°F27.4°C 29.3°F-1.5°C 15% 13.0 mph W20.9 kmh W 14.0 mph22.5 kmh 31.94 in1081.6 mb 0.00 in0.0 mm 0.00 in/hr0.0 mm/hr 0.00 in0.0 mm
05:18 PM 81.4°F27.4°C 30.9°F-0.6°C 16% 14.3 mph W23.0 kmh W 12.0 mph19.3 kmh 31.94 in1081.6 mb 0.00 in0.0 mm 0.00 in/hr0.0 mm/hr 0.00 in0.0 mm
05:20 PM 81.4°F27.4°C 29.3°F-1.5°C 15% 11.7 mph WSW18.8 kmh WSW 13.0 mph20.9 kmh 31.94 in1081.6 mb 0.00 in0.0 mm 0.00 in/hr0.0 mm/hr 0.00 in0.0 mm
05:22 PM 82.4°F28.0°C 31.8°F-0.1°C 16% 10.4 mph W16.7 kmh W 11.0 mph17.7 kmh 31.94 in1081.6 mb 0.00 in0.0 mm 0.00 in/hr0.0 mm/hr 0.00 in0.0 mm
05:24 PM 82.4°F28.0°C 34.7°F1.5°C 18% 15.6 mph W25.1 kmh W 12.0 mph19.3 kmh 31.94 in1081.6 mb 0.00 in0.0 mm 0.00 in/hr0.0 mm/hr 0.00 in0.0 mm
05:26 PM 81.4°F27.4°C 33.9°F1.1°C 18% 11.7 mph W18.8 kmh W 14.0 mph22.5 kmh 31.94 in1081.6 mb 0.00 in0.0 mm 0.00 in/hr0.0 mm/hr 0.00 in0.0 mm
05:28 PM 81.4°F27.4°C 27.7°F-2.4°C 14% 9.1 mph WSW14.6 kmh WSW 12.0 mph19.3 kmh 31.94 in1081.6 mb 0.00 in0.0 mm 0.00 in/hr0.0 mm/hr 0.00 in0.0 mm
05:30 PM 81.4°F27.4°C 30.9°F-0.6°C 16% 10.4 mph WSW16.7 kmh WSW 9.0 mph14.5 kmh 31.94 in1081.6 mb 0.00 in0.0 mm 0.00 in/hr0.0 mm/hr 0.00 in0.0 mm
05:32 PM 81.4°F27.4°C 30.9°F-0.6°C 16% 7.8 mph WSW12.6 kmh WSW 9.0 mph14.5 kmh 31.94 in1081.6 mb 0.00 in0.0 mm 0.00 in/hr0.0 mm/hr 0.00 in0.0 mm
05:34 PM 81.4°F27.4°C 33.9°F1.1°C 18% 13.0 mph W20.9 kmh W 11.0 mph17.7 kmh 31.94 in1081.6 mb 0.00 in0.0 mm 0.00 in/hr0.0 mm/hr 0.00 in0.0 mm
05:36 PM 81.4°F27.4°C 30.9°F-0.6°C 16% 11.7 mph W18.8 kmh W 12.0 mph19.3 kmh 31.94 in1081.6 mb 0.00 in0.0 mm 0.00 in/hr0.0 mm/hr 0.00 in0.0 mm
05:38 PM 81.4°F27.4°C 29.3°F-1.5°C 15% 13.0 mph W20.9 kmh W 12.0 mph19.3 kmh 31.94 in1081.6 mb 0.00 in0.0 mm 0.00 in/hr0.0 mm/hr 0.00 in0.0 mm
05:40 PM 81.4°F27.4°C 33.9°F1.1°C 18% 11.7 mph WSW18.8 kmh WSW 10.0 mph16.1 kmh 31.94 in1081.6 mb 0.00 in0.0 mm 0.00 in/hr0.0 mm/hr 0.00 in0.0 mm
05:42 PM 81.4°F27.4°C 30.9°F-0.6°C 16% 14.3 mph W23.0 kmh W 13.0 mph20.9 kmh 31.94 in1081.6 mb 0.00 in0.0 mm 0.00 in/hr0.0 mm/hr 0.00 in0.0 mm
05:44 PM 81.4°F27.4°C 33.9°F1.1°C 18% 9.1 mph W14.6 kmh W 12.0 mph19.3 kmh 31.94 in1081.6 mb 0.00 in0.0 mm 0.00 in/hr0.0 mm/hr 0.00 in0.0 mm
05:46 PM 81.4°F27.4°C 30.9°F-0.6°C 16% 7.8 mph W12.6 kmh W 12.0 mph19.3 kmh 31.94 in1081.6 mb 0.00 in0.0 mm 0.00 in/hr0.0 mm/hr 0.00 in0.0 mm
05:48 PM 81.4°F27.4°C 27.7°F-2.4°C 14% 10.4 mph WSW16.7 kmh WSW 9.0 mph14.5 kmh 31.94 in1081.6 mb 0.00 in0.0 mm 0.00 in/hr0.0 mm/hr 0.00 in0.0 mm
05:50 PM 81.4°F27.4°C 33.9°F1.1°C 18% 15.6 mph SW25.1 kmh SW 12.0 mph19.3 kmh 31.94 in1081.6 mb 0.00 in0.0 mm 0.00 in/hr0.0 mm/hr 0.00 in0.0 mm
05:52 PM 81.4°F27.4°C 32.4°F0.2°C 17% 13.0 mph W20.9 kmh W 14.0 mph22.5 kmh 31.94 in1081.6 mb 0.00 in0.0 mm 0.00 in/hr0.0 mm/hr 0.00 in0.0 mm
05:54 PM 81.4°F27.4°C 32.4°F0.2°C 17% 10.4 mph WSW16.7 kmh WSW 13.0 mph20.9 kmh 31.95 in1082.0 mb 0.00 in0.0 mm 0.00 in/hr0.0 mm/hr 0.00 in0.0 mm
05:56 PM 81.4°F27.4°C 35.2°F1.8°C 19% 9.1 mph W14.6 kmh W 11.0 mph17.7 kmh 31.95 in1082.0 mb 0.00 in0.0 mm 0.00 in/hr0.0 mm/hr 0.00 in0.0 mm
05:58 PM 81.4°F27.4°C 35.2°F1.8°C 19% 11.7 mph W18.8 kmh W 10.0 mph16.1 kmh 31.95 in1082.0 mb 0.00 in0.0 mm 0.00 in/hr0.0 mm/hr 0.00 in0.0 mm
06:00 PM 81.4°F27.4°C 32.4°F0.2°C 17% 9.1 mph WSW14.6 kmh WSW 10.0 mph16.1 kmh 31.95 in1082.0 mb 0.00 in0.0 mm 0.00 in/hr0.0 mm/hr 0.00 in0.0 mm
06:02 PM 81.4°F27.4°C 33.9°F1.1°C 18% 10.4 mph WSW16.7 kmh WSW 9.0 mph14.5 kmh 31.95 in1082.0 mb 0.00 in0.0 mm 0.00 in/hr0.0 mm/hr 0.00 in0.0 mm
06:04 PM 81.4°F27.4°C 30.9°F-0.6°C 16% 10.4 mph WSW16.7 kmh WSW 9.0 mph14.5 kmh 31.95 in1082.0 mb 0.00 in0.0 mm 0.00 in/hr0.0 mm/hr 0.00 in0.0 mm
06:06 PM 81.4°F27.4°C 37.7°F3.2°C 21% 9.1 mph W14.6 kmh W 10.0 mph16.1 kmh 31.95 in1082.0 mb 0.00 in0.0 mm 0.00 in/hr0.0 mm/hr 0.00 in0.0 mm
06:08 PM 81.4°F27.4°C 30.9°F-0.6°C 16% 7.8 mph WSW12.6 kmh WSW 7.0 mph11.3 kmh 31.95 in1082.0 mb 0.00 in0.0 mm 0.00 in/hr0.0 mm/hr 0.00 in0.0 mm
06:10 PM 81.4°F27.4°C 32.4°F0.2°C 17% 9.1 mph WSW14.6 kmh WSW 9.0 mph14.5 kmh 31.95 in1082.0 mb 0.00 in0.0 mm 0.00 in/hr0.0 mm/hr 0.00 in0.0 mm
06:12 PM 81.4°F27.4°C 33.9°F1.1°C 18% 9.1 mph W14.6 kmh W 10.0 mph16.1 kmh 31.95 in1082.0 mb 0.00 in0.0 mm 0.00 in/hr0.0 mm/hr 0.00 in0.0 mm
06:14 PM 81.4°F27.4°C 33.9°F1.1°C 18% 10.4 mph W16.7 kmh W 10.0 mph16.1 kmh 31.95 in1082.0 mb 0.00 in0.0 mm 0.00 in/hr0.0 mm/hr 0.00 in0.0 mm
06:16 PM 81.4°F27.4°C 30.9°F-0.6°C 16% 7.8 mph WNW12.6 kmh WNW 10.0 mph16.1 kmh 31.95 in1082.0 mb 0.00 in0.0 mm 0.00 in/hr0.0 mm/hr 0.00 in0.0 mm
06:18 PM 81.4°F27.4°C 33.9°F1.1°C 18% 6.5 mph W10.5 kmh W 7.0 mph11.3 kmh 31.95 in1082.0 mb 0.00 in0.0 mm 0.00 in/hr0.0 mm/hr 0.00 in0.0 mm
06:20 PM 81.4°F27.4°C 36.5°F2.5°C 20% 6.5 mph WSW10.5 kmh WSW 7.0 mph11.3 kmh 31.95 in1082.0 mb 0.00 in0.0 mm 0.00 in/hr0.0 mm/hr 0.00 in0.0 mm
06:22 PM 81.4°F27.4°C 38.9°F3.8°C 22% 7.8 mph WSW12.6 kmh WSW 7.0 mph11.3 kmh 31.95 in1082.0 mb 0.00 in0.0 mm 0.00 in/hr0.0 mm/hr 0.00 in0.0 mm
06:24 PM 81.4°F27.4°C 41.2°F5.1°C 24% 9.1 mph WSW14.6 kmh WSW 8.0 mph12.9 kmh 31.95 in1082.0 mb 0.00 in0.0 mm 0.00 in/hr0.0 mm/hr 0.00 in0.0 mm
06:26 PM 80.3°F26.8°C 39.2°F4.0°C 23% 10.4 mph WSW16.7 kmh WSW 8.0 mph12.9 kmh 31.95 in1082.0 mb 0.00 in0.0 mm 0.00 in/hr0.0 mm/hr 0.00 in0.0 mm
06:28 PM 80.3°F26.8°C 40.3°F4.6°C 24% 9.1 mph W14.6 kmh W 8.0 mph12.9 kmh 31.95 in1082.0 mb 0.00 in0.0 mm 0.00 in/hr0.0 mm/hr 0.00 in0.0 mm
06:30 PM 80.3°F26.8°C 41.3°F5.2°C 25% 10.4 mph W16.7 kmh W 8.0 mph12.9 kmh 31.95 in1082.0 mb 0.00 in0.0 mm 0.00 in/hr0.0 mm/hr 0.00 in0.0 mm
06:32 PM 80.3°F26.8°C 38.1°F3.4°C 22% 6.5 mph W10.5 kmh W 9.0 mph14.5 kmh 31.95 in1082.0 mb 0.00 in0.0 mm 0.00 in/hr0.0 mm/hr 0.00 in0.0 mm
06:34 PM 80.3°F26.8°C 34.4°F1.3°C 19% 7.8 mph W12.6 kmh W 7.0 mph11.3 kmh 31.96 in1082.3 mb 0.00 in0.0 mm 0.00 in/hr0.0 mm/hr 0.00 in0.0 mm
06:36 PM 80.3°F26.8°C 33.0°F0.6°C 18% 7.8 mph W12.6 kmh W 8.0 mph12.9 kmh 31.96 in1082.3 mb 0.00 in0.0 mm 0.00 in/hr0.0 mm/hr 0.00 in0.0 mm
06:38 PM 80.3°F26.8°C 35.7°F2.1°C 20% 9.1 mph W14.6 kmh W 8.0 mph12.9 kmh 31.96 in1082.3 mb 0.00 in0.0 mm 0.00 in/hr0.0 mm/hr 0.00 in0.0 mm
06:40 PM 80.3°F26.8°C 35.7°F2.1°C 20% 10.4 mph W16.7 kmh W 9.0 mph14.5 kmh 31.96 in1082.3 mb 0.00 in0.0 mm 0.00 in/hr0.0 mm/hr 0.00 in0.0 mm
06:42 PM 80.3°F26.8°C 33.0°F0.6°C 18% 9.1 mph W14.6 kmh W 10.0 mph16.1 kmh 31.96 in1082.3 mb 0.00 in0.0 mm 0.00 in/hr0.0 mm/hr 0.00 in0.0 mm
06:44 PM 80.3°F26.8°C 36.9°F2.7°C 21% 9.1 mph W14.6 kmh W 8.0 mph12.9 kmh 31.96 in1082.3 mb 0.00 in0.0 mm 0.00 in/hr0.0 mm/hr 0.00 in0.0 mm
06:46 PM 79.3°F26.3°C 32.2°F0.1°C 18% 11.7 mph W18.8 kmh W 9.0 mph14.5 kmh 31.96 in1082.3 mb 0.00 in0.0 mm 0.00 in/hr0.0 mm/hr 0.00 in0.0 mm
06:48 PM 79.3°F26.3°C 33.5°F0.8°C 19% 9.1 mph W14.6 kmh W 7.0 mph11.3 kmh 31.96 in1082.3 mb 0.00 in0.0 mm 0.00 in/hr0.0 mm/hr 0.00 in0.0 mm
06:50 PM 80.3°F26.8°C 34.4°F1.3°C 19% 7.8 mph W12.6 kmh W 8.0 mph12.9 kmh 31.96 in1082.3 mb 0.00 in0.0 mm 0.00 in/hr0.0 mm/hr 0.00 in0.0 mm
06:52 PM 80.3°F26.8°C 33.0°F0.6°C 18% 7.8 mph W12.6 kmh W 7.0 mph11.3 kmh 31.96 in1082.3 mb 0.00 in0.0 mm 0.00 in/hr0.0 mm/hr 0.00 in0.0 mm
06:54 PM 80.3°F26.8°C 35.7°F2.1°C 20% 5.2 mph W8.4 kmh W 6.0 mph9.7 kmh 31.96 in1082.3 mb 0.00 in0.0 mm 0.00 in/hr0.0 mm/hr 0.00 in0.0 mm
06:56 PM 80.3°F26.8°C 34.4°F1.3°C 19% 6.5 mph W10.5 kmh W 6.0 mph9.7 kmh 31.96 in1082.3 mb 0.00 in0.0 mm 0.00 in/hr0.0 mm/hr 0.00 in0.0 mm
06:58 PM 79.3°F26.3°C 34.8°F1.6°C 20% 6.5 mph W10.5 kmh W 6.0 mph9.7 kmh 31.96 in1082.3 mb 0.00 in0.0 mm 0.00 in/hr0.0 mm/hr 0.00 in0.0 mm
07:00 PM 79.3°F26.3°C 34.8°F1.6°C 20% 6.5 mph W10.5 kmh W 6.0 mph9.7 kmh 31.96 in1082.3 mb 0.00 in0.0 mm 0.00 in/hr0.0 mm/hr 0.00 in0.0 mm
07:02 PM 79.3°F26.3°C 33.5°F0.8°C 19% 6.5 mph W10.5 kmh W 6.0 mph9.7 kmh 31.96 in1082.3 mb 0.00 in0.0 mm 0.00 in/hr0.0 mm/hr 0.00 in0.0 mm
07:04 PM 79.3°F26.3°C 32.2°F0.1°C 18% 5.2 mph W8.4 kmh W 6.0 mph9.7 kmh 31.97 in1082.6 mb 0.00 in0.0 mm 0.00 in/hr0.0 mm/hr 0.00 in0.0 mm
07:06 PM 79.3°F26.3°C 33.5°F0.8°C 19% 5.2 mph W8.4 kmh W 5.0 mph8.0 kmh 31.97 in1082.6 mb 0.00 in0.0 mm 0.00 in/hr0.0 mm/hr 0.00 in0.0 mm
07:08 PM 79.3°F26.3°C 33.5°F0.8°C 19% 5.2 mph W8.4 kmh W 5.0 mph8.0 kmh 31.97 in1082.6 mb 0.00 in0.0 mm 0.00 in/hr0.0 mm/hr 0.00 in0.0 mm
07:10 PM 79.3°F26.3°C 32.2°F0.1°C 18% 5.2 mph W8.4 kmh W 5.0 mph8.0 kmh 31.97 in1082.6 mb 0.00 in0.0 mm 0.00 in/hr0.0 mm/hr 0.00 in0.0 mm
07:12 PM 79.3°F26.3°C 32.2°F0.1°C 18% 5.2 mph W8.4 kmh W 5.0 mph8.0 kmh 31.97 in1082.6 mb 0.00 in0.0 mm 0.00 in/hr0.0 mm/hr 0.00 in0.0 mm
07:14 PM 79.3°F26.3°C 32.2°F0.1°C 18% 3.9 mph W6.3 kmh W 4.0 mph6.4 kmh 31.97 in1082.6 mb 0.00 in0.0 mm 0.00 in/hr0.0 mm/hr 0.00 in0.0 mm
07:16 PM 79.3°F26.3°C 32.2°F0.1°C 18% 5.2 mph WNW8.4 kmh WNW 4.0 mph6.4 kmh 31.97 in1082.6 mb 0.00 in0.0 mm 0.00 in/hr0.0 mm/hr 0.00 in0.0 mm
07:18 PM 79.3°F26.3°C 32.2°F0.1°C 18% 3.9 mph WNW6.3 kmh WNW 4.0 mph6.4 kmh 31.97 in1082.6 mb 0.00 in0.0 mm 0.00 in/hr0.0 mm/hr 0.00 in0.0 mm
07:20 PM 79.3°F26.3°C 32.2°F0.1°C 18% 5.2 mph WNW8.4 kmh WNW 4.0 mph6.4 kmh 31.97 in1082.6 mb 0.00 in0.0 mm 0.00 in/hr0.0 mm/hr 0.00 in0.0 mm
07:22 PM 79.3°F26.3°C 32.2°F0.1°C 18% 5.2 mph WNW8.4 kmh WNW 5.0 mph8.0 kmh 31.97 in1082.6 mb 0.00 in0.0 mm 0.00 in/hr0.0 mm/hr 0.00 in0.0 mm
07:24 PM 79.3°F26.3°C 32.2°F0.1°C 18% 5.2 mph NW8.4 kmh NW 5.0 mph8.0 kmh 31.98 in1083.0 mb 0.00 in0.0 mm 0.00 in/hr0.0 mm/hr 0.00 in0.0 mm
07:26 PM 78.3°F25.7°C 31.3°F-0.4°C 18% 5.2 mph NW8.4 kmh NW 5.0 mph8.0 kmh 31.98 in1083.0 mb 0.00 in0.0 mm 0.00 in/hr0.0 mm/hr 0.00 in0.0 mm
07:28 PM 78.3°F25.7°C 31.3°F-0.4°C 18% 5.2 mph NW8.4 kmh NW 5.0 mph8.0 kmh 31.98 in1083.0 mb 0.00 in0.0 mm 0.00 in/hr0.0 mm/hr 0.00 in0.0 mm
07:30 PM 78.3°F25.7°C 31.3°F-0.4°C 18% 5.2 mph NW8.4 kmh NW 5.0 mph8.0 kmh 31.98 in1083.0 mb 0.00 in0.0 mm 0.00 in/hr0.0 mm/hr 0.00 in0.0 mm
07:32 PM 78.3°F25.7°C 32.7°F0.4°C 19% 6.5 mph NW10.5 kmh NW 5.0 mph8.0 kmh 31.98 in1083.0 mb 0.00 in0.0 mm 0.00 in/hr0.0 mm/hr 0.00 in0.0 mm
07:34 PM 77.3°F25.2°C 31.8°F-0.1°C 19% 5.2 mph NW8.4 kmh NW 5.0 mph8.0 kmh 31.99 in1083.3 mb 0.00 in0.0 mm 0.00 in/hr0.0 mm/hr 0.00 in0.0 mm
07:36 PM 77.3°F25.2°C 31.8°F-0.1°C 19% 5.2 mph NW8.4 kmh NW 5.0 mph8.0 kmh 31.99 in1083.3 mb 0.00 in0.0 mm 0.00 in/hr0.0 mm/hr 0.00 in0.0 mm
07:38 PM 77.3°F25.2°C 31.8°F-0.1°C 19% 5.2 mph NW8.4 kmh NW 5.0 mph8.0 kmh 31.99 in1083.3 mb 0.00 in0.0 mm 0.00 in/hr0.0 mm/hr 0.00 in0.0 mm
07:40 PM 77.3°F25.2°C 31.8°F-0.1°C 19% 3.9 mph NW6.3 kmh NW 3.0 mph4.8 kmh 31.99 in1083.3 mb 0.00 in0.0 mm 0.00 in/hr0.0 mm/hr 0.00 in0.0 mm
07:42 PM 76.2°F24.6°C 32.3°F0.2°C 20% 1.3 mph NW2.1 kmh NW 3.0 mph4.8 kmh 31.99 in1083.3 mb 0.00 in0.0 mm 0.00 in/hr0.0 mm/hr 0.00 in0.0 mm
07:44 PM 76.2°F24.6°C 32.3°F0.2°C 20% 3.9 mph NW6.3 kmh NW 3.0 mph4.8 kmh 32.00 in1083.6 mb 0.00 in0.0 mm 0.00 in/hr0.0 mm/hr 0.00 in0.0 mm
07:46 PM 76.2°F24.6°C 32.3°F0.2°C 20% 3.9 mph NW6.3 kmh NW 4.0 mph6.4 kmh 32.00 in1083.6 mb 0.00 in0.0 mm 0.00 in/hr0.0 mm/hr 0.00 in0.0 mm
07:48 PM 75.2°F24.0°C 31.4°F-0.3°C 20% 2.6 mph NW4.2 kmh NW 4.0 mph6.4 kmh 32.00 in1083.6 mb 0.00 in0.0 mm 0.00 in/hr0.0 mm/hr 0.00 in0.0 mm
07:50 PM 75.2°F24.0°C 31.4°F-0.3°C 20% 1.3 mph NW2.1 kmh NW 3.0 mph4.8 kmh 32.00 in1083.6 mb 0.00 in0.0 mm 0.00 in/hr0.0 mm/hr 0.00 in0.0 mm
07:52 PM 75.2°F24.0°C 31.4°F-0.3°C 20% 1.3 mph NW2.1 kmh NW 2.0 mph3.2 kmh 32.00 in1083.6 mb 0.00 in0.0 mm 0.00 in/hr0.0 mm/hr 0.00 in0.0 mm
07:54 PM 74.2°F23.4°C 30.6°F-0.8°C 20% 1.3 mph NW2.1 kmh NW 2.0 mph3.2 kmh 32.01 in1084.0 mb 0.00 in0.0 mm 0.00 in/hr0.0 mm/hr 0.00 in0.0 mm
07:56 PM 74.2°F23.4°C 30.6°F-0.8°C 20% 1.3 mph NW2.1 kmh NW 2.0 mph3.2 kmh 32.01 in1084.0 mb 0.00 in0.0 mm 0.00 in/hr0.0 mm/hr 0.00 in0.0 mm
07:58 PM 73.1°F22.8°C 29.7°F-1.3°C 20% 2.6 mph NW4.2 kmh NW 2.0 mph3.2 kmh 32.01 in1084.0 mb 0.00 in0.0 mm 0.00 in/hr0.0 mm/hr 0.00 in0.0 mm
08:00 PM 73.1°F22.8°C 30.9°F-0.6°C 21% 1.3 mph NW2.1 kmh NW 3.0 mph4.8 kmh 32.01 in1084.0 mb 0.00 in0.0 mm 0.00 in/hr0.0 mm/hr 0.00 in0.0 mm
08:02 PM 72.1°F22.3°C 30.1°F-1.1°C 21% 2.6 mph NW4.2 kmh NW 3.0 mph4.8 kmh 32.01 in1084.0 mb 0.00 in0.0 mm 0.00 in/hr0.0 mm/hr 0.00 in0.0 mm
08:04 PM 72.1°F22.3°C 31.2°F-0.4°C 22% 1.3 mph NW2.1 kmh NW 3.0 mph4.8 kmh 32.02 in1084.3 mb 0.00 in0.0 mm 0.00 in/hr0.0 mm/hr 0.00 in0.0 mm
08:06 PM 72.1°F22.3°C 31.2°F-0.4°C 22% 2.6 mph NW4.2 kmh NW 3.0 mph4.8 kmh 32.02 in1084.3 mb 0.00 in0.0 mm 0.00 in/hr0.0 mm/hr 0.00 in0.0 mm
08:08 PM 71.1°F21.7°C 30.3°F-0.9°C 22% 2.6 mph NW4.2 kmh NW 3.0 mph4.8 kmh 32.02 in1084.3 mb 0.00 in0.0 mm 0.00 in/hr0.0 mm/hr 0.00 in0.0 mm
08:10 PM 71.1°F21.7°C 31.4°F-0.3°C 23% 2.6 mph NW4.2 kmh NW 3.0 mph4.8 kmh 32.02 in1084.3 mb 0.00 in0.0 mm 0.00 in/hr0.0 mm/hr 0.00 in0.0 mm
08:12 PM 71.1°F21.7°C 31.4°F-0.3°C 23% 1.3 mph NW2.1 kmh NW 2.0 mph3.2 kmh 32.02 in1084.3 mb 0.00 in0.0 mm 0.00 in/hr0.0 mm/hr 0.00 in0.0 mm
08:14 PM 71.1°F21.7°C 31.4°F-0.3°C 23% 2.6 mph NW4.2 kmh NW 3.0 mph4.8 kmh 32.04 in1085.0 mb 0.00 in0.0 mm 0.00 in/hr0.0 mm/hr 0.00 in0.0 mm
08:16 PM 71.1°F21.7°C 32.5°F0.3°C 24% 2.6 mph N4.2 kmh N 3.0 mph4.8 kmh 32.04 in1085.0 mb 0.00 in0.0 mm 0.00 in/hr0.0 mm/hr 0.00 in0.0 mm
08:18 PM 70.0°F21.1°C 31.6°F-0.2°C 24% 3.9 mph N6.3 kmh N 4.0 mph6.4 kmh 32.04 in1085.0 mb 0.00 in0.0 mm 0.00 in/hr0.0 mm/hr 0.00 in0.0 mm
08:20 PM 70.0°F21.1°C 31.6°F-0.2°C 24% 1.3 mph N2.1 kmh N 4.0 mph6.4 kmh 32.04 in1085.0 mb 0.00 in0.0 mm 0.00 in/hr0.0 mm/hr 0.00 in0.0 mm
08:22 PM 70.0°F21.1°C 31.6°F-0.2°C 24% 3.9 mph N6.3 kmh N 3.0 mph4.8 kmh 32.04 in1085.0 mb 0.00 in0.0 mm 0.00 in/hr0.0 mm/hr 0.00 in0.0 mm
08:24 PM 70.0°F21.1°C 31.6°F-0.2°C 24% 2.6 mph N4.2 kmh N 3.0 mph4.8 kmh 32.04 in1085.0 mb 0.00 in0.0 mm 0.00 in/hr0.0 mm/hr 0.00 in0.0 mm
08:26 PM 70.0°F21.1°C 31.6°F-0.2°C 24% 2.6 mph N4.2 kmh N 3.0 mph4.8 kmh 32.04 in1085.0 mb 0.00 in0.0 mm 0.00 in/hr0.0 mm/hr 0.00 in0.0 mm
08:28 PM 69.0°F20.6°C 30.8°F-0.7°C 24% 1.3 mph N2.1 kmh N 2.0 mph3.2 kmh 32.04 in1085.0 mb 0.00 in0.0 mm 0.00 in/hr0.0 mm/hr 0.00 in0.0 mm
08:30 PM 69.0°F20.6°C 30.8°F-0.7°C 24% 2.6 mph N4.2 kmh N 2.0 mph3.2 kmh 32.04 in1085.0 mb 0.00 in0.0 mm 0.00 in/hr0.0 mm/hr 0.00 in0.0 mm
08:32 PM 69.0°F20.6°C 30.8°F-0.7°C 24% 2.6 mph N4.2 kmh N 2.0 mph3.2 kmh 32.04 in1085.0 mb 0.00 in0.0 mm 0.00 in/hr0.0 mm/hr 0.00 in0.0 mm
08:34 PM 68.0°F20.0°C 30.9°F-0.6°C 25% Calm Calm 2.0 mph3.2 kmh 32.04 in1085.0 mb 0.00 in0.0 mm 0.00 in/hr0.0 mm/hr 0.00 in0.0 mm
08:36 PM 68.0°F20.0°C 30.9°F-0.6°C 25% Calm Calm 1.0 mph1.6 kmh 32.04 in1085.0 mb 0.00 in0.0 mm 0.00 in/hr0.0 mm/hr 0.00 in0.0 mm
08:38 PM 68.0°F20.0°C 30.9°F-0.6°C 25% Calm Calm 1.0 mph1.6 kmh 32.04 in1085.0 mb 0.00 in0.0 mm 0.00 in/hr0.0 mm/hr 0.00 in0.0 mm
08:40 PM 67.0°F19.4°C 31.0°F-0.6°C 26% Calm Calm 1.0 mph1.6 kmh 32.04 in1085.0 mb 0.00 in0.0 mm 0.00 in/hr0.0 mm/hr 0.00 in0.0 mm
08:42 PM 67.0°F19.4°C 31.0°F-0.6°C 26% 1.3 mph N2.1 kmh N 2.0 mph3.2 kmh 32.04 in1085.0 mb 0.00 in0.0 mm 0.00 in/hr0.0 mm/hr 0.00 in0.0 mm
08:44 PM 67.0°F19.4°C 31.9°F-0.1°C 27% 1.3 mph N2.1 kmh N 2.0 mph3.2 kmh 32.06 in1085.7 mb 0.00 in0.0 mm 0.00 in/hr0.0 mm/hr 0.00 in0.0 mm
08:46 PM 65.9°F18.8°C 31.0°F-0.6°C 27% 1.3 mph N2.1 kmh N 2.0 mph3.2 kmh 32.06 in1085.7 mb 0.00 in0.0 mm 0.00 in/hr0.0 mm/hr 0.00 in0.0 mm
08:48 PM 65.9°F18.8°C 31.0°F-0.6°C 27% 1.3 mph N2.1 kmh N 1.0 mph1.6 kmh 32.06 in1085.7 mb 0.00 in0.0 mm 0.00 in/hr0.0 mm/hr 0.00 in0.0 mm
08:50 PM 65.9°F18.8°C 31.0°F-0.6°C 27% Calm Calm 2.0 mph3.2 kmh 32.06 in1085.7 mb 0.00 in0.0 mm 0.00 in/hr0.0 mm/hr 0.00 in0.0 mm
08:52 PM 65.9°F18.8°C 31.9°F-0.1°C 28% Calm Calm 2.0 mph3.2 kmh 32.06 in1085.7 mb 0.00 in0.0 mm 0.00 in/hr0.0 mm/hr 0.00 in0.0 mm
08:54 PM 64.9°F18.3°C 30.1°F-1.1°C 27% 1.3 mph N2.1 kmh N 2.0 mph3.2 kmh 32.06 in1085.7 mb 0.00 in0.0 mm 0.00 in/hr0.0 mm/hr 0.00 in0.0 mm
08:56 PM 64.9°F18.3°C 31.0°F-0.6°C 28% 1.3 mph N2.1 kmh N 2.0 mph3.2 kmh 32.06 in1085.7 mb 0.00 in0.0 mm 0.00 in/hr0.0 mm/hr 0.00 in0.0 mm
08:58 PM 64.9°F18.3°C 31.0°F-0.6°C 28% 1.3 mph N2.1 kmh N 3.0 mph4.8 kmh 32.06 in1085.7 mb 0.00 in0.0 mm 0.00 in/hr0.0 mm/hr 0.00 in0.0 mm
09:00 PM 64.9°F18.3°C 31.9°F-0.1°C 29% 2.6 mph N4.2 kmh N 3.0 mph4.8 kmh 32.06 in1085.7 mb 0.00 in0.0 mm 0.00 in/hr0.0 mm/hr 0.00 in0.0 mm
09:02 PM 64.9°F18.3°C 31.9°F-0.1°C 29% 3.9 mph N6.3 kmh N 3.0 mph4.8 kmh 32.06 in1085.7 mb 0.00 in0.0 mm 0.00 in/hr0.0 mm/hr 0.00 in0.0 mm
09:04 PM 64.9°F18.3°C 31.0°F-0.6°C 28% 5.2 mph N8.4 kmh N 4.0 mph6.4 kmh 32.07 in1086.0 mb 0.00 in0.0 mm 0.00 in/hr0.0 mm/hr 0.00 in0.0 mm
09:06 PM 64.9°F18.3°C 30.1°F-1.1°C 27% 3.9 mph N6.3 kmh N 4.0 mph6.4 kmh 32.07 in1086.0 mb 0.00 in0.0 mm 0.00 in/hr0.0 mm/hr 0.00 in0.0 mm
09:08 PM 64.9°F18.3°C 29.2°F-1.6°C 26% 5.2 mph N8.4 kmh N 4.0 mph6.4 kmh 32.07 in1086.0 mb 0.00 in0.0 mm 0.00 in/hr0.0 mm/hr 0.00 in0.0 mm
09:10 PM 64.9°F18.3°C 29.2°F-1.6°C 26% 3.9 mph N6.3 kmh N 4.0 mph6.4 kmh 32.07 in1086.0 mb 0.00 in0.0 mm 0.00 in/hr0.0 mm/hr 0.00 in0.0 mm
09:12 PM 64.9°F18.3°C 29.2°F-1.6°C 26% 5.2 mph N8.4 kmh N 5.0 mph8.0 kmh 32.07 in1086.0 mb 0.00 in0.0 mm 0.00 in/hr0.0 mm/hr 0.00 in0.0 mm
09:14 PM 65.9°F18.8°C 30.1°F-1.1°C 26% 6.5 mph N10.5 kmh N 7.0 mph11.3 kmh 32.06 in1085.7 mb 0.00 in0.0 mm 0.00 in/hr0.0 mm/hr 0.00 in0.0 mm
09:16 PM 65.9°F18.8°C 31.0°F-0.6°C 27% 3.9 mph N6.3 kmh N 6.0 mph9.7 kmh 32.06 in1085.7 mb 0.00 in0.0 mm 0.00 in/hr0.0 mm/hr 0.00 in0.0 mm
09:18 PM 65.9°F18.8°C 31.0°F-0.6°C 27% 3.9 mph NNE6.3 kmh NNE 5.0 mph8.0 kmh 32.06 in1085.7 mb 0.00 in0.0 mm 0.00 in/hr0.0 mm/hr 0.00 in0.0 mm
09:20 PM 65.9°F18.8°C 31.0°F-0.6°C 27% 3.9 mph NNE6.3 kmh NNE 4.0 mph6.4 kmh 32.06 in1085.7 mb 0.00 in0.0 mm 0.00 in/hr0.0 mm/hr 0.00 in0.0 mm
09:22 PM 65.9°F18.8°C 31.0°F-0.6°C 27% 5.2 mph NNE8.4 kmh NNE 5.0 mph8.0 kmh 32.06 in1085.7 mb 0.00 in0.0 mm 0.00 in/hr0.0 mm/hr 0.00 in0.0 mm
09:24 PM 65.9°F18.8°C 31.0°F-0.6°C 27% 3.9 mph NNE6.3 kmh NNE 4.0 mph6.4 kmh 32.07 in1086.0 mb 0.00 in0.0 mm 0.00 in/hr0.0 mm/hr 0.00 in0.0 mm
09:26 PM 65.9°F18.8°C 31.0°F-0.6°C 27% 5.2 mph NNE8.4 kmh NNE 5.0 mph8.0 kmh 32.07 in1086.0 mb 0.00 in0.0 mm 0.00 in/hr0.0 mm/hr 0.00 in0.0 mm
09:28 PM 65.9°F18.8°C 31.0°F-0.6°C 27% 3.9 mph N6.3 kmh N 4.0 mph6.4 kmh 32.07 in1086.0 mb 0.00 in0.0 mm 0.00 in/hr0.0 mm/hr 0.00 in0.0 mm
09:30 PM 65.9°F18.8°C 31.0°F-0.6°C 27% 1.3 mph N2.1 kmh N 2.0 mph3.2 kmh 32.07 in1086.0 mb 0.00 in0.0 mm 0.00 in/hr0.0 mm/hr 0.00 in0.0 mm
09:32 PM 65.9°F18.8°C 31.9°F-0.1°C 28% Calm Calm 1.0 mph1.6 kmh 32.07 in1086.0 mb 0.00 in0.0 mm 0.00 in/hr0.0 mm/hr 0.00 in0.0 mm
09:34 PM 65.9°F18.8°C 32.8°F0.4°C 29% Calm Calm -- 32.08 in1086.4 mb 0.00 in0.0 mm 0.00 in/hr0.0 mm/hr 0.00 in0.0 mm
09:36 PM 64.9°F18.3°C 31.0°F-0.6°C 28% 5.2 mph ENE8.4 kmh ENE 4.0 mph6.4 kmh 32.08 in1086.4 mb 0.00 in0.0 mm 0.00 in/hr0.0 mm/hr 0.00 in0.0 mm
09:38 PM 64.9°F18.3°C 31.0°F-0.6°C 28% 5.2 mph ENE8.4 kmh ENE 4.0 mph6.4 kmh 32.08 in1086.4 mb 0.00 in0.0 mm 0.00 in/hr0.0 mm/hr 0.00 in0.0 mm
09:40 PM 64.9°F18.3°C 30.1°F-1.1°C 27% 3.9 mph ENE6.3 kmh ENE 3.0 mph4.8 kmh 32.08 in1086.4 mb 0.00 in0.0 mm 0.00 in/hr0.0 mm/hr 0.00 in0.0 mm
09:42 PM 64.9°F18.3°C 31.0°F-0.6°C 28% 5.2 mph ENE8.4 kmh ENE 4.0 mph6.4 kmh 32.08 in1086.4 mb 0.00 in0.0 mm 0.00 in/hr0.0 mm/hr 0.00 in0.0 mm
09:44 PM 64.9°F18.3°C 31.0°F-0.6°C 28% 6.5 mph ENE10.5 kmh ENE 5.0 mph8.0 kmh 32.08 in1086.4 mb 0.00 in0.0 mm 0.00 in/hr0.0 mm/hr 0.00 in0.0 mm
09:46 PM 65.9°F18.8°C 32.8°F0.4°C 29% 6.5 mph ENE10.5 kmh ENE 5.0 mph8.0 kmh 32.08 in1086.4 mb 0.00 in0.0 mm 0.00 in/hr0.0 mm/hr 0.00 in0.0 mm
09:48 PM 65.9°F18.8°C 32.8°F0.4°C 29% 6.5 mph NE10.5 kmh NE 5.0 mph8.0 kmh 32.08 in1086.4 mb 0.00 in0.0 mm 0.00 in/hr0.0 mm/hr 0.00 in0.0 mm
09:50 PM 65.9°F18.8°C 32.8°F0.4°C 29% 6.5 mph ENE10.5 kmh ENE 6.0 mph9.7 kmh 32.08 in1086.4 mb 0.00 in0.0 mm 0.00 in/hr0.0 mm/hr 0.00 in0.0 mm
09:52 PM 65.9°F18.8°C 32.8°F0.4°C 29% 6.5 mph ENE10.5 kmh ENE 6.0 mph9.7 kmh 32.08 in1086.4 mb 0.00 in0.0 mm 0.00 in/hr0.0 mm/hr 0.00 in0.0 mm
09:54 PM 65.9°F18.8°C 33.6°F0.9°C 30% 6.5 mph ENE10.5 kmh ENE 6.0 mph9.7 kmh 32.08 in1086.4 mb 0.00 in0.0 mm 0.00 in/hr0.0 mm/hr 0.00 in0.0 mm
09:56 PM 65.9°F18.8°C 34.5°F1.4°C 31% 7.8 mph ENE12.6 kmh ENE 6.0 mph9.7 kmh 32.08 in1086.4 mb 0.00 in0.0 mm 0.00 in/hr0.0 mm/hr 0.00 in0.0 mm
09:58 PM 65.9°F18.8°C 35.3°F1.8°C 32% 6.5 mph ENE10.5 kmh ENE 6.0 mph9.7 kmh 32.08 in1086.4 mb 0.00 in0.0 mm 0.00 in/hr0.0 mm/hr 0.00 in0.0 mm
10:00 PM 65.9°F18.8°C 35.3°F1.8°C 32% 7.8 mph ENE12.6 kmh ENE 6.0 mph9.7 kmh 32.08 in1086.4 mb 0.00 in0.0 mm 0.00 in/hr0.0 mm/hr 0.00 in0.0 mm
10:02 PM 65.9°F18.8°C 36.0°F2.2°C 33% 7.8 mph ENE12.6 kmh ENE 6.0 mph9.7 kmh 32.08 in1086.4 mb 0.00 in0.0 mm 0.00 in/hr0.0 mm/hr 0.00 in0.0 mm
10:04 PM 64.9°F18.3°C 35.1°F1.7°C 33% 7.8 mph ENE12.6 kmh ENE 6.0 mph9.7 kmh 32.08 in1086.4 mb 0.00 in0.0 mm 0.00 in/hr0.0 mm/hr 0.00 in0.0 mm
10:06 PM 64.9°F18.3°C 35.1°F1.7°C 33% 6.5 mph ENE10.5 kmh ENE 7.0 mph11.3 kmh 32.08 in1086.4 mb 0.00 in0.0 mm 0.00 in/hr0.0 mm/hr 0.00 in0.0 mm
10:08 PM 64.9°F18.3°C 36.6°F2.6°C 35% 7.8 mph ENE12.6 kmh ENE 7.0 mph11.3 kmh 32.08 in1086.4 mb 0.00 in0.0 mm 0.00 in/hr0.0 mm/hr 0.00 in0.0 mm
10:10 PM 64.9°F18.3°C 37.3°F2.9°C 36% 6.5 mph ENE10.5 kmh ENE 6.0 mph9.7 kmh 32.08 in1086.4 mb 0.00 in0.0 mm 0.00 in/hr0.0 mm/hr 0.00 in0.0 mm
10:12 PM 63.9°F17.7°C 37.1°F2.8°C 37% 7.8 mph ENE12.6 kmh ENE 7.0 mph11.3 kmh 32.08 in1086.4 mb 0.00 in0.0 mm 0.00 in/hr0.0 mm/hr 0.00 in0.0 mm
10:14 PM 63.9°F17.7°C 37.8°F3.2°C 38% 7.8 mph NE12.6 kmh NE 7.0 mph11.3 kmh 32.08 in1086.4 mb 0.00 in0.0 mm 0.00 in/hr0.0 mm/hr 0.00 in0.0 mm
10:16 PM 63.9°F17.7°C 38.5°F3.6°C 39% 7.8 mph ENE12.6 kmh ENE 7.0 mph11.3 kmh 32.08 in1086.4 mb 0.00 in0.0 mm 0.00 in/hr0.0 mm/hr 0.00 in0.0 mm
10:18 PM 63.9°F17.7°C 39.7°F4.3°C 41% 7.8 mph ENE12.6 kmh ENE 7.0 mph11.3 kmh 32.08 in1086.4 mb 0.00 in0.0 mm 0.00 in/hr0.0 mm/hr 0.00 in0.0 mm
10:20 PM 62.8°F17.1°C 39.4°F4.1°C 42% 6.5 mph E10.5 kmh E 8.0 mph12.9 kmh 32.08 in1086.4 mb 0.00 in0.0 mm 0.00 in/hr0.0 mm/hr 0.00 in0.0 mm
10:22 PM 62.8°F17.1°C 40.6°F4.8°C 44% 7.8 mph ENE12.6 kmh ENE 7.0 mph11.3 kmh 32.08 in1086.4 mb 0.00 in0.0 mm 0.00 in/hr0.0 mm/hr 0.00 in0.0 mm
10:24 PM 62.8°F17.1°C 40.6°F4.8°C 44% 9.1 mph ENE14.6 kmh ENE 7.0 mph11.3 kmh 32.09 in1086.7 mb 0.00 in0.0 mm 0.00 in/hr0.0 mm/hr 0.00 in0.0 mm
10:26 PM 62.8°F17.1°C 41.8°F5.4°C 46% 9.1 mph E14.6 kmh E 7.0 mph11.3 kmh 32.09 in1086.7 mb 0.00 in0.0 mm 0.00 in/hr0.0 mm/hr 0.00 in0.0 mm
10:28 PM 62.8°F17.1°C 42.9°F6.1°C 48% 7.8 mph E12.6 kmh E 8.0 mph12.9 kmh 32.09 in1086.7 mb 0.00 in0.0 mm 0.00 in/hr0.0 mm/hr 0.00 in0.0 mm
10:30 PM 62.8°F17.1°C 43.9°F6.6°C 50% 7.8 mph NE12.6 kmh NE 7.0 mph11.3 kmh 32.09 in1086.7 mb 0.00 in0.0 mm 0.00 in/hr0.0 mm/hr 0.00 in0.0 mm
10:32 PM 62.8°F17.1°C 43.9°F6.6°C 50% 7.8 mph E12.6 kmh E 8.0 mph12.9 kmh 32.09 in1086.7 mb 0.00 in0.0 mm 0.00 in/hr0.0 mm/hr 0.00 in0.0 mm
10:34 PM 62.8°F17.1°C 44.5°F6.9°C 51% 5.2 mph ENE8.4 kmh ENE 7.0 mph11.3 kmh 32.09 in1086.7 mb 0.00 in0.0 mm 0.00 in/hr0.0 mm/hr 0.00 in0.0 mm
10:36 PM 62.8°F17.1°C 45.0°F7.2°C 52% 7.8 mph E12.6 kmh E 7.0 mph11.3 kmh 32.09 in1086.7 mb 0.00 in0.0 mm 0.00 in/hr0.0 mm/hr 0.00 in0.0 mm
10:38 PM 62.8°F17.1°C 45.5°F7.5°C 53% 7.8 mph E12.6 kmh E 7.0 mph11.3 kmh 32.09 in1086.7 mb 0.00 in0.0 mm 0.00 in/hr0.0 mm/hr 0.00 in0.0 mm
10:40 PM 61.8°F16.6°C 44.5°F6.9°C 53% 9.1 mph ESE14.6 kmh ESE 12.0 mph19.3 kmh 32.09 in1086.7 mb 0.00 in0.0 mm 0.00 in/hr0.0 mm/hr 0.00 in0.0 mm
10:42 PM 61.8°F16.6°C 44.5°F6.9°C 53% 6.5 mph ESE10.5 kmh ESE 11.0 mph17.7 kmh 32.09 in1086.7 mb 0.00 in0.0 mm 0.00 in/hr0.0 mm/hr 0.00 in0.0 mm
10:44 PM 60.8°F16.0°C 43.1°F6.2°C 52% 7.8 mph SE12.6 kmh SE 10.0 mph16.1 kmh 32.10 in1087.0 mb 0.00 in0.0 mm 0.00 in/hr0.0 mm/hr 0.00 in0.0 mm
10:46 PM 59.7°F15.4°C 42.6°F5.9°C 53% 3.9 mph SE6.3 kmh SE 6.0 mph9.7 kmh 32.10 in1087.0 mb 0.00 in0.0 mm 0.00 in/hr0.0 mm/hr 0.00 in0.0 mm
10:48 PM 58.7°F14.8°C 42.1°F5.6°C 54% 5.2 mph SE8.4 kmh SE 6.0 mph9.7 kmh 32.10 in1087.0 mb 0.00 in0.0 mm 0.00 in/hr0.0 mm/hr 0.00 in0.0 mm
10:50 PM 57.7°F14.3°C 41.6°F5.3°C 55% 2.6 mph SE4.2 kmh SE 5.0 mph8.0 kmh 32.10 in1087.0 mb 0.00 in0.0 mm 0.00 in/hr0.0 mm/hr 0.00 in0.0 mm
10:52 PM 56.7°F13.7°C 41.2°F5.1°C 56% 3.9 mph E6.3 kmh E 6.0 mph9.7 kmh 32.10 in1087.0 mb 0.00 in0.0 mm 0.00 in/hr0.0 mm/hr 0.00 in0.0 mm
10:54 PM 56.7°F13.7°C 41.6°F5.3°C 57% 1.3 mph SSE2.1 kmh SSE 4.0 mph6.4 kmh 32.11 in1087.4 mb 0.00 in0.0 mm 0.00 in/hr0.0 mm/hr 0.00 in0.0 mm
10:56 PM 55.6°F13.1°C 41.1°F5.1°C 58% 1.3 mph SE2.1 kmh SE 3.0 mph4.8 kmh 32.11 in1087.4 mb 0.00 in0.0 mm 0.00 in/hr0.0 mm/hr 0.00 in0.0 mm
10:58 PM 55.6°F13.1°C 41.1°F5.1°C 58% 3.9 mph SE6.3 kmh SE 4.0 mph6.4 kmh 32.11 in1087.4 mb 0.00 in0.0 mm 0.00 in/hr0.0 mm/hr 0.00 in0.0 mm
11:00 PM 54.6°F12.6°C 40.6°F4.8°C 59% 3.9 mph ESE6.3 kmh ESE 3.0 mph4.8 kmh 32.11 in1087.4 mb 0.00 in0.0 mm 0.00 in/hr0.0 mm/hr 0.00 in0.0 mm
11:02 PM 54.6°F12.6°C 40.6°F4.8°C 59% 1.3 mph SE2.1 kmh SE 3.0 mph4.8 kmh 32.11 in1087.4 mb 0.00 in0.0 mm 0.00 in/hr0.0 mm/hr 0.00 in0.0 mm
11:04 PM 54.6°F12.6°C 41.0°F5.0°C 60% 2.6 mph SSE4.2 kmh SSE 3.0 mph4.8 kmh 32.12 in1087.7 mb 0.00 in0.0 mm 0.00 in/hr0.0 mm/hr 0.00 in0.0 mm
11:06 PM 53.6°F12.0°C 40.5°F4.7°C 61% 2.6 mph SE4.2 kmh SE 4.0 mph6.4 kmh 32.12 in1087.7 mb 0.00 in0.0 mm 0.00 in/hr0.0 mm/hr 0.00 in0.0 mm
11:08 PM 53.6°F12.0°C 40.5°F4.7°C 61% 5.2 mph SE8.4 kmh SE 4.0 mph6.4 kmh 32.12 in1087.7 mb 0.00 in0.0 mm 0.00 in/hr0.0 mm/hr 0.00 in0.0 mm
11:10 PM 53.6°F12.0°C 40.5°F4.7°C 61% 1.3 mph ESE2.1 kmh ESE 3.0 mph4.8 kmh 32.12 in1087.7 mb 0.00 in0.0 mm 0.00 in/hr0.0 mm/hr 0.00 in0.0 mm
11:12 PM 53.6°F12.0°C 40.0°F4.4°C 60% 1.3 mph S2.1 kmh S 3.0 mph4.8 kmh 32.12 in1087.7 mb 0.00 in0.0 mm 0.00 in/hr0.0 mm/hr 0.00 in0.0 mm
11:14 PM 53.6°F12.0°C 40.0°F4.4°C 60% 1.3 mph SSE2.1 kmh SSE 2.0 mph3.2 kmh 32.13 in1088.0 mb 0.00 in0.0 mm 0.00 in/hr0.0 mm/hr 0.00 in0.0 mm
11:16 PM 53.6°F12.0°C 39.6°F4.2°C 59% 2.6 mph SSE4.2 kmh SSE 5.0 mph8.0 kmh 32.13 in1088.0 mb 0.00 in0.0 mm 0.00 in/hr0.0 mm/hr 0.00 in0.0 mm
11:18 PM 53.6°F12.0°C 39.6°F4.2°C 59% 1.3 mph S2.1 kmh S 4.0 mph6.4 kmh 32.13 in1088.0 mb 0.00 in0.0 mm 0.00 in/hr0.0 mm/hr 0.00 in0.0 mm
11:20 PM 53.6°F12.0°C 39.2°F4.0°C 58% 3.9 mph SW6.3 kmh SW 3.0 mph4.8 kmh 32.13 in1088.0 mb 0.00 in0.0 mm 0.00 in/hr0.0 mm/hr 0.00 in0.0 mm
11:22 PM 52.5°F11.4°C 37.8°F3.2°C 57% 2.6 mph SSW4.2 kmh SSW 3.0 mph4.8 kmh 32.13 in1088.0 mb 0.00 in0.0 mm 0.00 in/hr0.0 mm/hr 0.00 in0.0 mm
11:24 PM 52.5°F11.4°C 38.2°F3.4°C 58% 5.2 mph S8.4 kmh S 4.0 mph6.4 kmh 32.13 in1088.0 mb 0.00 in0.0 mm 0.00 in/hr0.0 mm/hr 0.00 in0.0 mm
11:26 PM 52.5°F11.4°C 38.2°F3.4°C 58% Calm Calm 3.0 mph4.8 kmh 32.13 in1088.0 mb 0.00 in0.0 mm 0.00 in/hr0.0 mm/hr 0.00 in0.0 mm
11:28 PM 52.5°F11.4°C 38.2°F3.4°C 58% 3.9 mph WSW6.3 kmh WSW 4.0 mph6.4 kmh 32.13 in1088.0 mb 0.00 in0.0 mm 0.00 in/hr0.0 mm/hr 0.00 in0.0 mm
11:30 PM 51.5°F10.8°C 38.1°F3.4°C 60% 3.9 mph SW6.3 kmh SW 5.0 mph8.0 kmh 32.13 in1088.0 mb 0.00 in0.0 mm 0.00 in/hr0.0 mm/hr 0.00 in0.0 mm
11:32 PM 51.5°F10.8°C 38.1°F3.4°C 60% 2.6 mph S4.2 kmh S 4.0 mph6.4 kmh 32.13 in1088.0 mb 0.00 in0.0 mm 0.00 in/hr0.0 mm/hr 0.00 in0.0 mm
11:34 PM 51.5°F10.8°C 38.1°F3.4°C 60% 7.8 mph S12.6 kmh S 7.0 mph11.3 kmh 32.14 in1088.4 mb 0.00 in0.0 mm 0.00 in/hr0.0 mm/hr 0.00 in0.0 mm
11:36 PM 51.5°F10.8°C 37.2°F2.9°C 58% 10.4 mph ESE16.7 kmh ESE 10.0 mph16.1 kmh 32.14 in1088.4 mb 0.00 in0.0 mm 0.00 in/hr0.0 mm/hr 0.00 in0.0 mm
11:38 PM 51.5°F10.8°C 37.7°F3.2°C 59% 6.5 mph ESE10.5 kmh ESE 8.0 mph12.9 kmh 32.14 in1088.4 mb 0.00 in0.0 mm 0.00 in/hr0.0 mm/hr 0.00 in0.0 mm
11:40 PM 51.5°F10.8°C 37.7°F3.2°C 59% 9.1 mph ESE14.6 kmh ESE 10.0 mph16.1 kmh 32.14 in1088.4 mb 0.00 in0.0 mm 0.00 in/hr0.0 mm/hr 0.00 in0.0 mm
11:42 PM 51.5°F10.8°C 38.1°F3.4°C 60% 10.4 mph ESE16.7 kmh ESE 9.0 mph14.5 kmh 32.14 in1088.4 mb 0.00 in0.0 mm 0.00 in/hr0.0 mm/hr 0.00 in0.0 mm
11:44 PM 51.5°F10.8°C 37.7°F3.2°C 59% 6.5 mph SE10.5 kmh SE 8.0 mph12.9 kmh 32.15 in1088.7 mb 0.00 in0.0 mm 0.00 in/hr0.0 mm/hr 0.00 in0.0 mm
11:46 PM 51.5°F10.8°C 37.7°F3.2°C 59% 2.6 mph SSE4.2 kmh SSE 8.0 mph12.9 kmh 32.15 in1088.7 mb 0.00 in0.0 mm 0.00 in/hr0.0 mm/hr 0.00 in0.0 mm
11:48 PM 51.5°F10.8°C 37.2°F2.9°C 58% 2.6 mph SSE4.2 kmh SSE 5.0 mph8.0 kmh 32.15 in1088.7 mb 0.00 in0.0 mm 0.00 in/hr0.0 mm/hr 0.00 in0.0 mm
11:50 PM 51.5°F10.8°C 37.2°F2.9°C 58% 5.2 mph ESE8.4 kmh ESE 6.0 mph9.7 kmh 32.15 in1088.7 mb 0.00 in0.0 mm 0.00 in/hr0.0 mm/hr 0.00 in0.0 mm
11:52 PM 52.5°F11.4°C 37.8°F3.2°C 57% 3.9 mph SSE6.3 kmh SSE 6.0 mph9.7 kmh 32.15 in1088.7 mb 0.00 in0.0 mm 0.00 in/hr0.0 mm/hr 0.00 in0.0 mm
11:54 PM 53.6°F12.0°C 39.2°F4.0°C 58% 3.9 mph ESE6.3 kmh ESE 5.0 mph8.0 kmh 32.14 in1088.4 mb 0.00 in0.0 mm 0.00 in/hr0.0 mm/hr 0.00 in0.0 mm
11:56 PM 54.6°F12.6°C 39.2°F4.0°C 56% 9.1 mph SSE14.6 kmh SSE 8.0 mph12.9 kmh 32.14 in1088.4 mb 0.00 in0.0 mm 0.00 in/hr0.0 mm/hr 0.00 in0.0 mm
11:58 PM 55.6°F13.1°C 40.2°F4.6°C 56% 10.4 mph S16.7 kmh S 10.0 mph16.1 kmh 32.14 in1088.4 mb 0.00 in0.0 mm 0.00 in/hr0.0 mm/hr 0.00 in0.0 mm